Aviation Digital Data Service (ADDS)

Output produced by METARs form (0018 UTC 07 July 2015)
found at http://aviationweather.gov/adds/metars/
 
K04V 070016Z AUTO 10003KT 10SM BKN080 OVC110 14/12 A3032 RMK AO2 PWINO
K04W 070013Z AUTO 32013G21KT 10SM CLR 18/11 A2997 RMK AO2
K06D 062355Z AUTO 34008KT 10SM FEW050 16/07 A3017 RMK AO2
K08D 070015Z AUTO 36005KT 10SM CLR 18/07 A3019 RMK AO2
K0A9 070015Z AUTO 00000KT 6SM BR CLR 22/19 A3012 RMK
K0CO 070014Z AUTO 15010KT M1/4SM HZ OVC001 03/M01 A3064 RMK AO2
K0E0 062355Z AUTO 06013G19KT 10SM -RA 18/14 A3019 RMK AO2 LTG DSNT SE AND W P0003 60056 T01750144 10289 20155
K0F2 062355Z AUTO 16013G19KT 10SM CLR 10/00 A2985 RMK AO2 T00991001 10175 20002
K0J4 062358Z AUTO 00000KT 10SM CLR 29/22 A3011 RMK AO2 SLP193 T02940222 10322 20294 58010
K0S9 070015Z AUTO 32007KT 10SM CLR 21/13 A2998 RMK AO2
K0V4 062355Z AUTO 00000KT 10SM CLR 26/24 A3006 RMK AO1 T02550241 10290 20242
K11R 062355Z AUTO 16009G17KT 10SM CLR 32/24 A2997 RMK AO2 T03150236 10336 20315
K12N 062354Z AUTO VRB03KT 24/20 A3010 RMK AO1 SLP185 T02440200 10278 20244 58005
K14Y 070018Z AUTO 32012G20KT 10SM SCT042 BKN048 16/07 A3006 RMK AO2
K18A 070015Z AUTO 00000KT 10SM CLR 24/21 A3009 RMK AO2 T02390205
K19A 062355Z AUTO 18003KT 10SM SCT048 SCT050 27/22 A3009 RMK AO2
K1A5 062355Z AUTO 00000KT 24/20 A3016 RMK AO2 T02410200 10270 20241 PWINO
K1A6 062355Z AUTO 00000KT 10SM SCT045 27/21 A3008 RMK AO2 T02650212 10297 20265
K1A9 070015Z AUTO 00000KT 10SM CLR 28/24 A3009 RMK AO2 T02760242
K1F0 062350Z AUTO 19009G15KT 10SM CLR 30/19 A2984 RMK AO2
K1H2 062355Z AUTO 00000KT 10SM CLR 26/21 A2994 RMK AO2 LTG DSNT NE 60005 T02550213 10300 20228
K1II 062355Z AUTO 18005KT 10SM CLR 26/21 A2997 RMK AO2
K1J0 062358Z AUTO 00000KT 10SM CLR 29/24 A3010 RMK AO2 SLP150 T02890244 10322 20289 56010
K1K1 070015Z AUTO 03004KT 10SM DZ BKN005 BKN048 OVC060 22/22 A2989 RMK AO2 T02200215
K1L0 061955Z AUTO 16004KT 10SM OVC043 33/23 A3012 RMK AO2 T03320230
K1M4 062356Z AUTO 20006KT 10SM CLR 28/23 A3012 RMK AO2 58010 T02770233 10300 20277 SLP209
K1P1 070015Z AUTO 00000KT 10SM CLR 21/20 A3009 RMK AO2 T02140197
K1QW 062356Z AUTO 25008G12KT M /// /// M 33/03 A2996 RMK AO2 SLP120 T03280032 10329 20253 57017 $
K1R7 062355Z AUTO 00000KT CLR 30/26 A3009 RMK AO2
K1S5 070015Z AUTO 00000KT 10SM CLR 36/16 A2981 RMK AO2 T03550163
K1V4 062354Z AUTO 25/13 A3006 RMK AO1 SLP171 T02500133 10289 20250 55006
K1V6 070010Z AUTO 06007KT 10SM -DZ SCT047 OVC055 17/15 A3026 RMK AO2
K1YT 062356Z AUTO 24007KT 10SM CLR 37/06 A2986 RMK AO2 SLPNO T03700059 10370 20313 57020 $
K20U 062355Z AUTO 03008KT 10SM FEW060 20/09 A3018 RMK AO2
K20V 070016Z AUTO 24005KT 10SM CLR 21/08 A3027 RMK AO2
K21D 070015Z AUTO 33008G14KT 7SM SCT060 21/13 A2995 RMK AO2
K24J 070015Z AUTO 27004KT 10SM CLR 29/23 A3013 RMK AO1
K28J 062335Z AUTO 11003KT 10SM CLR 24/23 A3015 RMK AO2 TSNO
K2C8 070015Z AUTO 35008KT 10SM FEW046 17/07 A3013 RMK AO2
K2D5 062355Z AUTO 35013G17KT 10SM 19/12 A3011 RMK AO2
K2DP 062356Z AUTO 19008KT 10SM FEW018 26/23 A3009 RMK AO2 SLPNO 60037 T02640233 10285 20264 $
K2G4 070010Z AUTO 23004KT 10SM SCT005 19/ A3013 RMK AO1
K2G9 062355Z AUTO 17007KT 10SM SCT018 SCT023 SCT029 21/18 A3009 RMK AO2
K2I0 062355Z AUTO 21006KT 10SM CLR 29/22 A2997 RMK AO2 T02930221 10311 20287
K2J9 062355Z AUTO 10SM 29/22 A3013 RMK AO1
K2V5 070015Z AUTO 03010G17KT 5SM HZ SCT050 23/11 A3015 RMK AO2 T02260105
K2W6 070012Z AUTO 16003KT 3SM SCT021 BKN043 OVC100 23/21 A3007 RMK AO1
K2WX 062356Z AUTO 32009KT 22/07 A3012 RMK AO1 SLP186 6//// T02170067 10228 20194 58009 PNO $
K33V 070015Z AUTO 32007KT 10SM SCT080 BKN090 17/08 A3031 RMK AO2
K36U 070015Z AUTO 33005KT 10SM SCT095 SCT110 25/10 A3013 RMK AO2 LTG DSNT NE
K3AU 062355Z AUTO 00000KT 10SM RA SCT016 BKN075 OVC110 21/20 A2989 RMK AO2
K3D2 070015Z AUTO 18003KT 1 1/2SM -RA SCT050 SCT070 OVC100 19/18 A2976 RMK AO2 T01850181
K3I2 062355Z AUTO 00000KT 7SM CLR 26/20 A3004 RMK AO2
K3J7 062355Z AUTO 00000KT 10SM CLR 28/20 A3006 RMK AO2 LTG DSNT SE
K3K3 062355Z AUTO 01012G18KT 10SM OVC032 22/15 A3007 RMK AO2
K3LF 062355Z AUTO 19011G16KT 10SM SCT020 SCT030 27/19 A2992 RMK AO2 60034 T02650194 10297 20216
K3N8 062355Z AUTO 36013G19KT 10SM SCT047 OVC050 17/07 A3009 RMK AO2 T01650073 10175 20150
K3R7 062355Z AUTO 19007KT 10SM SCT035 30/24 A3004 RMK AO2 T03040239 10325 20304
K3T5 062350Z AUTO 17012G19KT 10SM SCT033 SCT045 31/24 A2994 RMK AO2 T03070242 10333 20306
K40B 062320Z AUTO KT 24/16 A0000 RMK AO1 SLP000 T02360161 5000
K40J 062355Z AUTO 28003KT CLR 28/22 A3013 RMK AO2 T02810224 10321 20280 PWINO
K42J 070015Z AUTO 11004KT 5SM FEW002 24/23 A3013 RMK AO1 TSNO
K49A 070015Z AUTO 00000KT 10SM CLR A3016 RMK AO2
K4A6 070015Z AUTO 23003KT 10SM CLR 28/22 A3009 RMK AO2
K4A7 070015Z AUTO 00000KT 10SM CLR 27/23 A3011 RMK AO2 LTG DSNT NE T02720229
K4A9 062355Z AUTO 25003KT 10SM CLR 27/19 A3010 RMK AO2
K4BM 070016Z AUTO 09006KT M1/4SM -SN OVC001 07/06 A3058 RMK AO2
K4I3 070017Z AUTO 25003KT 10SM CLR 25/18 A3002 RMK AO2 LTG DSNT SE
K4I7 070015Z AUTO 19004KT 7SM CLR 26/20 A2996 RMK AO2
K4M9 062355Z AUTO 19010G18KT 9SM CLR 28/25 A2996 RMK AO2
K4MR 062356Z AUTO M 10SM BKN075 23/17 A3002 RMK AO2 LTG DSNT SW-W SLP109 T02320173 10336 20232 50010 $
K4O4 070015Z AUTO 17007KT 7SM CLR 30/20 A2991 RMK AO2
K54J 062355Z AUTO 00000KT 10SM CLR 30/21 A3010 RMK AO2 T02980214 10318 20298
K5A6 070015Z AUTO 17003KT 10SM SCT060 28/24 A3003 RMK AO2 T02820240
K5C1 062355Z AUTO 16009G20KT 10SM SCT040 SCT050 28/20 A2997 RMK AO1
K5H4 062355Z AUTO 35011KT 10SM CLR 18/07 A3015 RMK AO2
K5M9 062355Z AUTO 17006KT 10SM SCT029 SCT036 BKN050 26/23 A2998 RMK AO2 T02630227 10295 20263
K5R8 070015Z AUTO 16008KT 10SM SCT032 SCT044 30/25 A3001 RMK AO2 T02970245
K5SM 070012Z AUTO 00000KT 10SM SCT023 SCT028 15/09 A3051 RMK AO2 LTG DSNT SW AND NW
K5T9 070015Z AUTO 13010G15KT 10SM FEW065 33/21 A2986 RMK A01
K65S 070015Z AUTO 23007KT 10SM CLR 29/07 A2998 RMK AO2
K66R 062355Z AUTO 17012G17KT 10SM CLR 30/23 A2997 RMK AO2 T03000233 10318 20300
K6A1 062355Z AUTO 28007KT 10SM 31/23 A3011 RMK AO2 T03050233 10330 20298
K6A2 070015Z AUTO 27003KT 10SM CLR 27/21 A3012 RMK AO2
K6B0 062355Z AUTO 14003KT 10SM CLR 24/15 A3007 RMK AO2 T02400148 10280 20240
K6I2 070010Z AUTO 17004KT 10SM CLR 27/22 A3004 RMK AO2
K6L4 070015Z AUTO 00000KT 8SM CLR 23/20 A3007 RMK AO2
K6R3 062355Z AUTO 16005KT 7SM CLR 30/25 A3000 RMK AO2 T03000247 10329 20291
K6R6 062353Z AUTO 22006KT 28/20 A2993 RMK AO1 PK WND 28026/2254 SLP098 T02830200 10350 20278 58001
K79J 062356Z AUTO 33004KT 10SM CLR 32/22 A3010 RMK AO2 SLP187 T03170222 10339 20317 56012
K7L2 062355Z AUTO 02009KT 5SM HZ FEW043 19/14 A3014 RMK AO2
K7N0 070015Z AUTO 16008KT 130V200 CLR 32/24 A3007 RMK AO1
K7W4 070015Z AUTO 17004KT 10SM CLR 24/21 A3004 RMK AO1 T02390211
K82C 062355Z AUTO 32013G20KT 7SM RA BKN009 BKN020 OVC075 21/20 A2982 RMK AO2 T02080198 10259 20208
K82V 070015Z AUTO 02003KT 5SM HZ OVC032 16/11 A3027 RMK AO2
K8A0 062355Z AUTO 22005KT 10SM CLR 27/23 A3011 RMK AO2
K8D3 062356Z AUTO 02015KT 20/10 A3007 RMK AO1 SLP172 T02000100 10217 20200 58002
K8S0 062340Z 13004KT
K8W2 062355Z AUTO 00000KT 10SM CLR 24/21 A3002 RMK AO1 T02410208 10281 20241
K96D 062355Z AUTO 10SM CLR 17/08 A3014 RMK AO2
K9A5 062355Z AUTO 00000KT 10SM SCT100 SCT120 29/15 A3010 RMK AO2 T02880150 10306 20245
K9D7 062355Z AUTO 35007KT 10SM FEW050 17/07 A3016 RMK AO2
K9L2 062355Z AUTO 24018G26KT 10SM CLR 37/04 A2991 RMK AO2 PK WND 23027/2341 SLP105 T03670044 10389 20306 56014 TSNO $
K9MN 070013Z AUTO 33003G15KT 3SM CLR 19/15 A2995 RMK AO1 T01880145
K9V9 062355Z AUTO 01010KT 10SM CLR 23/12 A3008 RMK AO2 T02270120 10240 20222
KA08 062355Z AUTO 19004KT 10SM SCT034 SCT040 SCT047 29/23 A3008 RMK AO2 T02880233 10300 20282 PWINO
KAAA 062355Z AUTO 18010G15KT 10SM CLR 28/22 A2986 RMK AO2 60001 T02830222 10312 20283
KAAF 062353Z AUTO 30005KT 10SM CLR 31/22 A3010 RMK AO2 SLP193 60000 T03060222 10328 20261 55008
KAAO 070015Z AUTO 32004KT 7SM RA FEW019 BKN024 OVC038 22/22 A2990 RMK AO2 LTG DSNT ALQDS P0002 T02220222
KAAT 062355Z AUTO 24009KT 10SM FEW070 SCT085 BKN110 27/07 A3009 RMK AO2 LTG DSNT W AND NW SLP148 T02670072 10322 20261 55009
KABE 062351Z 09010KT 10SM FEW040 26/22 A3007 RMK AO2 LTG DSNT SW SLP180 60072 T02560217 10294 20239 58006
KABH 062356Z AUTO 06010KT 10SM OVC021 A3027 RMK AO2 SLPNO 60000 58003 $
KABI 062352Z 17018G26KT 10SM CLR 34/17 A2986 RMK AO2 PK WND 17026/2327 SLP079 T03390167 10350 20322 56024
KABQ 070014Z 09022G28KT 10SM FEW050 SCT070CB SCT110 BKN200 23/16 A3007 RMK AO2 PK WND 08029/0004 LTG DSNT E-S TE13 VCSH E-S SHRA DSNT S-W-NW MTN TOPS OBSC NE-SE T02280156
KABR 062353Z AUTO 01012KT 5SM HZ FEW040 22/12 A3009 RMK AO2 SLP185 T02170117 10233 20211 58003
KABY 062353Z 24004KT 10SM CLR 29/22 A3011 RMK AO2 SLP193 T02890222 10311 20289 56009
KACB 070014Z AUTO 19006KT 10SM BKN045 BKN060 OVC095 28/17 A2980 RMK AO2 T02750166
KACJ 062355Z AUTO 27005KT 10SM CLR 28/21 A3012 RMK AO2
KACK 062353Z 20004KT 9SM CLR 19/17 A3015 RMK AO2 SLP211 T01890172 10244 20189 56002
KACP 062355Z AUTO 17004KT 10SM CLR 30/24 A3003 RMK AO2 T03020236 10332 20302
KACQ 070015Z AUTO 35005KT 2SM HZ 20/15 A2998 RMK AO2 SKY OBSCURED
KACT 062351Z 17018G29KT 10SM CLR 32/21 A2990 RMK AO2 PK WND 18029/2342 SLP116 T03170211 10344 20317 58025
KACV 062353Z AUTO VRB03KT 10SM OVC014 16/12 A3008 RMK AO2 SLP190 T01610122 10172 20156 58005
KACY 062254Z 14008KT 10SM CLR 27/22 A3009 RMK AO2 SLP188 T02720222
KADC 070015Z AUTO 34009G15KT 10SM SCT044 OVC050 16/08 A3007 RMK AO2
KADF 062356Z AUTO 19006KT 6SM HZ CLR 32/25 A2994 RMK AO2 58027 T03160250 10327 20311 SLP149
KADG 062353Z AUTO 19005KT 9SM FEW050 26/19 A2996 RMK AO2 SLP142 T02610189 10289 20261 56010 TSNO $
KADH 062355Z AUTO 19012G19KT 150V210 10SM SCT050 30/20 A2988 RMK AO2
KADM 062355Z AUTO 18008G17KT 10SM CLR 32/21 A2983 RMK AO2 T03170212 10334 20316
KADS 062247Z 18015G30KT 10SM SCT050 BKN150 33/18 A2992
KADU 062355Z AUTO 36012G16KT 3SM HZ CLR 22/17 A2997 RMK AO2
KADW 070011Z 18007KT 10SM FEW025 SCT032 BKN050 BKN070 OVC095 23/22 A3001 RMK AO2A LTG DSNT N-NE AND SE RAE09DZB09E11 TSE09 $
KAEG 062247Z 01015G18KT 10SM -RA BKN075CB BKN090 27/13 A3012 RMK VCSH
KAEJ 070015Z AUTO 07003KT 10SM SCT100 18/09 A3033 RMK AO2 T01800093
KAEL 070011Z AUTO 01005KT 2 1/2SM HZ CLR 20/15 A2997 RMK AO2
KAEX 062353Z 17005KT 10SM CLR 31/22 A3000 RMK AO2 SLP162 T03060222 10328 20306 58017
KAFF 070008Z AUTO 02008KT 10SM -RA OVC015 14/13 A3030 RMK AO2 RAE05DZB05E06RAB06 CIG 011V015
KAFK 062355Z AUTO 04010G15KT 7SM BKN035 OVC080 21/19 A2992 RMK AO2 60039 T02130194 10249 20213
KAFN 062352Z AUTO 00000KT 10SM CLR 24/16 A3014 RMK AO2 SLP206 T02390161 10278 20239 56004
KAFO 070015Z AUTO 00000KT 10SM CLR 18/13 A3021 RMK AO2 TSNO
KAFP 062355Z AUTO 15005KT 10SM CLR 29/19 A3007 RMK AO2 T02870186 10337 20287
KAFW 062353Z 17016G24KT 9SM FEW060 SCT270 32/19 A2986 RMK AO2 PK WND 16027/2328 SLP094 T03170194 10339 20311 58029
KAGC 070013Z 24007G15KT 10SM BKN018 BKN028 23/18 A3001 RMK AO2 T02330178
KAGS 062353Z 36008KT 10SM TS SCT055 BKN070 27/20 A3006 RMK AO2 TSB10E25B26 SLP178 T02720200 10317 20272 55002
KAHN 062351Z AUTO 00000KT 10SM CLR 27/20 A3009 RMK AO2 SLP183 T02720200 10306 20267 56006
KAHQ 062355Z AUTO 01015G22KT 5SM HZ BKN048 OVC050 23/17 A2997 RMK AO2 60001 T02250166 10252 20224
KAIA 062353Z AUTO 02006KT 4SM HZ SCT040 BKN047 OVC060 19/12 A3020 RMK AO2 SLP196 T01940122 10217 20194 58009
KAIB 070015Z AUTO 22005KT 10SM SCT100 25/07 A3017 RMK AO2 LTG DSNT W
KAIG 062350Z AUTO 35012G20KT 5SM BR OVC009 15/15 A2985 RMK AO2 T01540145
KAIO 062355Z AUTO 01010KT 4SM HZ BKN049 BKN080 22/18 A2994 RMK AO2
KAIT 070013Z AUTO 34010G16KT 10SM OVC049 17/08 A3001 RMK AO2
KAIZ 070015Z AUTO 17004KT 10SM CLR 28/23 A2991 RMK AO1
KAJG 070015Z AUTO 20009KT 10SM CLR 30/22 A2995 RMK AO2
KAJO 062356Z AUTO 30014G18KT 10SM OVC001 27/16 A2994 RMK AO2 56019 T02660155 10277 20216 SLP131 $
KAJZ 062355Z AUTO 00000KT 10SM CLR 29/09 A3008 RMK AO2 T02870086 10309 20237 PWINO
KAKH 062354Z AUTO 00000KT 10SM CLR 29/19 A3006 RMK AO2 SLP172 T02890189 10333 20289 55002
KAKO 062353Z AUTO 03011KT 3SM HZ BKN039 OVC048 19/12 A3022 RMK AO2 SLP188 T01940117 10206 20172 58005
KAKQ 062354Z AUTO 16004KT 10SM CLR 28/22 A3005 RMK AO2 SLP173 T02780217 10311 20278 56002 TSNO
KAKR 062354Z AUTO 05004KT 10SM BKN039 26/21 A3000 RMK AO2 SLP150 T02560206 10300 20256 58004
KALB 062351Z 17007KT 10SM FEW090 FEW200 27/18 A3008 RMK AO2 SLP183 T02720183 10294 20267 56003
KALI 062353Z AUTO 14018G25KT 10SM FEW039 31/25 A2992 RMK AO2 PK WND 14027/2307 SLP129 T03110250 10344 20311 56013 $
KALK 062356Z AUTO 14015KT 10SM -RA OVC060 23/14 A3012 RMK AO2 RAB43 SLP113 P0000 60000 T02330144 10311 20217 56009
KALM 070015Z AUTO 24008KT 10SM CLR 34/10 A2994 RMK AO2
KALN 062350Z 14005KT 10SM BKN065 24/ A2992
KALO 062354Z 35014KT 5SM HZ OVC025 21/17 A2989 RMK AO2 PK WND 35027/2258 SLP116 60026 T02110172 10272 20211 53014
KALS 062352Z AUTO 10013KT 10SM SCT070 BKN090 21/09 A3024 RMK AO2 LTG DSNT N AND SW SLP150 60001 T02060094 10244 20206 55004
KALW 062353Z 24006KT 10SM CLR 37/04 A2987 RMK AO2 SLP103 T03720039 10378 20306 56021
KALX 062355Z AUTO 00000KT 10SM CLR 26/20 A3012 RMK AO2 T02640202 10305 20253
KAMA 062353Z 33008KT 3SM TSRA BR BKN041 OVC050 20/18 A3004 RMK AO2 WSHFT 2250 LTG DSNT ALQDS TSB08 SLP127 P0055 60055 T02000178 10322 20194 50020
KAMG 062353Z AUTO 00000KT 10SM CLR 28/21 A3010 RMK AO2 SLP189 T02830211 10311 20283 55003
KAMN 070014Z AUTO 18006KT 7SM CLR 27/19 A2988 RMK AO2 T02670189
KAMW 070016Z AUTO 35016G20KT 2 1/2SM HZ OVC030 21/17 A2993 RMK AO2 T02110167
KANB 062353Z AUTO 23005KT 10SM CLR 28/21 A3010 RMK AO2 SLP184 T02780206 10300 20278 58008
KAND 062356Z AUTO 22007KT 10SM CLR 27/22 A3008 RMK AO2 SLP177 T02720217 10311 20272 56004
KANE 062345Z 34010KT 7SM HZ BKN060 22/14 A2995
KANJ 062355Z AUTO VRB06KT 8SM FEW050 BKN090 23/18 A2977 RMK AO2 SLP076 T02330178 10272 20233 58023
KANK 070015Z AUTO 20005KT 10SM OVC055 15/13 A3041 RMK AO1 T01450125
KANQ 070055Z AUTO 21006KT 10SM 27/19 A2994 RMK
KANW 062355Z AUTO 01014KT 10SM SCT065 23/13 A3012 RMK AO2 T02260127 10239 20217
KAOH 062353Z AUTO 20006KT 7SM CLR 27/18 A2999 RMK AO2 SLP149 T02670178 10283 20267 56008
KAOO 062353Z AUTO 10003KT 10SM CLR 23/21 A3006 RMK AO2 SLP168 60007 T02280206 10239 20222 58011
KAPA 062353Z 08006KT 7SM FEW007 BKN011 OVC018 16/13 A3028 RMK AO2 SLP210 60001 T01560128 10172 20144 58003
KAPC 062354Z AUTO 28017KT 10SM CLR 26/12 A2997 RMK AO2 WSHFT 2241 SLP140 T02610122 10283 20183 58019 TSNO
KAPF 070010Z 24005KT 10 -RA FEW049 SCT075 BKN110 24/22 A3012
KAPG 062351Z 10006KT 7SM BKN030 BKN055 27/23 A3003
KAPN 062354Z AUTO 19011KT 8SM CLR 27/17 A2984 RMK AO2 SLP101 T02720172 10306 20272 58017
KAPY 062355Z AUTO 13012G21KT 7SM CLR 34/20 A2986 RMK AO2 T03420202
KAQO 062350Z AUTO 18011G16KT 10SM FEW055 33/19 A2994 RMK AO2
KAQP 070014Z AUTO 36016G22KT 10SM CLR 20/08 A3005 RMK AO2
KAQR 062355Z AUTO 18008KT CLR 31/20 A2987 RMK AO2 PWINO
KAQV 062356Z AUTO 17005KT 10SM CLR 32/22 A2999 RMK AO2 SLP153 T03170222 10344 20317 58018
KAQW 062352Z AUTO 00000KT 10SM CLR 24/18 A3010 RMK AO2 SLP191 T02440178 10283 20239 55002
KAQX 070015Z AUTO 00000KT 10SM CLR 28/22 A3008 RMK AO2 LTG DSNT S
KARB 062353Z AUTO 17006KT 9SM CLR 26/18 A2995 RMK AO2 SLP137 T02560178 10283 20256 56008
KARG 070015Z AUTO 18011KT 10SM CLR 28/23 A2995 RMK AO1
KARM 062355Z AUTO 16011KT 10SM SCT030 SCT035 SCT041 30/24 A2999 RMK AO2 T02960239 10321 20295
KARR 062352Z 16008KT 7SM -RA FEW050 FEW070 SCT095 27/21 A2983 RMK AO2 LTG DSNT W AND NW RAB44 SLP097 P0000 60081 T02670211 10294 20217 56019
KART 062356Z AUTO 00000KT 7SM CLR 26/17 A3001 RMK AO2 SLP157 T02610167 10294 20261 56005
KARV 062350Z AUTO 01006KT 2 1/2SM BR BKN010 BKN015 15/14 A2990 RMK AO2 60017 T01520139 10222 20152
KARW 070015Z AUTO 17005KT 5SM HZ SCT015 26/23 A3010 RMK AO2 LTG DSNT SW AND W
KASD 062353Z AUTO 14009KT 10SM CLR 30/26 A3006 RMK AO2 SLP180 T03000256 10328 20300 58015
KASE 062353Z 00000KT 10SM CLR 21/08 A3026 RMK AO2 SLP127 T02110083 10228 20189 58020
KASG 062348Z 22009G17KT 8SM SCT029 BKN038 28/22 A2996
KASH 062351Z 00000KT 10SM CLR 27/17 A3010 RMK AO2 HAZY 56004 T02660172 10305 20266 SLP437 $
KASJ 062355Z AUTO 18003KT 10SM CLR 27/23 A3006 RMK AO2 T02690234
KASL 062355Z AUTO 18007KT CLR 32/22 A2996 RMK AO1 T03190222 10342 20315
KASN 070015Z AUTO 25003KT 10SM CLR 29/21 A3011 RMK AO2 T02890211
KAST 062355Z AUTO 26012KT 10SM BKN012 17/13 A3006 RMK AO2 SLP178 T01720133 10183 20167 58001
KASW 070015Z AUTO 19003KT 7SM 27/19 A2993 RMK AO2
KASX 062353Z AUTO 35005KT 2SM BR FEW024 SCT030 BKN050 18/16 A2993 RMK AO2 SLP136 60012 T01780156 10183 20150 53005
KATL 062352Z 21003KT 10SM FEW030CB SCT050 SCT200 27/22 A3011 RMK AO2 SLP187 CB VC S & DSNT NE MOV SE TCU VC S-SW 60004 T02720222 10289 20244 55004
KATP 062355Z AUTO 13010KT 9SM FEW022 SCT028 BKN033 30/25 A3010 RMK A01
KATS 070015Z AUTO 34007KT 10SM CLR 35/14 A2988 RMK AO2 LTG DSNT NW
KATT 062351Z AUTO 16010G25KT 120V190 10SM FEW060 30/21 A2995 RMK AO2 SLP127 T03000211 10328 20300 56016 $
KATW 062345Z 24014G20KT 10SM BKN025 BKN085 25/18 A2980
KATY 062353Z AUTO 36013KT 7SM BKN047 20/11 A3007 RMK AO2 SLP179 T02000106 10222 20194 58000
KAUG 062353Z AUTO 18006KT 10SM CLR 23/16 A3011 RMK AO2 SLP194 T02280156 10289 20228 55003
KAUH 062355Z AUTO 02012G18KT 4SM HZ CLR 23/15 A3001 RMK AO2 T02300150 10247 20225
KAUM 070016Z AUTO 01009G15KT 2 1/2SM HZ CLR 20/14 A2995 RMK AO2
KAUN 062355Z AUTO 27005KT 10SM CLR 31/11 A2999 RMK AO1
KAUO 070015Z AUTO 25003KT 10SM CLR 27/20 A3014 RMK AO1
KAUS 062353Z 16016G24KT 10SM FEW042 SCT200 BKN250 31/22 A2994 RMK AO2 SLP126 T03060217 10333 20306 56015
KAUW 070012Z AUTO 34010G16KT 5SM HZ OVC015 17/14 A2985 RMK AO2 T01720144
KAVC 062356Z AUTO 00000KT 10SM SCT100 SCT120 26/23 A3011 RMK AO2 T02600232 10300 20260
KAVL 062354Z 31003KT 10SM BKN055 26/16 A3015 RMK AO2 LTG DSNT SW SLP181 T02610161 10289 20256 50001
KAVP 062354Z AUTO VRB06KT 9SM CLR 26/18 A3007 RMK AO2 SLP174 T02560183 10294 20256 58010
KAVQ 062355Z AUTO 24010KT 10SM CLR 33/15 A2991 RMK AO2 T03320154
KAVX 070011Z AUTO 24009KT 1 3/4SM BR OVC002 16/14 A3001 RMK AO2 VIS 1V5 T01560139
KAWG 062355Z AUTO 29011G18KT 1SM -RA BKN003 OVC029 23/22 A2985 RMK AO2 P0076
KAWM 062353Z AUTO 18010KT 10SM CLR 28/24 A2998 RMK AO2 SLP148 T02780239 10300 20272 58017
KAWO 070015Z AUTO 32011KT 10SM CLR 26/14 A2997 RMK AO1
KAXA 062355Z AUTO 02010G16KT 2 1/2SM HZ FEW035 22/16 A2998 RMK AO2
KAXH 062355Z AUTO 14008G15KT 10SM SCT030 SCT037 26/21 A2999 RMK AO2 T02610213 10280 20260
KAXN 062353Z AUTO 35016G26KT 10SM FEW050 17/07 A3007 RMK AO2 PK WND 33026/2319 SLP182 T01720072 10211 20172 50009
KAXS 070015Z AUTO 17015G23KT 10SM CLR 33/21 A2982 RMK AO2 T03300205
KAXV 070010Z AUTO 18003KT 10SM BKN050 25/19 A3000 RMK AO2
KAXX 062355Z AUTO 35005KT 10SM CLR 16/11 A3035 RMK AO2 60005 T01570113 10168 20138
KAYS 062355Z AUTO 32003KT 10SM CLR 31/23 A3010 RMK AO2 LTG DSNT NE AND S T03050232 10332 20305
KAZC 070015Z AUTO 12004KT 10SM CLR 24/15 A3018 RMK AO2 LTG DSNT NE AND SE T02400150
KAZE 062355Z AUTO 00000KT 10SM CLR 29/22 A3009 RMK AO2 T02900222 10319 20290
KAZO 062353Z 19010KT 8SM CLR 27/19 A2991 RMK AO2 SLP122 T02720189 10294 20267 56014
KBAB 062358Z AUTO VRB03KT 10SM CLR 33/16 A2988 RMK AO2 SLP120 T03300163 10332 20232 57025 $
KBAC 062355Z AUTO 35013G18KT 10SM CLR 18/09 A3012 RMK AO2
KBAD 062358Z AUTO 17012KT 10SM CLR 32/23 A2995 RMK AO2 SLP143 T03160229 10333 20316
KBAF 062353Z 18006KT 10SM CLR 26/19 A3010 RMK AO2 SLP192 T02560194 10289 20256 53001
KBAK 062345Z 21007KT 10SM SKC 28/18 A2997
KBAN 062352Z AUTO 05005KT 10SM FEW039 SCT110 17/09 A3028 RMK AO2 RAB2257E12 SLP174 P0002 60002 T01720094 10294 20172 51016
KBAX 070015Z AUTO 17006KT 10SM CLR 24/16 A2991 RMK AO2 T02440160
KBAZ 062351Z AUTO 16017G23KT 10SM SCT043 31/22 A2994 RMK AO2 SLP127 T03110217 10339 20311 56014
KBBB 070014Z AUTO 03015G21KT 10SM CLR 19/07 A3005 RMK AO2
KBBD 062355Z AUTO 02011KT 10SM CLR 31/17 A2992 RMK
KBBF 062355Z AUTO 17019KT 2 1/2SM HZ 29/25 A2997 RMK A01
KBBG 062345Z 21007KT 10SM FEW038 OVC200 27/23 A2996
KBBP 070015Z AUTO 16003KT 10SM SCT110 30/22 A3007 RMK AO2
KBBW 062353Z AUTO 01015G23KT 5SM HZ CLR 23/12 A3009 RMK AO2 PK WND 01026/2303 SLP169 T02330117 10250 20222 55002
KBCB 062355Z AUTO 00000KT 10SM CLR 22/19 A3017 RMK AO2 T02240193 10259 20224
KBCE 062353Z AUTO 32008KT 3SM RA BR OVC045 13/11 A3038 RMK AO2 WSHFT 2300 LTG DSNT SE AND S RAB04 TSE28 SLP188 P0036 60043 T01280111 10222 20128 53007
KBCK 070015Z AUTO 34009G14KT 7SM OVC022 20/14 A2989 RMK AO2 T01950143
KBCT 062353Z 13006KT 10SM FEW025 FEW040 29/23 A3013
KBDE 062353Z AUTO 36006KT 10SM FEW047 OVC055 15/07 A3006 RMK AO2 SLP185 T01500067 10178 20144 51010 TSNO
KBDG 062355Z AUTO 33009KT 10SM BKN110 24/10 A3021 RMK AO1 T02420097 10261 20157
KBDH 070015Z AUTO 33018G25KT 10SM SCT046 19/09 A3005 RMK AO2
KBDL 062351Z 18009KT 10SM FEW250 26/18 A3010 RMK AO2 SLP191 T02560183 10300 20256 55000
KBDR 062352Z 17008KT 10SM CLR 24/18 A3012 RMK AO2 SLP198 T02390183 10261 20233 56007
KBDU 070019Z AUTO 25004KT 1 1/2SM RA BKN005 BKN015 OVC020 15/15 A3027 RMK AO2
KBEA 062355Z AUTO 14015G22KT 10SM SCT026 SCT030 BKN038 30/25 A2995 RMK AO2 T02960247 10329 20294
KBED 062356Z 21005KT 10SM CLR 24/17 A3009 RMK AO2 SLP199 T02390172 10294 20239 56003
KBEH 062353Z AUTO 16007KT 7SM FEW043 28/21 A2987 RMK AO2 SLP109 T02780206 10300 20278 56019
KBFD 062353Z AUTO 19003KT 10SM FEW019 FEW080 23/18 A3009 RMK AO2 SLP174 60008 T02280183 10239 20211 55003
KBFF 062353Z AUTO 05005KT 4SM HZ OVC047 20/13 A3021 RMK AO2 SLP197 T02000128 10211 20183 56014
KBFI 062353Z VRB03KT 10SM BKN240 30/12 A2996 RMK AO2 SLP144 T03000117 10311 20244 56007
KBFL 062354Z 29014KT 10SM CLR 34/13 A2988 RMK AO2 SLP111 T03440128 10350 20283 56022
KBFM 062353Z 17004KT 10SM FEW043 29/24 A3011 RMK AO2 SLP194 T02890239 10317 20289 56015
KBFW 070013Z AUTO 32008KT 290V000 10SM BKN060 18/09 A2993 RMK AO2
KBGD 070013Z AUTO 04015KT 10SM BKN041 26/18 A3003 RMK AO2 PK WND 03026/2356 LTG DSNT SE-SW T02560178
KBGE 062355Z AUTO 31004KT 10SM CLR 30/22 A3010 RMK AO2
KBGF 070015Z AUTO 00000KT 10SM CLR 28/22 A3009 RMK
KBGM 062353Z 13005KT 9SM CLR 23/19 A3009 RMK AO2 SLP183 60001 T02280194 10244 20222 56008
KBGR 062353Z 19006KT 10SM SCT250 23/16 A3010 RMK AO2 SLP189 T02280161 10289 20228 55000 $
KBHB 070015Z AUTO 19007KT 10SM CLR 19/17 A3011 RMK AO1
KBHC 062355Z AUTO 00000KT 10SM SCT070 OVC110 30/21 A3010 RMK AO2 LTG DSNT E
KBHK 062351Z AUTO 05004KT 10SM FEW090 23/08 A3018 RMK AO2 SLP205 T02280083 10239 20189 58009
KBHM 062353Z 27007KT 10SM FEW035 29/21 A3011 RMK AO2 SLP188 T02890206 10294 20283 56013
KBID 070015Z 20009KT 10SM CLR 21/18 A3014 RMK AO1
KBIE 062355Z AUTO 01015G23KT 7SM BKN024 OVC031 22/19 A2994 RMK AO2 60004 T02200191 10230 20215
KBIF 062358Z AUTO 24007G14KT 10SM SCT095 35/10 A2991 RMK AO2 SLP056 T03500103 10359 20296 57022 $
KBIH 070016Z AUTO 18004KT 10SM BKN120 32/04 A3002 RMK AO2 LTG DSNT W T03220044
KBIJ 062355Z AUTO 00000KT 10SM CLR 29/25 A3010 RMK AO2
KBIL 062353Z 06009KT 10SM SCT055 23/08 A3015 RMK AO2 SLP190 T02280083 10233 20178 57016
KBIS 062352Z AUTO 03010KT 5SM HZ SCT047 BKN055 20/11 A3015 RMK AO2 SLP210 T02000111 10222 20200 51001
KBIV 062353Z AUTO 17008KT 8SM CLR 28/20 A2986 RMK AO2 SLP109 T02780200 10306 20278 56020
KBIX 062358Z AUTO 18007KT 10SM CLR 29/25 A3008 RMK AO2 SLP189 T02880248 10304 20288
KBJC 062346Z 00000KT 1 7/8SM -DZ BKN008 OVC013 15/14 A3030
KBJI 070012Z AUTO 32012G15KT 10SM OVC050 15/08 A3007 RMK AO2 T01460075
KBJJ 062356Z AUTO 00000KT 9SM CLR 26/19 A3000 RMK AO2 SLP152 T02610194 10283 20261 58008 TSNO
KBKB 062354Z AUTO VRB05KT 10SM CLR 32/22 A2999 RMK AO2 SLP182 T03220222 10350 20322 58016 $
KBKD 062355Z AUTO 19014G22KT 7SM CLR 34/15 A2984 RMK AO2 T03430145 10353 20317
KBKE 062353Z AUTO 31007KT 10SM CLR 33/08 A3001 RMK AO2 SLP136 T03280078 10333 20278 56014
KBKF 062358Z 09008KT 10SM SCT015 OVC026 16/14 A3028 RMK AO2A SLP199 60001 T01640135 10170 20147 58004
KBKL 062353Z 03004KT 10SM CLR 25/18 A2996 RMK AO2 SLP142 T02500178 10261 20244 58015
KBKN 070015Z AUTO 03016G27KT 8SM VCTS SCT011 BKN021 OVC090 24/21 A2990 RMK AO2 LTG DSNT ALQDS
KBKS 070015Z AUTO 14013G18KT 10SM SCT036 SCT046 SCT055 31/23 A2991 RMK AO1 T03140234
KBKT 062355Z AUTO 00000KT 10SM CLR 26/24 A3005 RMK AO1 60001 T02610237 10298 20246
KBKV 062353Z AUTO 00000KT 10SM CLR 28/22 A3014 RMK AO2 SLP205 T02780217 10350 20278 55002
KBKW 062351Z AUTO 24004KT 10SM FEW019 BKN090 22/17 A3016 RMK AO2 SLP182 T02170172 10228 20200 57004
KBKX 070015Z AUTO 01010G18KT 8SM CLR 19/11 A3009 RMK AO1
KBLF 062352Z AUTO 27004KT 10SM CLR 23/17 A3018 RMK AO2 SLP186 60000 T02280172 10239 20206 56005
KBLH 062352Z AUTO 15010KT 10SM CLR 41/17 A2976 RMK AO2 SLP069 T04110172 10411 20367 56029
KBLI 062353Z 18010G16KT 10SM HZ CLR 22/13 A2996 RMK AO2 SLP150 T02170128 10233 20194 58009
KBLM 070015Z AUTO 13008KT 10SM OVC011 23/18 A3011 RMK AO1
KBLU 062352Z AUTO 22007KT 190V260 10SM CLR 24/08 A3022 RMK AO2 SLP135 T02390083 10250 20222 56009
KBLV 062358Z AUTO 18008KT 10SM FEW210 28/25 A2990 RMK AO2 SLP124 60001 T02820245 10314 20266 55011 $
KBMC 062355Z AUTO 35004KT 10SM CLR 29/06 A3006 RMK AO1 T02890058 10383 20085
KBMG 062353Z 19004KT 10SM CLR 27/22 A2997 RMK AO2 SLP140 T02720222 10294 20272 58014
KBMI 062356Z 19011KT 9SM FEW022 28/25 A2989 RMK AO2 56019 60032 T02830250 10305 20238 P0001 SLP107
KBML 062352Z AUTO 18003KT 10SM OVC060 24/16 A3009 RMK AO2 SLP187 T02390156 10289 20233 56007
KBMQ 062353Z AUTO 16010G19KT 10SM SCT060 31/19 A2996 RMK AO2 SLP126 T03060189 10328 20306 58016
KBMT 062355Z AUTO 17010G14KT 10SM BKN028 30/24 A3001 RMK AO2 T02970240 10324 20295
KBNA 062353Z 19006KT 10SM FEW036 29/22 A3003 RMK AO2 SLP163 T02890222 10306 20278 58016
KBNL 070015Z AUTO 00000KT 9SM CLR 29/22 A3008 RMK AO2 LTG DSNT S
KBNO 062353Z AUTO 00000KT 10SM CLR 30/06 A3009 RMK AO2 SLP149 T03000061 10306 20228 58018
KBNW 062355Z AUTO 35017G23KT 3SM HZ SCT110 21/15 A2993 RMK AO2
KBOI 062353Z 26009KT 10SM CLR 33/06 A2996 RMK AO2 SLP113 T03280061 10344 20289 58018 $
KBOK 062356Z AUTO 16003KT 10SM OVC012 16/14 A3010 RMK AO2 56005 T01610144 10166 20155 SLP192
KBOS 062354Z 19010KT 9SM FEW080 SCT200 26/19 A3010 RMK AO2 SLP192 T02560189 10267 20228 56003
KBPC 062355Z AUTO 01016G21KT 10SM CLR 26/17 A2996 RMK AO2
KBPG 062355Z AUTO 13017G28KT 7SM TS SCT029 SCT043 BKN060 22/21 A2994 RMK AO2 LTG DSNT ALQS P0062 60062 T02230210 10375 20223
KBPI 062353Z AUTO 10008KT 10SM -RA 13/11 A3029 RMK AO2 RAB31 SLP183 P0015 60090 T01280111 10228 20117 $
KBPK 062353Z AUTO 18004KT 7SM BKN037 BKN047 OVC065 28/23 A2996 RMK AO2 SLP133 T02780228 10300 20272 55009
KBPT 062353Z 17009KT 10SM FEW028 30/24 A3001 RMK AO2 SLP161 T03000244 10333 20300 58019
KBQK 070015Z AUTO 17007KT 10SM BKN065 BKN075 27/23 A3013 RMK AO1
KBQP 062355Z AUTO 18003KT 10SM CLR 31/24 A3000 RMK AO2 T03060244 10329 20302
KBQX 062355Z AUTO 16017KT 6SM HZ FEW021 29/25 A2999 RMK A01
KBRD 062353Z AUTO 34010KT 10SM OVC050 16/08 A3004 RMK AO2 SLP172 T01610078 10217 20161 51015
KBRL 070004Z AUTO 22005KT 5SM TSRA BR SCT036 BKN060 BKN120 27/25 A2984 RMK AO2 LTG DSNT ALQDS TSB2358 P0002 T02670250
KBRO 062353Z 15017G25KT 9SM SCT020 SCT029 30/25 A2994 RMK AO2 PK WND 14028/2332 SLP139 T03000250 10333 20300 56009
KBTA 062355Z AUTO 01012G15KT 5SM HZ SCT028 BKN047 23/17 A2996 RMK AO2 60001 T02250173 10243 20221
KBTL 062353Z 19009KT 6SM HZ CLR 27/18 A2992 RMK AO2 SLP126 T02720183 10294 20272 56014
KBTM 062353Z AUTO 33013KT 10SM CLR 27/04 A3013 RMK AO2 SLP147 T02670039 10267 20194 56010
KBTP 070015Z AUTO 16003KT 10SM CLR 24/20 A3003 RMK AO1
KBTR 062353Z 18008KT 10SM FEW037 31/22 A3005 RMK AO2 SLP175 T03110222 10333 20306 58017
KBTV 062354Z 19006KT 10SM SCT250 26/15 A3004 RMK AO2 SLP173 T02560150 10289 20256 55006
KBUF 062354Z 17005KT 10SM FEW040 FEW085 BKN150 BKN270 24/21 A2999 RMK AO2 RAE16 SLP152 TCU DSNT SE SHRA DSNT SE P0000 60043 T02440206 10306 20222 58001
KBUR 062353Z 17009KT 10SM CLR 24/15 A2995 RMK AO2 SLP129 T02440150 10267 20206 57017
KBUU 062355Z AUTO 00000KT 10SM SCT042 SCT110 23/21 A2983 RMK AO2 60001 T02330207 10240 20215
KBUY 062354Z AUTO 32004KT 10SM BKN060 28/20 A3007 RMK AO2 LTG DSNT N AND NE SLP175 T02780200 10311 20278 53002
KBVE 062351Z AUTO 19006KT 10SM CLR 31/25 A3010 RMK AO2 SLP192 T03060250 10317 20306 56013
KBVI 062347Z 00000KT 10SM CLR 24/20 A3003
KBVN 062355Z AUTO 01011G19KT 3SM HZ 23/14 A3005 RMK AO2 SKY OBSCURED T02290135 10245 20227
KBVO 062353Z AUTO 18007KT 10SM CLR 30/24 A2986 RMK AO2 SLP101 T03000239 10333 20300 53002
KBVS 062350Z AUTO 23007KT 200V260 8SM CLR 23/13 A2998 RMK A01
KBVU 070015Z AUTO 24007KT 10SM CLR 36/11 A2990 RMK AO2
KBVX 070015Z AUTO 12005KT 9SM FEW037 BKN046 BKN060 27/24 A2996 RMK AO1 LTG DSNT SE
KBVY 062353Z 12004KT 10SM FEW065 22/17 A3010 RMK AO2 SLP186 T02170172 10261 20217 58006
KBWD 062355Z AUTO 16014G22KT 7SM CLR 33/17 A2988 RMK AO2
KBWG 062353Z AUTO 20009KT 10SM CLR 29/21 A3001 RMK AO2 SLP157 T02890211 10306 20283 58014
KBWI 062354Z 14007KT 10SM TS FEW034CB BKN120 BKN250 27/22 A3001 RMK AO2 TSB31RAB39E52 SLP161 OCNL LTGCG SW-NW TS SW-NW MOV N CB DSNT SW AND DSNT NW-NE MOV N P0000 60001 T02720217 10294 20256 56006
KBWP 062355Z AUTO 36010G17KT 10SM SCT046 18/07 A3009 RMK AO1
KBXA 070015Z AUTO 20006KT 10SM 32/22 A3008 RMK AO2 T03180223
KBXK 062355Z AUTO 30007KT 10SM FEW095 39/14 A2980 RMK AO1
KBYG 062353Z AUTO 11006KT 6SM HZ BKN021 18/12 A3024 RMK AO2 SLP206 T01780122 10178 20122 56011
KBYH 062055Z 21008KT 10SM BKN038 30/24 A3003
KBYI 062353Z AUTO 21003KT 10SM FEW003 28/10 A3004 RMK AO2 SLP127 T02830100 10294 20228 58016
KBYS 062355Z AUTO 20016G24KT 10SM FEW100 35/08 A2992 RMK AO2 WSHFT 2319 LTG DSNT NW SLP074 T03450081 10375 20320 403750251 55018 $
KBYY 062355Z AUTO 16011G15KT 10SM SCT026 30/25 A2999 RMK AO2 T03040249
KBZN 062356Z 08004KT 10SM CLR 28/04 A3008 RMK AO2 SLP149 T02780044 10278 20178 56022
KC09 062355Z AUTO 17009KT 10SM CLR 27/22 A2983 RMK AO2 T02650217 10299 20245
KC29 062355Z AUTO 22004KT 10SM BKN070 OVC080 26/21 A2981 RMK AO1 T02600211 10278 20247
KC35 062355Z AUTO 00000KT 7SM -RA SCT038 SCT060 BKN070 23/23 A2980 RMK AO2 P0001 60001 T02280225 10259 20226
KC75 062355Z AUTO 19006KT 7SM CLR 28/23 A2982 RMK AO2 LTG DSNT W T02770232 10311 20271
KCAD 070015Z AUTO 19007KT 10SM BKN037 25/18 A2986 RMK AO2 T02550183
KCAE 062356Z VRB04KT 10SM SCT046 SCT070 30/21 A3006 RMK AO2 LTG DSNT NE SLP176 T03000206 10328 20300 55000
KCAG 062353Z AUTO 00000KT 10SM CLR 26/10 A3014 RMK AO2 LTG DSNT SE SLP136 T02610100 10278 20217 58019
KCAK 062351Z 14006KT 10SM FEW040 SCT065 BKN250 26/19 A3001 RMK AO2 SLP153 T02560194 10300 20250 58005
KCAO 062355Z AUTO 36016G23KT 10SM SCT075 BKN095 19/16 A3014 RMK AO2 RAB10E54 SLP149 P0000 60001 T01940161 10239 20178 58007
KCAR 062354Z AUTO 16004KT 10SM CLR 23/14 A3005 RMK AO2 SLP178 T02330144 10272 20233 55004
KCAV 062355Z AUTO 01012KT 3SM HZ CLR 21/15 A2995 RMK AO2
KCBE 070012Z AUTO 00000KT 10SM SCT080 25/22 A3006 RMK AO1
KCBF 062355Z AUTO 01014G22KT 6SM HZ SCT040 BKN046 22/18 A2995 RMK AO2
KCBG 070016Z AUTO 34010G17KT 10SM CLR 21/11 A2996 RMK AO2
KCBK 062355Z AUTO 01018G24KT 4SM HZ OVC049 23/14 A3009 RMK AO2
KCBM 062358Z AUTO 16007KT 10SM CLR 30/24 A3005 RMK AO2 SLP177 T02960235 10302 20282 $
KCCA 062355Z AUTO 26004KT 5SM -RA FEW031 SCT042 BKN048 28/25 A2998 RMK AO2
KCCO 062355Z AUTO 00000KT 10SM BKN035 BKN047 27/25 A3011 RMK AO2 T02660245 10285 20251
KCCR 062353Z 28012G17KT 10SM CLR 29/11 A2997 RMK AO2 SLP136 T02890111 10294 20206 58019
KCCU 070015Z AUTO 28003KT 10SM CLR 15/05 A3059 RMK AO2
KCCY 070015Z AUTO 35009G17KT 2 1/2SM HZ CLR 20/16 A2994 RMK AO2
KCDA 062355Z AUTO 15003KT 10SM CLR 23/12 A3011 RMK AO2 T02280124 10269 20228
KCDC 062353Z AUTO 05010KT 10SM BKN100 21/12 A3021 RMK AO2 RAE08 SLP162 P0000 60003 T02060122 10261 20167 58004
KCDD 062341Z AUTO 34006KT 10SM OVC049 13/07 A3004 RMK AO2
KCDH 062355Z AUTO 8SM CLR 30/23 A2995 RMK AO2
KCDJ 062352Z AUTO 00000KT 23/22 A2989 RMK AO1 SLP109 P0026 60071 T02280222 10317 20228 51016
KCDN 070015Z AUTO 00000KT 10SM CLR 29/21 A3008 RMK AO2 TSNO
KCDR 062353Z AUTO 02004KT 6SM HZ CLR 22/11 A3019 RMK AO2 SLP207 T02220111 10228 20194 58016
KCDS 062353Z AUTO 16009KT 10SM CLR 32/21 A2983 RMK AO2 LTG DSNT NW SLP074 T03170206 10356 20317 55008
KCDW 062353Z VRB06KT 10SM CLR 24/18 A3010 RMK AO2 RAB05E27 SLP197 P0000 60000 T02440183 10289 20244 58003
KCEC 062356Z AUTO 23007KT 10SM OVC015 17/13 A3009 RMK AO2 SLP190 T01670128 10183 20161 58002
KCEF 062358Z AUTO 19008KT 10SM SCT047 26/19 A3009 RMK AO2 SLP194 60000 T02600189 10298 20260 55000
KCEU 062354Z AUTO 22003KT 10SM CLR 27/18 A3010 RMK AO2 LTG DSNT N SLP182 T02670183 10311 20267 55002
KCEW 062353Z AUTO 28004KT 10SM CLR 31/22 A3011 RMK AO2 SLP191 T03060217 10328 20306 58010
KCEY 070015Z AUTO 19007KT 10SM CLR 28/24 A2999 RMK AO1
KCEZ 062353Z AUTO 29016G21KT 10SM VCTS BKN120 28/11 A3012 RMK AO2 LTG DSNT SE SLP117 T02780106 10311 20272 56010
KCFD 062355Z AUTO 17011G17KT 10SM SCT042 31/23 A2996 RMK AO2 6//// T03070227 10331 20307
KCFE 070015Z AUTO 33010G18KT 10SM CLR 20/10 A2999 RMK AO2 T02000099
KCFS 070014Z AUTO 16006KT 10SM CLR 26/17 A2990 RMK AO2 T02570174
KCFV 062352Z AUTO 16009KT 10SM SCT035 SCT043 BKN095 29/24 A2987 RMK AO2 SLP107 T02940239 10333 20294 53008
KCGC 070015Z AUTO 00000KT 10SM CLR 28/21 A3013 RMK AO2
KCGE 070009Z AUTO 16006KT 10SM CLR 27/21 A3004 RMK AO1
KCGF 062345Z 03005KT 10SM FEW075 SCT200 27/17 A3000
KCGI 062353Z AUTO 20010KT 10SM FEW031 FEW080 28/23 A2994 RMK AO2 SLP136 T02830228 10300 20272 55016 TSNO
KCGS 070010Z AUTO 00000KT 10SM SCT006 BKN046 OVC085 23/22 A3002 RMK AO1
KCGZ 070015Z AUTO 23005KT 10SM CLR 36/17 A2983 RMK AO1
KCHA 062353Z 24004KT 10SM FEW045 29/20 A3008 RMK AO2 SLP176 T02890200 10311 20289 58008
KCHD 062347Z 22010G15KT 40SM FEW080 BKN200 39/15 A2982
KCHK 062355Z AUTO 17011G19KT 10SM CLR 32/23 A2983 RMK AO2
KCHO 062353Z 21005KT 10SM CLR 25/21 A3004 RMK AO2 SLP164 T02500211 10272 20250 55007
KCHS 062356Z 21010KT 10SM FEW250 27/22 A3009 RMK AO2 SLP189 T02720222 10311 20272 53000
KCIC 062347Z 18008KT 40SM SCT080 BKN200 32/15 A2990
KCID 062352Z 30009KT 10SM SCT060 OVC090 24/22 A2984 RMK AO2 RAB38E47 SLP100 P0000 60006 T02390222 10267 20239 53001
KCIN 062355Z AUTO 02015G23KT 3SM HZ CLR 22/15 A2996 RMK AO2
KCIR 062350Z AUTO 20009KT 10SM CLR 28/23 A2995 RMK AO2 T02830232 10293 20275
KCIU 070015Z AUTO 19003KT 10SM SCT050 BKN060 BKN080 24/18 A2979 RMK AO1
KCJR 062355Z AUTO 00000KT 10SM SCT024 25/23 A3003 RMK AO2 LTG DSNT SE 60016 T02540232 10290 20229
KCKB 070016Z 00000KT 7SM FEW008 BKN020 OVC050 21/20 A3007 RMK AO2 RAE13 P0003 T02110200
KCKC 070013Z AUTO 30004KT 10SM BKN044 14/07 A2995 RMK AO2
KCKF 062355Z AUTO 27006KT 10SM CLR 30/23 A3010 RMK AO2 T03000225 10319 20294
KCKI 070015Z AUTO 00000KT 10SM CLR 29/27 A3009 RMK AO2
KCKM 070015Z AUTO 16007KT 9SM CLR 28/25 A3000 RMK AO1
KCKN 070014Z AUTO 36013KT 10SM CLR 17/07 A3012 RMK AO2
KCKP 062355Z AUTO 36013G19KT 3SM HZ SCT027 OVC035 22/16 A3000 RMK AO2 T02180163 10232 20201
KCKV 062352Z AUTO 18008KT 10SM CLR 28/22 A3001 RMK AO2 LTG DSNT W SLP154 T02830217 10300 20278 58015
KCLE 062351Z 03003KT 10SM FEW050 FEW080 SCT250 27/17 A2999 RMK AO2 SLP150 T02670172 10283 20267 58014
KCLI 070015Z AUTO 27007KT 10SM BKN015 BKN019 OVC032 22/21 A2978 RMK AO2
KCLK 070015Z AUTO 18015G20KT 10SM 31/18 A2982 RMK AO2 LTG DSNT W AND NW
KCLL 062353Z 16013KT 10SM SCT041 32/22 A2995 RMK AO2 SLP137 T03170222 10333 20311 58020
KCLM 062353Z AUTO 31009G16KT 10SM CLR 19/12 A3000 RMK AO2 SLP158 T01890122 10200 20172 58005
KCLS 070015Z AUTO 00000KT 10SM CLR 31/15 A2997 RMK AO2
KCLT 062352Z 21005KT 10SM FEW060 SCT250 30/17 A3007 RMK AO2 SLP172 T03000172 10328 20300 55001
KCLW 062355Z AUTO 34003KT 10SM CLR 29/21 A3013 RMK AO2
KCMA 062355Z AUTO 25011KT 10SM FEW019 22/14 A2997 RMK AO2 SLP157 T02170144 10228 20189 56018 TSNO
KCMD 062355Z AUTO 21005KT 10SM CLR 27/22 A3013 RMK AO2 T02680217 10335 20152
KCMH 062351Z 20008KT 10SM CLR 27/16 A3000 RMK AO2 SLP153 T02670156 10289 20267 58004
KCMI 062353Z 20006KT 10SM -RA FEW024 SCT055 BKN075 26/22 A2990 RMK AO2 RAB39 SLP120 P0000 60000 T02560217 10306 20256 56019
KCMR 070015Z AUTO 26008KT 10SM CLR 22/11 A3033 RMK AO2
KCMX 070006Z AUTO 30010KT 1/4SM FG OVC004 13/13 A2989 RMK AO2 T01330128
KCMY 062355Z AUTO 34009G16KT 10SM OVC014 18/16 A2988 RMK AO2 60019 T01800160 10258 20180
KCNB 070014Z AUTO 36012G17KT 10SM SCT048 SCT055 19/10 A3007 RMK AO2 T01930103
KCNC 062355Z AUTO 00000KT 7SM SCT017 BKN025 OVC039 22/21 A2990 RMK AO2 P0003
KCNI 062355Z AUTO 00000KT 10SM BKN080 27/18 A3013 RMK AO2
KCNK 070016Z AUTO 01011KT 9SM BKN022 OVC033 23/19 A2996 RMK AO2 T02280189
KCNM 062353Z AUTO 10006KT 10SM FEW110 36/14 A2984 RMK AO2 SLP039 T03560144 10389 20344 58010
KCNO 062353Z 26011G17KT 10SM FEW080 SCT150 28/15 A2995 RMK AO2 SLP137 CB DSNT N-SE T02830150 10300 20222 56017
KCNU 070000Z AUTO 01014G22KT 10SM TS BKN029 BKN036 OVC044 25/20 A2988 RMK AO2 LTG DSNT W-NE TSB00 T02500200
KCNW 062355Z 17015G20KT 7SM SKC 32/22 A2990
KCNY 070001Z AUTO 30014KT 10SM FEW046 FEW070 BKN095 24/14 A3004 RMK AO2 WSHFT 2341 LTG DSNT SE RAE01 P0000 T02390144
KCOD 070015Z 14010KT 10SM BKN046 21/10 A3019 RMK AO1
KCOE 070015Z AUTO 00000KT 10SM CLR 31/06 A2996 RMK AO1
KCOF 070010Z AUTO 27006KT 10SM -TSRA FEW050 26/22 A3018 RMK AO2 LTG DSNT S-W RAE00DZB00E02RAB02E08RAB10 TSB02 $
KCOM 062355Z AUTO 16016G23KT 10SM CLR 33/18 A2989 RMK AO2 T03270177 10347 20311
KCON 062351Z AUTO 13003KT 10SM CLR 24/17 A3009 RMK AO2 SLP188 T02440167 10300 20244 56005
KCOQ 070015Z AUTO 32009G18KT 10SM OVC050 17/08 A2998 RMK AO2
KCOS 062354Z 06013KT 7SM FEW012 BKN019 OVC029 15/13 A3029 RMK AO2 RAE42 SLP195 OCNL LTGICCG DSNT W CB DSNT W MOV E P0001 60001 T01500128 10228 20150 58001
KCOT 062353Z AUTO 14018G27KT 10SM -RA SCT060 34/21 A2988 RMK AO2 PK WND 15027/2351 SLP110 P0000 60000 T03390211 10350 20328 58015
KCOU 062354Z 19008KT 10SM CLR 28/23 A2988 RMK AO2 SLP109 T02780228 10311 20278 56009
KCPC 062355Z AUTO 10003KT 10SM OVC110 26/22 A3010 RMK AO2 60015 T02550216 10321 20235
KCPK 062355Z AUTO 16003KT 10SM CLR 28/24 A3006 RMK AO2 LTG DSNT N AND NW
KCPR 062353Z 10009KT 5SM HZ CLR 20/11 A3022 RMK AO2 SLP185 T02000106 10211 20150 56014
KCPS 062353Z 13006KT 10SM CLR 27/23 A2990 RMK AO2 RAE27 SLP122 P0000 60037 T02720233 10322 20228 55005
KCPT 062355Z AUTO 17016G26KT 8SM CLR 32/21 A2990 RMK AO2 TSNO
KCQB 062355Z AUTO 19010G17KT 5SM HZ CLR 30/24 A2986 RMK AO2
KCQC 070002Z AUTO 07007KT 5SM -RA BR BKN060 BKN075 OVC090 17/15 A3025 RMK AO2 P0003 T01720150
KCQF 062355Z AUTO 00000KT 10SM CLR 28/22 A3010 RMK AO2
KCQM 070015Z AUTO 35005KT 10SM SCT043 OVC050 14/07 A3003 RMK AO2
KCQT 070015Z AUTO VRB04KT 10SM SCT016 21/16 A2996 RMK AO2 T02110156
KCQW 070015Z AUTO 16003KT 9SM CLR 28/22 A3008 RMK AO2
KCQX 062352Z AUTO 23004KT 10SM CLR 21/18 A3016 RMK AO2 SLP215 T02110183 10267 20211 55001
KCRE 062353Z 20011KT 10SM FEW110 27/23 A3010 RMK AO1 SLP194 T02720228 10294 20272 50002
KCRG 062353Z 16007KT 10SM CLR 24/21 A3013 RMK AO2 LTG DSNT SW AND W TSB01E16 SLP200 6//// T02440211 10306 20244 53004 PNO $
KCRH 062355Z AUTO 17014KT 9SM FEW026 SCT035 SCT042 30/24 A3005 RMK A01
KCRP 070008Z 15017G27KT 10SM SCT021 SCT028 OVC250 29/24 A2994 RMK AO2 PK WND 15027/0004 T02940244 $
KCRQ 062353Z 22007KT 10SM OVC014 20/16 A2997 RMK AO2 SLP147 T02000161 10211 20189 58014
KCRS 062353Z AUTO 18018G22KT 10SM CLR 32/21 A2991 RMK AO2 SLP123 60000 T03220206 10339 20317 58029
KCRW 062354Z 19006KT 10SM SCT250 25/20 A3006 RMK AO2 SLP170 60000 T02500200 10272 20233 55005
KCRX 070015Z AUTO 17005KT 10SM CLR 27/22 A3003 RMK AO2
KCSG 062351Z 27006KT 10SM CLR 28/21 A3010 RMK AO2 SLP187 T02780206 10300 20261 56010
KCSM 062353Z 18016G25KT 10SM CLR 32/21 A2985 RMK AO2 PK WND 17027/2326 LTG DSNT W-N PRESRR SLP080 T03220211 10356 20322 55019
KCSQ 062355Z AUTO 01013G19KT 10SM FEW008 SCT012 OVC028 21/19 A2991 RMK AO2
KCSV 062353Z AUTO 26004KT 10SM CLR 25/19 A3013 RMK AO2 SLP180 T02500189 10278 20250 58009
KCTB 062356Z AUTO 15005KT 10SM CLR 23/04 A3010 RMK AO2 SLP180 T02280039 10239 20172 56016
KCTJ 062355Z AUTO 00000KT 10SM CLR 27/22 A3016 RMK AO2 T02670218 10295 20267
KCTY 062353Z AUTO 26006KT 31/19 A3011 RMK AO1 SLP195 T03060194 10339 20306 55001
KCTZ 062355Z AUTO 18007KT 150V220 10SM SCT050 BKN060 30/22 A3008 RMK AO2 T03000221 10330 20300
KCUB 062353Z AUTO 17005KT 10SM FEW049 29/21 A3008 RMK AO2 SLP181 T02940211 10322 20294 55001 TSNO
KCUH 062355Z AUTO 19010G18KT 30/25 A2985 RMK AO2 SKY OBSCURED PWINO
KCUL 070015Z AUTO 18006KT 10SM CLR 28/21 A2995 RMK AO2 T02810211
KCUT 070002Z AUTO 08007KT 3SM HZ SCT017 BKN022 OVC070 14/10 A3027 RMK AO2 T01390100
KCVB 062355Z AUTO 14017KT 5SM HZ CLR 31/20 A2994 RMK AO2 T03090202 10332 20308
KCVC 062355Z AUTO 00000KT 7SM 28/22 A3010 RMK AO2
KCVG 062352Z COR 19005KT 5SM HZ FEW040 27/21 A3001 RMK AO2 SLP152 T02720206 10289 20272 56010
KCVH 070010Z AUTO 26018KT 10SM CLR 24/14 A3000 RMK AO1
KCVN 070015Z AUTO 02018G23KT 10SM SCT050 BKN110 22/18 RMK AO1 LTG DSNT N
KCVO 070015Z 30015G21KT 10SM CLR 28/13 A2999 RMK AO1
KCVS 062358Z 04020G23KT 10SM FEW100 FEW150 BKN200 23/18 A3002 RMK AO2A PK WND 03027/42 SLP112 60000 T02280184 10314 20228 53001 $
KCVW 062355Z AUTO 18010G16KT 9SM CLR 30/25 A3006 RMK A01
KCVX 070014Z AUTO 21007KT 7SM OVC045 27/18 A2982 RMK AO2 T02700175
KCWA 062347Z 35012G20KT 5SM BR OVC013 17/16 A2986
KCWC 070015Z AUTO 16014G18KT 10SM SCT065 34/18 A2982 RMK AO2 T03380179
KCWF 061845Z 20013G18KT 10SM SCT039 33/23 A3011
KCWI 070015Z 22008KT 10SM SCT033 23/21 A2988 RMK AO1 LTG DSNT S
KCWN 062356Z AUTO 03002KT 1/8SM -RA VV002 13/12 A3001 RMK AO2 LTG DSNT W SLP101 P0011 60031 T01250121 10185 20125 58001 $
KCWV 070015Z AUTO 00000KT 10SM SCT055 28/22 A3009 RMK AO2 LTG DSNT E
KCXE 062355Z AUTO 00000KT 10SM CLR 28/22 A3006 RMK AO1 60002 T02760224 10305 20245
KCXO 062353Z 16011KT 10SM FEW050 31/21 A2998 RMK AO2 SLP148 T03060211 10339 20306 58020
KCXP 070015Z AUTO 20009G15KT 180V240 10SM TS SCT120 22/10 A3015 RMK AO2 LTG DSNT ALQDS
KCXY 062356Z 17003KT 10SM BKN080 OVC100 26/21 A3002 RMK AO2 RAB32E42 SLP164 P0000 60061 T02560211 10278 20239 56012
KCYS 062353Z 09008KT 2 1/2SM HZ BKN012 OVC017 14/11 A3030 RMK AO2 SLP205 60000 T01390111 10156 20122 58007
KCZT 070015Z AUTO 12014G20KT 10SM CLR 33/20 A2986 RMK AO2
KCZZ 062352Z AUTO 21014KT 27/16 A2997 RMK AO1 SLP119 T02670156 10278 20228 56010
KD07 062356Z AUTO 29006KT 22/11 A3015 RMK AO1 SLP203 T02170106 10239 20200 58009
KD25 062355Z AUTO 36009KT 2 1/2SM BR OVC010 15/14 A2991 RMK AO2 60040 T01450142 10205 20140
KD39 070014Z AUTO 35011G22KT 10SM SCT044 17/08 A3005 RMK AO2 T01700077
KD50 062355Z AUTO 01005KT 9SM CLR 19/07 A3018 RMK AO2
KD55 070015Z AUTO 35009KT 10SM CLR 17/07 A3015 RMK AO2
KD57 070015Z AUTO 03007KT 4SM HZ CLR 19/12 A3016 RMK AO2
KD60 062355Z AUTO 34006KT 10SM CLR 18/07 A3021 RMK AO2
KD95 070013Z AUTO 18005KT 10SM CLR 25/15 A2993 RMK AO2 T02510151
KDAA 062358Z AUTO 15005KT 10SM CLR 27/23 A3001 RMK AO2 LTG DSNT NE-E SLP165 60008 T02690232 10294 20261 55005
KDAB 062353Z 19005KT 7SM -RA FEW080 SCT110 BKN150 BKN250 23/21 A3016 RMK AO2 RAE2259B18 SLP210 P0001 60013 T02280211 10306 20222 51002
KDAG 062350Z AUTO 27007KT 10SM CLR 37/08 A2987 RMK AO2 SLP085 60000 T03720083 10389 20322 58017
KDAL 062353Z 20014G27KT 8SM FEW060 BKN300 33/18 A2987 RMK AO2 PK WND 17028/2312 SLP108 T03330183 10344 20317 58028
KDAN 062353Z AUTO 00000KT 10SM SCT075 27/22 A3006 RMK AO2 LTG DSNT S SLP167 T02720222 10300 20272 56004
KDAW 062351Z AUTO 17003KT 10SM CLR 23/16 A3010 RMK AO2 SLP189 T02330156 10294 20233 58003
KDAY 062356Z 20008KT 6SM HZ CLR 27/18 A3001 RMK AO2 SLP155 T02720183 10289 20272 56009
KDBN 062355Z AUTO 22004KT 10SM CLR 27/26 A3011 RMK AO2 LTG DSNT E AND S
KDBQ 062353Z AUTO 23007KT 10SM FEW018 SCT050 OVC100 25/22 A2983 RMK AO2 SLP095 T02500222 10256 20233 55007
KDCA 062352Z 16006KT 10SM FEW038CB BKN049 BKN090 BKN250 27/23 A3002 RMK AO2 RAB21E39 SLP166 OCNL LTGICCG DSNT N CB DSNT N MOV N P0001 60001 T02720233 10317 20272 55003
KDCM 070015Z AUTO 18003KT 7SM CLR 30/18 A3008 RMK AO2
KDCU 062353Z AUTO 17006KT 10SM FEW036 BKN048 28/23 A3007 RMK AO2 SLP177 T02830228 10311 20283 58012
KDCY 062355Z AUTO 20006KT 10SM SCT035 SCT042 SCT060 28/21 A2995 RMK AO2 T02800211 10301 20280
KDDC 062352Z AUTO 01017G28KT 7SM BKN022 BKN031 OVC037 22/16 A2998 RMK AO2 PK WND 01030/2301 SLP126 T02170161 10261 20211 55002
KDDH 062354Z AUTO 00000KT 10SM CLR 23/18 A3011 RMK AO2 SLP191 T02330183 10283 20233 55003
KDEC 062354Z 20010KT 10SM CLR 27/21 A2991 RMK AO2 SLP122 T02670206 10300 20267 58001
KDED 062355Z AUTO 15006KT 22/20 A3017 RMK AO1
KDEN 062353Z 10008KT 6SM BR BKN026 OVC032 18/12 A3026 RMK AO2 SLP190 60001 T01780117 10178 20150 58004
KDEQ 062353Z AUTO 21006KT 8SM CLR 30/23 A2989 RMK AO2 SLP116 T03000228 10317 20289 58035
KDET 062353Z 20007KT 10SM CLR 26/16 A2995 RMK AO2 SLP138 T02610161 10289 20261 56010
KDEW 062353Z AUTO 35003KT 10SM CLR 32/06 A2997 RMK AO2 SLP134 T03170061 10322 20250 57019
KDFI 062353Z AUTO 19005KT 6SM HZ FEW060 28/18 A2995 RMK AO2 SLP138 T02780183 10300 20278 56009
KDFW 062353Z 18021G30KT 10SM SCT060 BKN300 32/18 A2986 RMK AO2 PK WND 17030/2344 SLP102 T03220183 10339 20322 58028
KDGW 062353Z AUTO 15010KT 6SM HZ OVC042 18/12 A3025 RMK AO2 SLP207 T01780122 10178 20144 56011
KDHN 062353Z 35003KT 10SM CLR 30/21 A3014 RMK AO2 SLP199 T03000206 10317 20300 56010
KDHT 062353Z AUTO 36025G30KT 10SM SCT120 24/16 A3009 RMK AO2 PK WND 36032/2257 SLP133 T02440156 10317 20244 51006
KDIJ 062356Z AUTO 07003KT 10SM FEW038 23/08 A3020 RMK AO2 58014 T02270083 10233 20188 LTG DSNT NE SLP144 $
KDIK 062356Z AUTO 05010KT 5SM HZ FEW095 20/11 A3016 RMK AO2 SLP206 T02000106 10233 20189 58002
KDKB 062355Z AUTO 00000KT 1 1/4SM +RA BKN011 OVC020 22/20 A2985 RMK AO2 LTG DSNT N AND NE P0018 60036 T02220201 10259 20200
KDKK 062353Z AUTO 18003KT 9SM FEW110 23/19 A3000 RMK AO2 SLP157 60000 T02330194 10283 20233 $
KDKR 062355Z AUTO 16008KT 8SM CLR 32/25 A2998 RMK AO2
KDLF 062358Z AUTO 14016KT 10SM CLR 34/22 A2987 RMK AO2 SLP100 T03390216 10349 20306 403490243 $
KDLH 062355Z 34012G17KT 10SM BKN050 17/08 A2996 RMK AO2 SLP147 60002 T01720083 10200 20167 53009
KDLL 062355Z AUTO 31003KT 10SM BKN019 OVC025 24/21 A2981 RMK AO2 T02370205 10266 20237
KDLN 062353Z AUTO 03008KT 10SM CLR 28/08 A3008 RMK AO2 SLP132 T02830078 10289 20178 56017
KDLP 062355Z AUTO 18007KT 10SM CLR 31/25 A3009 RMK A01
KDLS 062353Z AUTO 31019G28KT 10SM CLR 37/08 A2983 RMK AO2 PK WND 31028/2344 SLP098 T03670078 10378 20311 56016
KDLZ 070015Z AUTO 00000KT 10SM CLR 24/16 A3001 RMK AO2 LTG DSNT SE
KDMA 062358Z AUTO 33015KT 10SM CLR 32/18 A2994 RMK AO2 LTG DSNT SE SLP094 60008 T03230175 10337 20275 56017 $
KDMH 062354Z AUTO 28/21 A3002 RMK AO1 SLP164 T02830211 10300 20272 58006
KDMN 070005Z AUTO 28012G20KT 10SM BKN100 33/11 A2996 RMK AO2 LTG DSNT N AND NW T03330106
KDMO 062353Z AUTO 21007KT 10SM CLR 28/23 A2989 RMK AO2 SLP112 T02830233 10322 20283 55000 TSNO
KDMW 070010Z AUTO 14004KT 10SM CLR 24/22 A3005 RMK AO2 LTG DSNT S
KDNL 070007Z AUTO VRB03KT 10SM TS BKN047 BKN065 OVC085 29/20 A3009 RMK AO2 TSB01 T02890200
KDNN 062355Z AUTO 00000KT 10SM CLR 26/24 A3009 RMK AO2
KDNS 070015Z AUTO 03009KT 3SM HZ CLR 21/16 A2995 RMK AO2
KDNV 062355Z AUTO 18007KT 5SM HZ SCT029 27/23 A2989 RMK AO2 T02740230 10291 20274
KDOV 062358Z AUTO 11010KT 10SM OVC006 25/25 A3004 RMK AO2 OVC V BKN SLP176 60003 T02480248 10284 20247 58007 VISNO RWY19 CHINO RWY19 $
KDPA 062352Z 18009KT 10SM SCT110 26/21 A2984 RMK AO2 LTG DSNT W AND NW SLP098 60024 T02610211 10289 20217 56008
KDPL 062355Z AUTO 18003KT 10SM CLR 27/21 A3010 RMK AO2 T02720208 10321 20272
KDQH 062355Z AUTO 00000KT 10SM CLR 30/20 A3011 RMK AO2 LTG DSNT E
KDRA 070013Z AUTO 11018G29KT 10SM FEW100 SCT120 33/10 A2998 RMK AO2 PK WND 12030/0002 WSHFT 2356 T03280100
KDRI 070015Z AUTO 16007KT 7SM SCT014 SCT024 SCT037 31/23 A3003 RMK AO2 T03100232
KDRM 070015Z AUTO 15006KT 10SM CLR 21/17 A2979 RMK AO2 T02070165
KDRO 062353Z AUTO 23004KT 10SM -RA OVC090 18/15 A3019 RMK AO2 SLP159 P0001 60002 T01780150 10278 20172 58002
KDRT 062353Z AUTO 14014KT 10SM CLR 34/19 A2986 RMK AO2 SLP094 T03390194 10350 20306 55016
KDSM 062354Z 36012G17KT 7SM SCT009 BKN060 BKN070 OVC180 23/20 A2990 RMK AO2 WSHFT 2242 SLP116 FROPA 60009 T02280200 10256 20222 53005
KDSV 062354Z AUTO 16007KT 10SM CLR 26/19 A3003 RMK AO2 SLP173 T02560189 10289 20256 55001
KDTA 062355Z AUTO 11016G22KT 10SM SCT110 24/09 A3013 RMK AO1 T02350090 10394 20115
KDTL 070015Z AUTO 35016G20KT 10SM SCT060 17/07 A3009 RMK AO2
KDTN 062353Z 17012KT 10SM CLR 31/22 A2996 RMK AO2 SLP140 T03110217 10328 20311 58025
KDTO 062353Z 18018KT 8SM CLR 32/19 A2986 RMK AO2 PK WND 16027/2259 SLP102 T03170194 10333 20317 56029
KDTS 062353Z AUTO 24005KT 10SM CLR 30/23 A3009 RMK AO2 SLP189 T03000228 10311 20294 58012 TSNO
KDTW 062353Z 14006KT 9SM BKN250 27/17 A2995 RMK AO2 SLP140 T02670172 10294 20267 56010
KDUA 070015Z AUTO 19012G18KT 7SM CLR 31/20 A2987 RMK AO2
KDUB 062355Z AUTO 14009KT 10SM SCT019 SCT070 BKN100 15/10 A3029 RMK AO2 LTG DSNT S
KDUC 070015Z AUTO 18011G15KT 10SM BKN060 31/21 A2985 RMK AO2
KDUG 062356Z AUTO 10007KT 9SM VCTS -RA FEW060 BKN095 BKN120 24/18 A3004 RMK AO2 PK WND 31042/2309 WSHFT 2307 LTG DSNT ALQDS RAB07 TSB10E32 SLP110 P0009 60009 T02390183 10333 20217 55015
KDUH 070014Z AUTO 19005KT 10SM CLR 27/16 A2996 RMK AO2 T02730164
KDUJ 062353Z AUTO 16003KT 10SM CLR 24/19 A3005 RMK AO2 SLP165 60012 T02390194 10250 20217 56007
KDUX 062355Z AUTO 36022G27KT 10SM CLR 24/16 A3004 RMK AO2 T02370160 10302 20237
KDVK 062210Z AUTO 25006KT 10SM SCT046 29/20 A3007 RMK AO2
KDVL 070015Z AUTO 33008KT 10SM FEW060 18/07 A3013 RMK AO1
KDVN 070005Z AUTO 22005KT 1/2SM VCTS +RA FG FEW009 OVC025 22/21 A2988 RMK AO2 LTG DSNT ALQDS TSE00 P0043 T02170211
KDVO 070015Z AUTO 34010G16KT 10SM CLR 25/13 A3000 RMK AO2
KDVP 070013Z AUTO 35020G24KT 7SM CLR 19/12 A3007 RMK AO2 T01850119
KDVT 062353Z AUTO 29009KT 10SM CLR 38/13 A2982 RMK AO2 LTG DSNT W SLP068 T03780133 10383 20322 56029
KDWH 062353Z AUTO 18007G15KT 10SM BKN048 31/22 A2998 RMK AO2 SLP148 T03110222 10333 20311 58019 TSNO
KDWU 070015Z AUTO 00000KT 10SM CLR A3000 RMK AO1
KDWX 062355Z AUTO 03006KT 10SM SCT060 25/09 A3020 RMK AO2 T02490087 10346 21188
KDXR 062353Z 15003KT 10SM CLR 23/17 A3014 RMK AO2 SLP202 T02330172 10267 20233 56003
KDXX 070000Z AUTO 36015G21KT 10SM CLR 20/09 A3006 RMK AO2
KDYB 070015Z AUTO 18004KT 10SM CLR 27/23 A3010 RMK AO1
KDYL 070015Z AUTO VRB03KT 10SM SCT021 BKN025 BKN038 24/22 A3006 RMK AO2 LTG DSNT SW RAB2355E08 P0002 T02390222
KDYS 062358Z AUTO 18016G26KT 10SM CLR 34/20 A2983 RMK AO2 PK WND 18026/55 SLP049 T03370196 10344 20316 $
KDYT 070014Z AUTO 33013KT 10SM 19/11 A2995 RMK AO2
KDZB 070015Z AUTO 16011G21KT 120V180 10SM SCT047 BKN050 31/20 A2993 RMK AO2 T03100200
KDZJ 062355Z AUTO 00000KT 10SM 24/09 A3015 RMK AO2 T02440092 10277 20244
KE11 062355Z AUTO 19018G22KT 10SM CLR 29/18 A2989 RMK AO2 LTG DSNT NE T02850180 10371 20281
KE16 070015Z AUTO 31017G22KT 10SM CLR 27/13 A2999 RMK AO2 SOUTH WIND SOCK OUT OF SERVICE
KE38 062355Z AUTO 16004KT 10SM SCT120 23/19 A3011 RMK AO2 LTG DSNT S AND SW 60057 T02250194 10316 20193
KE80 070015Z AUTO 02013KT 10SM BKN085 BKN120 27/11 A3004 RMK AO2 LTG DSNT NE AND E T02700114
KEAR 070015Z AUTO 02016KT 3SM FEW036 23/13 A3004 RMK AO1
KEAT 062355Z AUTO 00000KT 10SM CLR 36/05 A2986 RMK AO2 SLP098 T03610050 10361 20289 56020
KEAU 062356Z 35009KT 2SM HZ OVC027 18/14 A2992 RMK AO2 SFC VIS 2 1/2 SLP128 60032 T01830139 10228 20178 51007
KEBA 062355Z AUTO 27004KT 10SM CLR 31/24 A3010 RMK AO2 T03100240 10339 20310
KEBG 062355Z AUTO 15017G24KT 10SM SCT039 33/22 A2991 RMK AO2 T03260224 10347 20326
KEBS 062355Z AUTO 36016G24KT 3SM HZ CLR 21/15 A2993 RMK AO2
KECG 062354Z 17008KT 10SM CLR 28/24 A3007 RMK AO2 SLP183 60000 T02780239 10300 20272 56005
KECP 062353Z 17005KT 10SM CLR 29/23 A3009 RMK AO2 SLP200 T02890228 10311 20289 56010
KECS 070015Z AUTO 7SM SCT032 BKN042 21/11 A3021 RMK AO2
KECU 062355Z AUTO 15014G18KT 5SM HZ SCT001 BKN045 BKN120 30/19 A2999 RMK AO2
KEDC 062355Z AUTO 16015G20KT 10SM BKN039 31/22 A2994 RMK AO2
KEDE 070015Z AUTO 17011G16KT 10SM 28/24 A3006 RMK AO2 T02760235
KEDJ 070015Z AUTO 18004KT 9SM CLR 24/18 A3002 RMK AO1
KEDN 062355Z AUTO 00000KT 10SM SCT043 28/22 A3010 RMK AO2
KEDU 070020Z AUTO 24007KT 10SM CLR 34/05 A2989 RMK AO1
KEDW 062358Z 26018G26KT 60SM SCT100 37/05 A2990 RMK AO2A PK WND 24029/00 CB 24NE AND 21SE MOV N SLP099 T03680045 10382 20318 55015
KEED 062356Z AUTO 24007KT 10SM SCT110 42/09 A2979 RMK AO2 LTG DSNT NE SLP047 T04220094 10422 20361 56025
KEEN 070015Z AUTO 19003KT 10SM CLR 23/17 A3010 RMK AO1
KEEO 062353Z AUTO 17006KT 10SM CLR 24/12 A3016 RMK AO2 SLP127 T02440117 10256 20211 58017
KEET 062353Z AUTO 24003KT 10SM CLR 28/22 A3011 RMK AO2 SLP196 T02780217 10289 20272 56013
KEFD 062350Z 16012KT 10SM SCT045 BKN250 31/24 A3000
KEFK 062355Z AUTO 00000KT 10SM CLR 23/15 A3009 RMK AO2 T02300154 10268 20230
KEFT 062355Z AUTO 20008KT 10SM BKN080 OVC095 25/22 A2983 RMK AO2
KEGE 062355Z 00000KT 10SM FEW090 23/09 A3020
KEGI 062355Z 31004KT 10SM FEW040 FEW180 SCT250 31/21 A3010 RMK AO2A SLP194 T03090211 10327 20301 57010 $
KEGV 062354Z AUTO 36007KT 2 1/2SM BR BKN012 BKN044 OVC050 14/13 A2989 RMK AO2
KEHA 070008Z AUTO 35012KT 22/14 RMK AO1 PK WND 18 000 T02170139
KEHC 062355Z AUTO 12012KT 10SM SCT022 BKN032 32/25 A3005 RMK A01
KEHO 062355Z AUTO 23003KT 10SM CLR 29/18 A3007 RMK AO2 T02880182 10313 20288
KEHR 070015Z AUTO 18004KT 10SM CLR 28/22 A2994 RMK AO1
KEIK 070014Z AUTO 00000KT 2SM -RA SCT011 OVC025 16/15 A3026 RMK AO2 T01570147
KEIR 062355Z AUTO 15005KT 10SM SCT026 30/25 A3010 RMK A01
KEKM 062350Z 19006KT 7SM CLR 28/19 A2992 RMK AO2
KEKN 062351Z AUTO 00000KT 10SM FEW055 BKN070 OVC120 22/19 A3011 RMK AO2 SLP187 60006 T02170189 10244 20217 55000 TSNO
KEKO 062356Z AUTO 28006KT 10SM SCT100 31/03 A3008 RMK AO2 SLP127 T03060033 10328 20256 56017
KEKQ 062356Z AUTO 00000KT 10SM CLR 27/22 A3008 RMK AO2 PWINO 58012 T02720222 10300 20277 SLP181
KEKS 070015Z AUTO 33013KT 10SM CLR 26/10 A3010 RMK A01
KELA 062355Z AUTO 17014G17KT 10SM CLR 30/24 A2997 RMK AO2 T03030237 10325 20300
KELD 062353Z AUTO 17006KT 10SM CLR 30/23 A2997 RMK AO2 SLP143 T03000233 10328 20300 58026
KELK 070015Z AUTO 19010KT 10SM VCTS CLR 30/21 A2987 RMK AO2 LTG DSNT W THRU NE
KELM 062353Z AUTO 17007KT 10SM FEW036 BKN055 26/21 A3004 RMK AO2 SLP166 60000 T02610206 10272 20250 55006
KELN 062353Z AUTO 32005KT 10SM CLR 37/08 A2990 RMK AO2 SLP107 60000 T03720078 10378 20300 56016
KELO 070012Z AUTO 33009G18KT 10SM SCT037 OVC050 14/07 A3000 RMK AO2
KELP 062351Z VRB06KT 10SM FEW090 SCT120 SCT250 35/11 A2992 RMK AO2 SLP049 T03500111 10361 20300 56022
KELY 062353Z AUTO 19011KT 10SM CLR 22/07 A3023 RMK AO2 SLP142 60000 T02170067 10272 20211 55001
KELZ 070005Z AUTO 16006KT 10SM SCT027 SCT050 BKN060 23/18 A3010 RMK AO2 T02280183
KEMK 062355Z AUTO 16015KT 4SM HZ SCT022 SCT029 29/25 A3002 RMK A01
KEMM 062355Z AUTO 01010KT 10SM -RA SCT026 BKN070 OVC080 13/11 A3028 RMK AO2 P0011
KEMP 070013Z AUTO 00000KT 5SM -TSRA BR FEW004 BKN038 OVC060 21/21 A2991 RMK AO2 LTG DSNT ALQDS TSB01 P0015 T02110206
KEMT 062345Z 21009KT 10SM CLR 25/15 A2997
KEMV 062355Z AUTO 00000KT 10SM 27/23 A3006 RMK AO2 LTG DSNT N
KEND 062358Z AUTO 17018G23KT 10SM CLR 32/22 A2979 RMK AO2 PK WND 17029/08 SLP073 T03180222 10346 20318 403460245 $
KENL 062355Z AUTO 18007KT 10SM CLR 28/22 A2994 RMK AO2 T02800224 10296 20280
KENV 070015Z AUTO 35013G20KT 7SM TS BKN100 OVC120 28/09 A3006 RMK AO1 LTG DSNT W
KENW 062353Z 00000KT 10SM FEW031 SCT039 BKN120 24/21 A2983 RMK AO2 SLP099 60014 T02440211 10294 20217 58008 $
KEOE 070015Z AUTO 21004KT 10SM CLR 28/21 A3010 RMK AO2
KEOK 062355Z AUTO 21009KT FEW041 FEW055 FEW075 27/24 A2981 RMK AO2
KEPH 062353Z AUTO 19006KT 10SM CLR 35/09 A2987 RMK AO2 SLP103 T03500089 10361 20306 56018
KEQA 062155Z AUTO 29011G21KT 220V300 10SM -RA BKN048 BKN065 OVC080 31/22 A2985 RMK AO2
KEQY 062353Z AUTO VRB04KT 10SM SCT060 29/20 A3007 RMK AO2 SLP180 60000 T02940200 10333 20289 53002
KERI 062351Z 30008KT 10SM FEW043 BKN075 24/17 A3000 RMK AO2 SLP155 60001 T02390172 10272 20228 56012
KERV 070015Z AUTO 15014G20KT 10SM SCT045 29/21 A2995 RMK AO2 T02900208
KERY 070014Z AUTO 22011G19KT 1SM RA OVC006 19/19 A2979 RMK AO2 P0008 T01890186
KESC 070015Z AUTO 35013G19KT 3SM FEW009 SCT013 BKN017 15/14 A2981 RMK AO1 P0010
KESF 062353Z AUTO 18003KT 10SM SCT044 BKN055 32/24 A3002 RMK AO2 SLP165 T03170239 10344 20317 58017
KESN 062345Z 17008KT 10SM SCT035 BKN080 29/23 A3007
KEST 062352Z AUTO 36016G20KT 2SM HZ BKN033 BKN039 OVC050 21/15 A2999 RMK AO2 SLP149 T02060150 10222 20200 53005
KETB 062355Z AUTO 20007KT 10SM SCT035 SCT100 SCT120 25/20 A2982 RMK AO2
KETC 062355Z AUTO 21003KT 10SM 30/21 A3006 RMK AO2 T03020207 10386 20137
KETH 070015Z AUTO 35011G16KT 10SM CLR 17/09 A3009 RMK AO2
KEUF 062358Z AUTO 00000KT 10SM CLR 29/23 A3009 RMK AO2 SLP185 T02940228 10317 20289 56010 $
KEUG 062354Z 23014KT 10SM FEW080 SCT150 BKN250 26/13 A2999 RMK AO2 SLP153 60000 T02610128 10283 20233 56006
KEUL 070015Z AUTO 20008KT 10SM CLR 33/09 A2995 RMK AO1
KEVB 062347Z 23005KT 8SM BKN025 23/20 A3016
KEVV 062354Z 19010KT 10SM CLR 29/23 A2996 RMK AO2 RAE00 SLP141 P0000 60000 T02940228 10306 20289 56018 $
KEVW 062353Z AUTO 30014G21KT 10SM FEW060 SCT095 BKN110 22/08 A3024 RMK AO2 LTG DSNT SE AND S SLP152 T02220078 10267 20194 55001
KEWB 062353Z 19006KT 10SM CLR 22/18 A3013 RMK AO2 SLP203 T02220178 10289 20222 55000
KEWK 070015Z AUTO 05007G14KT 10SM BKN006 BKN010 OVC016 22/19 A2993 RMK AO1 LTG DSNT E
KEWN 062354Z 20008KT 10SM CLR 27/22 A3011 RMK AO2 SLP194 T02720217 10317 20272 52004
KEWR 062351Z 14010KT 10SM FEW040 SCT070 SCT120 BKN200 BKN250 24/18 A3010
KEXX 062355Z AUTO 00000KT 10SM BKN070 OVC085 27/20 A3008 RMK AO2 T02720202 10307 20257
KEYE 062353Z AUTO 21006KT 10SM CLR 28/20 A2995 RMK AO2 SLP135 T02780200 10294 20278 58012
KEYF 070015Z AUTO 17004KT 10SM SCT120 26/20 A3010 RMK AO2 T02620195
KEYW 062353Z 11010KT 10SM CLR 30/26 A3010 RMK AO2 SLP192 T03000261 10328 20300 58002 $
KEZF 062355Z AUTO 17006KT 10SM CLR 26/25 A3001 RMK AO2 P0003 60005 T02560252 10320 20254
KEZM 062355Z AUTO 00000KT 10SM SCT100 28/23 A3012 RMK AO2 LTG DSNT E T02800229 10310 20278
KEZS 062355Z AUTO 23010G17KT 200V260 10SM SCT012 SCT042 BKN048 23/21 A2977 RMK AO2 P0017 60032 T02300210 10267 20228
KF05 062355Z AUTO 17014G18KT 10SM CLR 34/17 A2981 RMK AO1 LTG DSNT N T03370174 10375 20245
KF17 062355Z AUTO 16009G14KT 10SM CLR 31/22 A2996 RMK AO2 T03050218 10326 20305
KF44 062355Z AUTO 18011G16KT 10SM CLR 31/20 A2991 RMK AO2
KF46 062355Z AUTO 18018G26KT 10SM SCT050 32/21 A2987 RMK AO2 T03180210 10332 20312
KF70 062355Z AUTO 20009KT 10SM CLR 25/15 A2996 RMK AO1
KFAF 062358Z AUTO 17007KT 10SM CLR 28/28 A3003 RMK AO2 LTG DSNT NE SLP172 60000 T02800280 10308 20280 55004 $
KFAM 070015Z AUTO 18008KT 10SM FEW033 27/23 A2999 RMK AO1
KFAR 062353Z 36010KT 10SM SCT045 BKN060 18/09 A3010 RMK AO2 SLP192 T01780089 10206 20178 50002
KFAT 062353Z 31012KT 10SM FEW090 FEW130 34/11 A2990 RMK AO2 SLP119 FEW CU DSNT N-NE-E CB OMTNS DSNT N NE E TCU DSNT E T03440111 10344 20278 58021
KFAY 062353Z AUTO 31007KT 10SM SCT055 BKN075 28/18 A3007 RMK AO2 WSHFT 2327 SLP177 T02780183 10328 20278 53007
KFBG 062358Z AUTO VRB01KT 10SM FEW070 SCT090 BKN130 26/18 A3007 RMK AO2 SLP183 T02590175 10325 20259 $
KFBL 062341Z AUTO 00005KT 2 1/2SM SCT034 SCT041 20/16 A2996 RMK AO2
KFBR 070015Z AUTO 01014G22KT 10SM VCTS SCT060 BKN070 17/13 A3029 RMK AO2 LTG DSNT NE THRU SW T01660127
KFCM 062353Z 34008KT 4SM HZ FEW048 SCT060 22/13 A2994 RMK AO2 SLP134 60001 T02220133 10228 20183 50002
KFCS 070014Z 35003KT 10SM FEW011 BKN020 OVC029 15/14 A3027 RMK AO2A DZE2358
KFDK 062250Z 00000KT 10SM SCT041 SCT047 27/24 A3005
KFDR 062353Z AUTO 18019G24KT 10SM CLR 33/21 A2978 RMK AO2 PK WND 16027/2321 SLP065 T03330211 10356 20322 56026
KFDW 070015Z AUTO 00000KT 10SM SCT085 28/21 A3008 RMK AO1 LTG DSNT E
KFDY 062353Z AUTO 19004KT 8SM CLR 26/19 A2997 RMK AO2 SLP140 T02610189 10294 20261 56009
KFEP 062355Z AUTO 26003KT 10SM SCT080 SCT100 26/23 A2984 RMK AO2 LTG DSNT SW 60002 T02550230 10259 20226
KFET 062355Z AUTO 36010G15KT 4SM HZ BKN060 23/16 A2998 RMK AO2 T02320164 10246 20227
KFEW 062356Z AUTO 09007KT 3SM BR BKN013 14/12 A3026 RMK AO2 CIG 013V017 SLP197 T01410115 10149 20123 57008 $
KFFA 062355Z AUTO 18007KT 10SM CLR 28/23 A3008 RMK AO2 T02780229 10304 20240
KFFC 062353Z AUTO 00000KT 8SM SCT036 BKN048 27/23 A3012 RMK AO2 SLP191 60004 T02670228 10294 20261 55007
KFFL 062355Z AUTO 29007KT 6SM -DZ SCT080 SCT110 23/22 A2985 RMK AO2 P0005
KFFM 070014Z AUTO 36010G20KT 10SM CLR 18/08 A3007 RMK AO2
KFFO 062358Z AUTO 21005KT 10SM CLR 27/19 A3000 RMK AO2 SLP157 T02690186 10289 20269 57007
KFFT 062353Z AUTO 21008KT 8SM FEW045 27/20 A3001 RMK AO2 SLP157 T02720200 10294 20272 56008
KFFX 070014Z AUTO 19005KT 5SM HZ CLR 27/18 A2985 RMK AO2 T02690181
KFFZ 062347Z 25010KT 40SM SCT080 SCT120 38/13 A2982
KFGN 070014Z AUTO 35011KT 10SM OVC060 16/07 A3006 RMK AO2
KFGX 062355Z AUTO 19003KT 10SM SCT044 26/21 A3005 RMK AO2 T02620206
KFHB 062355Z AUTO 16009KT 10SM CLR 28/22 A3011 RMK AO1 LTG DSNT SW
KFHR 062353Z AUTO VRB05KT 8SM CLR 21/13 A2998 RMK AO2 SLP152 T02110133 10222 20183 58009
KFHU 062358Z VRB05G28KT 4SM -TSRA SCT004 OVC075 20/15 A3012 RMK AO2A PK WND 21028/46 LTG DSNT W-S SLP136 P0031 60094 T01990154 10311 20028 55008
KFIG 062354Z AUTO 08003KT 10SM FEW020 BKN032 23/21 A3005 RMK AO2 SLP168 60002 T02280206 10250 20217 57012
KFIN 062355Z AUTO 00000KT 10SM BKN110 22/21 A3014 RMK AO2 LTG DSNT S AND NW P0002 60003 T02200210 10299 20217
KFIT 062352Z AUTO 00000KT 9SM CLR 26/17 A3011 RMK AO2 SLP196 T02610167 10300 20261 56005
KFKA 070014Z AUTO 35009G17KT 3SM HZ 18/14 A2994 RMK AO2 SKY OBSCURED T01800137
KFKL 070015Z AUTO 15006KT 10SM SCT021 BKN027 OVC036 23/18 A3004 RMK AO1
KFKN 062355Z AUTO 14005KT 10SM -TSRA SCT010 SCT023 BKN042 25/22 A3005 RMK AO2 LTG DSNT NE THRU SE P0007 60008 T02530223 10304 20253
KFKR 070015Z AUTO 17003KT 10SM CLR 27/22 A2996 RMK AO2 T02700217
KFKS 070015Z AUTO 24007G14KT 7SM CLR 26/17 A2980 RMK AO2 T02630167
KFLD 062353Z AUTO 22007KT 10SM FEW033 BKN080 OVC100 26/21 A2980 RMK AO2 SLP087 60001 T02560211 10278 20233 56009
KFLG 062357Z VRB03KT 10SM CLR 22/09 A3028 RMK AO2 SLP156 60004 T02220089 10239 20189 58009
KFLL 062353Z 09007KT 10SM FEW030 FEW120 SCT250 29/24 A3012 RMK AO2 SLP197 T02940244 10328 20294 55001
KFLO 062353Z AUTO 18006KT 10SM CLR 29/21 A3008 RMK AO2 SLP183 T02940211 10317 20289 53002 TSNO
KFLP 070015Z 17004KT 10SM 28/22 A2993 RMK AO1
KFLY 070015Z AUTO 04007KT 10SM BKN012 OVC019 14/12 A3033 RMK AO2 T01370123
KFME 062315Z AUTO 13006KT 10SM SCT049 SCT080 27/22 A3004 RMK AO1
KFMH 070015Z AUTO 21006KT 10SM CLR 21/17 A3015 RMK AO2 PWINO
KFMM 070015Z AUTO 05007KT 5SM HZ SCT033 OVC039 19/11 A3022 RMK AO2 T01920109
KFMN 062353Z 01010KT 10SM VCTS BKN090 24/12 A3009 RMK AO2 PK WND 36027/2309 LTG DSNT ALQDS SLP136 T02390117 10322 20239 53004
KFMY 062353Z 15006KT 10SM FEW055 SCT070 BKN110 24/20 A3015 RMK AO2 LTG DSNT SW RAB31E48 SLP212 P0000 60001 T02440200 10328 20239 53010
KFNB 070013Z AUTO 36004KT 6SM -RA BR SCT007 BKN012 OVC038 22/22 A2989 RMK AO2 P0001 T02220217
KFNL 070015Z AUTO 10004KT 4SM SCT028 18/12 A3026 RMK AO1
KFNT 062353Z 18008KT 7SM CLR 28/17 A2992 RMK AO2 SLP127 T02780172 10300 20278 56012
KFOA 062355Z AUTO 19008KT 10SM CLR 28/23 A2994 RMK AO2 T02820231 10296 20282
KFOD 070015Z AUTO 01007KT 3SM BKN038 BKN044 21/14 A2997 RMK AO1
KFOE 070008Z 12003KT 10SM -RA FEW007 SCT018 OVC035 23/21 A2989 RMK AO2 LTG DSNT SE AND S P0001 T02330211
KFOK 062353Z 16006KT 10SM CLR 23/20 A3014 RMK AO2 SLP207 T02280200 10261 20228 58008
KFOT 070015Z AUTO 32011KT 10SM CLR 18/13 A3006 RMK AO1
KFOZ 070013Z AUTO 35004KT 10SM SCT041 OVC055 15/08 A3004 RMK AO2
KFPK 070015Z AUTO 19007KT 7SM CLR 25/19 A2990 RMK AO2 T02510185
KFPR 062353Z AUTO 13005KT 9SM CLR 29/24 A3017 RMK AO2 SLP215 T02890244 10311 20289 53011 TSNO
KFRG 062353Z 16009KT 10SM BKN023 24/18 A3012 RMK AO2 SLP200 T02390183 10272 20239 58004
KFRI 070014Z AUTO 02007KT 6SM -RA BR FEW006 BKN013 OVC018 23/23 A2992 RMK AO2 DZB05E12RAB12 CIG 013V017 $
KFRM 070015Z AUTO 34010G15KT 3SM SCT028 BKN034 21/13 A2999 RMK AO1
KFRR 070015Z AUTO 00000KT 10SM BKN036 OVC043 24/21 A3002 RMK AO1
KFSD 062356Z 02012G21KT 5SM HZ FEW040 SCT250 21/13 A3005 RMK AO2 SLP170 T02110133 10233 20211 53006
KFSE 070013Z AUTO 32011G15KT 10SM OVC050 14/07 A3011 RMK AO2
KFSI 062358Z AUTO 17014KT 10SM CLR 32/22 A2980 RMK AO2 SLP081 T03210220 10334 20315
KFSM 062353Z 19007KT 10SM BKN060 30/21 A2991 RMK AO2 SLP123 T03000211 10311 20289 55019
KFSO 062355Z AUTO 00000KT 10SM CLR 24/18 A3004 RMK AO2 T02350181 10278 20235
KFST 062353Z AUTO 17015G21KT 10SM CLR 25/19 A2993 RMK AO2 SLP091 60003 T02500189 10350 20228 58016
KFSW 062355Z AUTO 21007KT 7SM -RA SCT019 BKN035 BKN041 26/24 A2984 RMK AO2 P0001
KFTG 062350Z 07007KT 5SM HZ OVC045 17/12 A3028
KFTK 062358Z 18006KT 10SM SCT250 28/22 A2999 RMK AO2A SLP152 T02750218 10300 20275 57012
KFTN 070015Z AUTO 12014G22KT 10SM 35/20 A2986 RMK A01
KFTW 062353Z 16020G29KT 10SM SCT060 32/19 A2986 RMK AO2 PK WND 16029/2351 SLP101 T03220194 10344 20322 58027
KFTY 062353Z 22003KT 10SM CLR 27/22 A3010 RMK AO2 SLP183 60008 T02720217 10294 20256 55005
KFUL 062353Z 21008G14KT 10SM CLR 25/16 A2995 RMK AO2 SLP141 T02500156 10261 20211 56016
KFVE 062353Z AUTO 18004KT 10SM CLR 23/13 A3006 RMK AO2 SLP175 T02280133 10267 20228 55003
KFVX 062355Z AUTO 00000KT 10SM CLR 25/21 A3004 RMK AO2 LTG DSNT E 60051 T02520207 10296 20233
KFWA 062354Z 20008KT 6SM HZ BKN250 27/19 A2996 RMK AO2 SLP139 T02670189 10294 20267 56013
KFWB 062355Z AUTO 21003KT 9SM CLR 27/23 A2995 RMK AO2
KFWC 062355Z AUTO 19005KT 10SM SCT026 SCT033 28/24 A2993 RMK AO1 T02840240 10298 20284
KFWN 062353Z AUTO 16005KT 10SM CLR 25/19 A3010 RMK AO2 SLP189 T02500189 10283 20250 58004 $
KFWS 062348Z 16015G20KT 5SM HZ SCT055 32/19 A2990
KFWZ 070015Z AUTO 10SM TSRA SCT043 OVC055 10/08 A3031 RMK AO2 LTG DSNT ALQS P0001
KFXE 062353Z 11006KT 10SM FEW030 SCT180 BKN250 29/24 A3012 RMK AO2 SLP202 T02940239 10333 20294 55000
KFXY 062355Z AUTO 36010G15KT 3SM HZ CLR 20/15 A2997 RMK AO2
KFYG 070015Z AUTO 19005KT 9SM CLR 29/23 A2989 RMK AO2
KFYJ 070015Z AUTO 00000KT 10SM CLR 26/22 A3006 RMK AO2 T02600216
KFYM 070015Z AUTO 21004KT 10SM 27/21 A3008 RMK
KFYV 062353Z 19010KT 7SM CLR 27/22 A2994 RMK AO2 SLP125 T02670222 10289 20267 56016
KFZG 062355Z AUTO 00000KT 10SM CLR 30/21 A3012 RMK AO2 LTG DSNT E T02950210 10314 20290
KFZY 062354Z AUTO 16003KT 10SM CLR 27/19 A3002 RMK AO2 SLP161 T02670194 10283 20267 55007
KGAD 070015Z 24003KT 10SM CLR 32/20 A3008 RMK AO1
KGAF 070015Z AUTO 35010KT 10SM BKN049 17/08 A3014 RMK AO2
KGAG 062353Z AUTO 34016G26KT 10SM BKN042 OVC048 28/20 A2991 RMK AO2 PK WND 33026/2344 LTG DSNT SE AND SW RAE2255 PRESRR SLP098 P0000 60000 T02780200 10350 20278 53003
KGAI 070015Z AUTO 10003KT 10SM BKN039 25/22 A3007 RMK AO1 LTG DSNT SE TSE13
KGAO 062355Z AUTO 10SM CLR 31/23 A3009 RMK AO2 T03120232 10335 20312
KGBD 070015Z AUTO 02017KT 10SM BKN025 OVC040 23/18 A2998 RMK AO1
KGBG 062355Z AUTO 18006KT 10SM CLR 27/23 A2984 RMK AO2 LTG DSNT N AND NW T02720231 10288 20265
KGBK 062330Z AUTO VRB05G12KT 10SM SCT022 BKN029 29/25 A3008 RMK A01
KGCC 062353Z AUTO 03005KT 10SM FEW042 20/12 A3021 RMK AO2 SLP201 T02000117 10206 20156 58013 $
KGCD 062355Z AUTO 09004KT 10SM CLR 34/03 A3001 RMK AO2 T03430027 10355 20291
KGCK 070013Z 01016G22KT 10SM OVC030 23/16 A3003 RMK AO2 T02330156
KGCM 070015Z AUTO 18012G15KT 7SM 28/22 A2992 RMK AO2
KGCN 062354Z 30009G18KT 260V330 10SM VCTS FEW055 SCT070 BKN090 21/10 A3026 RMK AO2 LTG DSNT N-E TSB25E40 SLP154 T02110100 10256 20211 56005
KGDB 070012Z AUTO 34013G24KT 10SM CLR 19/10 A3006 RMK AO2 T01910097
KGDJ 062355Z AUTO 15015G23KT 10SM BKN015 OVC020 33/18 A2987 RMK AO2 T03320183 10352 20331
KGDP 062351Z AUTO 28010KT 10SM CLR 31/12 A3006 RMK AO2 SLP086 T03110122 10333 20283 58017
KGDV 070015Z AUTO 35007KT 10SM BKN075 OVC085 22/06 A3016 RMK AO1
KGED 062354Z AUTO 16008KT 10SM CLR 27/23 A3006 RMK AO2 SLP179 60105 T02670233 10311 20233 55010
KGEG 062353Z 11008KT 10SM FEW100 SCT140 BKN180 33/04 A2996 RMK AO2 SLP123 FU FEW180 T03330039 10333 20256 58019
KGEU 062347Z 20012KT 20SM SCT080 BKN180 39/15 A2981
KGEV 070015Z AUTO 28004KT 10SM CLR 22/14 A3020 RMK AO2 T02190143
KGEY 062353Z AUTO VRB03KT 10SM CLR 24/08 A3013 RMK AO2 SLP175 T02440083 10250 20189 56017
KGEZ 062353Z AUTO 19007KT 8SM CLR 28/21 A2997 RMK AO2 SLP141 T02780211 10300 20278 56012
KGFA 062356Z AUTO 05004KT 10SM CLR 23/09 A3010 RMK AO2 SLP189 T02280090 10232 20170 57015 TSNO $
KGFK 062353Z 01016KT 10SM SCT045 18/08 A3012 RMK AO2 SLP200 T01780083 10189 20161 53005
KGFL 062353Z AUTO 16004KT 10SM FEW003 24/18 A3007 RMK AO2 SLP179 T02440178 10283 20244 58001
KGGE 070015Z AUTO 00000KT 10SM SCT040 25/23 A3011 RMK AO2
KGGG 062353Z 18013KT 10SM CLR 32/21 A2993 RMK AO2 SLP128 T03170211 10356 20317 58029
KGGI 062355Z AUTO 32007KT 7SM -RA SCT009 BKN013 OVC027 22/21 A2989 RMK AO2 60001 T02230209 10255 20223
KGGP 062355Z AUTO 19004KT 10SM CLR 26/18 A2994 RMK AO2
KGGW 062353Z AUTO VRB05KT 10SM CLR 23/05 A3013 RMK AO2 SLP198 T02330050 10239 20200 58013
KGHB 062355Z AUTO 00000KT 9SM FEW020 30/26 A3007 RMK A01
KGHG 062355Z AUTO 21005KT 10SM CLR 26/16 A3013 RMK AO2
KGHW 070013Z AUTO 35016G23KT 10SM CLR 17/08 A3006 RMK AO2
KGIC 062355Z AUTO 02004KT 10SM CLR A3002 RMK AO1
KGIF 062353Z AUTO 09004KT 10SM CLR 24/23 A3017 RMK AO2 SLP216 60037 T02440228 10333 20228 53010 TSNO
KGJT 062353Z 00000KT 10SM SCT100 29/05 A3003 RMK AO2 LTG DSNT SW SLP104 VCSH T02890050 10306 20256 58009
KGKJ 070000Z AUTO 00000KT 10SM -RA SCT025 24/19 A3003 RMK AO2 P0000 T02440189 TSNO
KGKT 070015Z AUTO 00000KT 10SM CLR 27/19 A3007 RMK
KGKY 062353Z 16018G26KT 10SM FEW055 33/18 A2987 RMK AO2 PK WND 15029/2310 SLPNO 6//// T03280183 58027
KGLD 062353Z AUTO 01018G24KT 5SM HZ FEW039 OVC050 22/13 A3012 RMK AO2 SLP164 T02170128 10233 20183 56010
KGLE 062355Z AUTO 16019G23KT 7SM CLR 31/19 A2987 RMK AO2 T03100194 10326 20303
KGLH 062353Z AUTO 17009KT 9SM CLR 29/24 A2999 RMK AO2 SLP161 T02940244 10311 20283 58023
KGLR 062353Z AUTO 19014KT 5SM HZ CLR 26/17 A2984 RMK AO2 SLP097 T02610167 10289 20261 56020
KGLS 062352Z AUTO 17013KT 10SM CLR 31/26 A3001 RMK AO2 SLP161 T03060256 10322 20306 58021
KGLW 062355Z AUTO 20005KT 10SM CLR 27/21 A3003 RMK AO2 T02740206 10293 20272
KGLY 062355Z AUTO 19005KT 6SM HZ CLR 28/25 A2989 RMK AO2 LTG DSNT W-N
KGMJ 070015Z AUTO 19005KT 7SM CLR 29/23 A2993 RMK AO2 LTG DSNT W
KGMU 062353Z 22006KT 10SM CLR 28/18 A3009 RMK AO2 LTG DSNT W AND NW SLP180 T02780183 10311 20278 56004
KGNA 062356Z AUTO VRB04KT 18/12 A2991 RMK AO1 SLP123 60003 T01830117 10183 20122 53001
KGNC 062355Z AUTO 19012G17KT 10SM CLR 32/15 A2989 RMK AO2 T03240152 10378 20255
KGNR 062356Z AUTO 00000KT 22/15 A3010 RMK AO1 SLP189 T02220150 10272 20222 55002
KGNT 062355Z AUTO 30008KT 10SM OVC090 22/14 A3020 RMK AO2 LTG DSNT S AND NW T02160140 10281 20194
KGNV 062353Z 21003KT 10SM CLR 24/21 A3012 RMK AO2 SLP199 60001 T02390206 10333 20233 50002
KGOK 062353Z AUTO 18013G18KT 6SM HZ CLR 31/23 A2983 RMK AO2 SLP088 T03110233 10333 20311 55019
KGON 062356Z 19004KT 10SM CLR 21/18 A3012 RMK AO2 SLP200 T02110178 10261 20211 58004
KGOO 070015Z AUTO 23005KT 10SM CLR 28/10 A3010 RMK AO1
KGOP 062355Z AUTO 16014G19KT 10SM CLR 32/20 A2993 RMK AO2
KGOV 070014Z AUTO 18006KT 7SM CLR 26/18 A2986 RMK AO2 T02560178
KGPH 070015Z AUTO 00000KT 7SM VCTSRA SCT050 BKN065 OVC080 22/22 A2987 RMK AO2 LTG DSNT ALQS
KGPI 062355Z 14009KT 10SM CLR 27/03 A3004 RMK AO2 SLP166 T02670028 10272 20206 56020
KGPM 062350Z 17012G21KT 10SM SKC 32/20 A2989
KGPT 062353Z 16007KT 10SM CLR 29/24 A3008 RMK AO2 SLP186 T02890244 10306 20289 58014
KGPZ 070015Z AUTO 33009KT 10SM OVC049 16/06 A3003 RMK AO1
KGRB 070011Z 24007KT 10SM FEW025 SCT060 OVC075 23/21 A2977 RMK AO2 PK WND 25028/2354 RAE11 P0003 T02330211
KGRD 062356Z AUTO 21004KT 10SM CLR 28/21 A3009 RMK AO2 SLP181 T02830211 10311 20283 58005
KGRF 062358Z AUTO 27008KT 10SM CLR 30/13 A2997 RMK AO2 SLP151 T02950127 10296 20240 57004
KGRI 070006Z 02014G24KT 1 3/4SM HZ OVC031 23/14 A3003 RMK AO2 T02330144
KGRK 062358Z AUTO 17015KT 10SM CLR 30/19 A2992 RMK AO2 SLP121 T03020194 10325 20302
KGRR 062353Z 18009KT 5SM HZ FEW050 BKN230 27/19 A2988 RMK AO2 SLP113 T02720189 10294 20272 56019
KGRY 070000Z AUTO 14007KT 8SM SCT033 29/25 A3010 RMK A01
KGSB 062358Z AUTO 00000KT 10SM CLR 30/21 A3005 RMK AO2 SLP178 T03040207 10331 20304 $
KGSH 062353Z AUTO 18009KT 6SM HZ CLR 27/19 A2992 RMK AO2 SLP125 T02720189 10283 20267 58015
KGSO 062354Z VRB04KT 8SM FEW040 BKN080 BKN250 26/19 A3008 RMK AO2 SLP174 CB DSNT NE T02610189 10311 20261 53003
KGSP 062353Z 23006KT 10SM CLR 28/19 A3007 RMK AO2 LTG DSNT W SLP171 T02780189 10322 20272 56003
KGTB 062358Z AUTO 18004KT 10SM CLR 26/17 A3002 RMK AO2 SLP163 60000 T02620171 10292 20262 55004
KGTF 062353Z 06004KT 10SM CLR 23/09 A3010 RMK AO2 SLP179 T02280094 10233 20167 58015
KGTR 062350Z 20006KT 10SM SKC 29/23 A3007
KGTU 062351Z 17014G22KT 10SM FEW041 SCT050 31/21 A2992
KGUC 070015Z 02009KT 10SM CLR 21/07 A3030 RMK AO1
KGUL 062355Z AUTO 17011KT 6SM HZ SCT021 29/25 A3005 RMK A01
KGUP 062353Z AUTO 31009KT 280V340 10SM -RA FEW070 SCT090 BKN110 25/10 A3018 RMK AO2 LTG DSNT E AND NW RAB32 SLP066 P0000 60001 T02500100 10294 20239 55005
KGUR 062355Z AUTO 00000KT 5SM 21/15 A3024 RMK AO2 T02140148 10220 20175 PWINO
KGUS 062358Z AUTO 20005KT 10SM CLR 27/21 A2993 RMK AO2 SLP133 T02740212 10294 20272 57013
KGUY 062353Z AUTO 01017G23KT 10SM OVC028 24/16 A3005 RMK AO2 PK WND 36029/2304 PRESRR SLP132 T02390161 10306 20239 53009
KGVE 062353Z AUTO 22003KT 10SM CLR 24/22 A3002 RMK AO1
KGVL 062353Z AUTO 26006KT 10SM CLR 27/19 A3013 RMK AO2 SLP186 T02720194 10300 20272 58003
KGVT 062355Z AUTO 17013G19KT 10SM CLR 31/19 A2989 RMK AO2
KGVX 062355Z AUTO 17018KT 10SM SCT024 29/25 A3000 RMK A01
KGWB 062355Z AUTO 00000KT 7SM CLR 27/17 A2996 RMK AO2
KGWO 062353Z AUTO 19006KT 10SM CLR 29/23 A3003 RMK AO2 SLP166 T02940228 10311 20283 58019
KGWR 070015Z AUTO 35012G17KT SCT046 SCT050 19/09 A3011 RMK AO1
KGWW 070015Z AUTO 19003KT 10SM SCT055 SCT065 28/22 A3007 RMK AO2 T02830216
KGXA 062355Z AUTO 01007G18KT 290V100 35/05 A2995 RMK AO2 SLP088 T03510054 10366 20284 403690180 57015 TSNO $
KGXF 070003Z AUTO 30011G18KT 10SM CLR 40/14 A2978 RMK AO2 LTG DSNT SE-S TSE03
KGXY 070015Z AUTO 08006KT 5SM FEW033 19/12 A3024 RMK AO1
KGYB 062355Z AUTO 17008G16KT 10SM SCT065 30/22 A2999 RMK AO2 T02950219 10321 20295
KGYH 062347Z 25004KT 10SM CLR 25/18 A3008
KGYI 062355Z AUTO 18012KT 7SM BKN070 31/21 A2987 RMK AO2 T03110209 10338 20311
KGYL 070014Z AUTO 32014G19KT 10SM CLR 21/13 A2998 RMK AO2 T02110127
KGYR 062347Z 24008KT 10SM FEW080 SCT180 SCT250 38/17 A2982 RMK CB DSNT N, S
KGYY 062345Z 17005KT 10SM BKN080 BKN250 MM/MM A2987
KGZH 062353Z AUTO 00000KT 10SM CLR 29/23 A3010 RMK AO2 SLP189 60000 T02940228 10317 20278 58014
KGZL 062355Z AUTO 20009G17KT 9SM BKN100 30/18 A2989 RMK AO2
KHAE 062355Z AUTO 19007KT 7SM CLR 28/21 A2985 RMK AO2
KHAF 070015Z AUTO 30006KT 5SM HZ CLR 18/14 A3005 RMK AO2
KHAI 070014Z AUTO 20006KT 10SM CLR 26/19 A2992 RMK AO2 T02620188
KHAO 062353Z AUTO VRB03KT 6SM HZ CLR 28/20 A3000 RMK AO2 SLP154 T02830200 10300 20272 56008
KHBG 062353Z AUTO 19004KT 10SM CLR 31/22 A3009 RMK AO2 SLP185 T03110222 10328 20306 56014
KHBI 062355Z AUTO 16006KT 10SM BKN070 BKN080 BKN100 28/21 A3010 RMK AO2 T02780211 10306 20278
KHBR 062353Z AUTO 18018G26KT 8SM CLR 32/21 A2981 RMK AO2 PK WND 18028/2330 SLP072 T03170211 10350 20317 56028
KHBV 062350Z AUTO 13010G23KT 10SM 32/21 A2992 RMK AO2 T03160210
KHCD 070012Z AUTO 31011G16KT 10SM CLR 21/12 A3001 RMK AO2 T02050116
KHCO 070014Z AUTO 33009G15KT 10SM SCT048 SCT050 18/08 A3011 RMK AO2
KHDC 062355Z AUTO 15008KT 10SM CLR 31/24 A3008 RMK AO2
KHDE 062355Z AUTO 02013KT 4SM HZ CLR 23/12 A3004 RMK AO2 T02300120 10244 20200
KHDN 070015Z AUTO 07004KT 10SM CLR 23/08 A3017 RMK AO1
KHDO 062351Z AUTO 15014G21KT 10SM CLR 32/21 A2993 RMK AO2 SLP118 60000 T03170206 10322 20306 58018 PWINO $
KHEF 062345Z 00000KT 10SM CLR 27/22 A3002
KHEI 062353Z AUTO VRB05KT 10SM FEW090 22/08 A3017 RMK AO2 SLP207 T02220083 10228 20189 58007
KHEQ 070015Z AUTO 03014KT 5SM HZ SCT055 23/12 A3017 RMK AO2
KHEY 062353Z AUTO 30003KT 10SM CLR 29/23 A3009 RMK AO2 SLP075 T02940228 10317 20294 56012 $
KHFD 062353Z 14011KT 10SM CLR 25/18 A3010 RMK AO2 SLP194 T02500183 10294 20250 56000
KHFF 062356Z AUTO 09003KT 10SM FEW080 27/21 A3011 RMK AO2 SLP195 T02650210 10317 20265 TSNO $
KHFJ 062355Z AUTO 19007KT 10SM CLR 27/23 A2993 RMK AO2
KHGR 062353Z 13005KT 10SM CLR 26/21 A3003 RMK AO2 SLP172 60000 T02610211 10300 20250 55002
KHHF 062355Z AUTO 36004KT SCT004 SCT008 OVC038 25/22 A2992 RMK AO2 LTG DSNT E THRU SW P0067 60067 T02480218 10334 20245 PWINO
KHHG 062355Z AUTO 21003KT 10SM CLR 27/19 A2995 RMK AO2 T02670189 10291 20267
KHHR 062353Z AUTO 26010KT 10SM BKN016 21/16 A2998 RMK AO2 SLP149 T02060156 10222 20194 56017 TSNO
KHHV 062355Z AUTO 16014G19KT 6SM HZ FEW016 29/26 A3002 RMK A01
KHHW 062355Z AUTO 18006G15KT 10SM 31/21 A2989 RMK AO2 6//// T03100213
KHIB 062353Z AUTO 33013KT 10SM OVC049 16/07 A3001 RMK AO2 SLP164 T01560067 10200 20156 53012
KHIE 062352Z AUTO 00000KT 10SM CLR 23/16 A3009 RMK AO2 SLP188 T02330161 10283 20233 56007 TSNO
KHIF 062358Z VRB06KT 10SM FEW070 SCT110 BKN200 29/10 A3008 RMK AO2A SLP125 T02890100 10300 20267 57006
KHII 062350Z AUTO 20006KT 10SM CLR 40/11 A2978 RMK AO2
KHIO 062353Z VRB05KT 10SM CLR 33/13 A2993 RMK AO2 SLP131 T03330133 10333 20239 57016
KHJH 062355Z AUTO 01021G25KT 7SM SCT027 BKN034 OVC042 23/17 A2996 RMK AO2 T02280168 10233 20222
KHJO 062353Z AUTO 32014KT 10SM CLR 34/13 A2989 RMK AO2 SLP120 T03440128 10356 20283 56024
KHKA 062353Z AUTO 19010KT 10SM CLR 29/24 A2997 RMK AO2 SLP147 T02890239 10300 20278 56018
KHKS 062353Z 22004KT 10SM CLR 31/22 A3005 RMK AO2 SLP167 T03060222 10322 20300 58017 $
KHKY 062353Z AUTO 05004KT 9SM FEW070 27/18 A3009 RMK AO2 SLP165 T02720178 10322 20272 52003
KHLC 062353Z AUTO 02020G30KT 2SM HZ FEW043 26/11 A3002 RMK AO2 PK WND 02030/2348 SLP143 T02610111 10272 20222 55007
KHLG 062353Z 17003KT 10SM CLR 23/19 A3003 RMK AO2 SLP163 60001 T02280189 10267 20222 58003
KHLN 062353Z 02003KT 10SM CLR 27/09 A3006 RMK AO2 SLP169 T02670094 10272 20161 56020
KHLR 062358Z AUTO 16017KT 10SM SCT044 31/21 A2991 RMK AO2 PK WND 14028/2259 SLP116 T03120211 10333 20310
KHLX 070015Z AUTO 30003KT 10SM BKN090 21/17 A3017 RMK AO2 T02100172
KHMN 062358Z AUTO 22003KT 10SM M 35/10 A2992 RMK AO2 SLP053 T03470104 10349 20309 57023 $
KHNB 070015Z AUTO 18005KT 10SM CLR 28/22 A2997 RMK AO1
KHND 062356Z 15009KT 10SM CLR 36/13 A2994 RMK AO2 LTG DSNT NW SLP105 T03560133 10361 20311 58016
KHNR 062355Z AUTO 01014G20KT 3SM HZ SCT050 22/18 A2998 RMK AO2
KHNZ 070015Z AUTO 00000KT 10SM CLR 25/22 A3006 RMK AO2 T02530218
KHOB 070015Z AUTO 19015G23KT 10SM CLR 30/16 A2991 RMK AO2 LTG DSNT N AND NE
KHOE 062355Z AUTO 30003KT 10SM CLR 30/22 A3010 RMK AO2
KHON 062355Z AUTO 02014KT 4SM HZ CLR 22/12 A3006 RMK AO2 SLP176 T02220122 10239 20222 58006
KHOP 062358Z AUTO 19007KT 10SM CLR 29/22 A3000 RMK AO2 SLP156 T02860222 10303 20285 57014
KHOT 062353Z AUTO 20009KT 10SM CLR 30/22 A2995 RMK AO2 SLP133 60001 T03000222 10311 20272 56026
KHOU 062353Z 16012G17KT 10SM FEW030 SCT038 BKN250 30/23 A2998 RMK AO2 SLP156 T03000233 10328 20300 58020
KHPN 062356Z 17006KT 10SM FEW100 24/18 A3012 RMK AO2 SLP194 T02390183 10272 20239 56004
KHQI 062355Z AUTO 15016KT 8SM SCT022 SCT029 SCT037 30/25 A3004 RMK A01
KHQM 062353Z AUTO 25012KT 7SM CLR 18/13 A3005 RMK AO2 SLP181 T01830128 10194 20167 58003
KHQU 062355Z AUTO 00000KT 10SM CLR 31/23 A3012 RMK AO1 T03070228 10325 20301
KHQZ 062350Z 16015G21KT 7SM CLR 32/20 2989
KHRI 062353Z AUTO 33004KT 10SM CLR 38/07 A2983 RMK AO2 SLP093 T03780072 10383 20306 56023
KHRJ 062355Z AUTO 00000KT 10SM CLR 27/18 A3008 RMK AO2 T02660181 10321 20260
KHRL 062352Z 16017KT 10SM FEW029 31/24 A2992 RMK AO2 PK WND 15027/2309 SLP133 60000 T03110244 10339 20311 56013
KHRO 062353Z AUTO 17009KT 10SM FEW028 BKN039 BKN045 26/22 A2997 RMK AO2 SLP133 T02610222 10289 20261 55012
KHRT 062358Z AUTO 23007KT 10SM CLR 30/21 A3008 RMK AO2 SLP188 T02960212 10331 20296 $
KHRX 062355Z AUTO 10SM -RA SCT028 SCT038 SCT045 21/21 A3004 RMK AO2 P0003 60115 T02110207 10343 20201
KHSA 062350Z 16007KT 7SM SCT020 30/23 A3010
KHSB 070015Z AUTO 20008KT 10SM CLR 28/24 A2997 RMK AO2 T02830238
KHSE 062351Z AUTO 20011KT 10SM CLR 26/23 A3011 RMK AO2 SLP196 T02610233 10289 20261 58002 TSNO
KHSI 062353Z AUTO 02014G21KT 2SM HZ BKN040 23/14 A3001 RMK AO2 PK WND 03030/2322 SLP146 T02330144 10256 20222 56000
KHSP 062350Z AUTO 27010KT 7SM BKN006 OVC010 20/20 A3018 RMK AO2 60001 T01960196 10222 20188
KHST 062358Z AUTO 09004KT 10SM CLR 29/24 A3011 RMK AO2 SLP199 T02890244 10325 20274
KHSV 062353Z 13003KT 10SM FEW032 SCT065 27/23 A3007 RMK AO2 RAB03E49 SLP176 P0002 60002 T02720233 10317 20267 58009
KHTL 062353Z AUTO 18009G17KT 6SM HZ CLR 26/18 A2986 RMK AO2 SLP108 T02560178 10283 20256 56020
KHTO 062150Z 18010KT 10SM SKC 24/ A3017
KHTS 062351Z 00000KT 10SM CLR 26/19 A3003 RMK AO2 SLP163 T02560189 10283 20256 56007
KHUA 062358Z AUTO 21005KT 9SM SCT047 27/23 A3007 RMK AO2 SLP178 T02720225 10297 20267
KHUF 062353Z 19008KT 10SM CLR 29/23 A2993 RMK AO2 LTG DSNT W SLP131 T02890228 10306 20283 56017 $
KHUL 062353Z AUTO 17003KT 10SM CLR 23/15 A3007 RMK AO2 SLP181 T02280150 10283 20228 55004
KHUM 070015Z AUTO 15005KT 7SM CLR 30/25 A3007 RMK AO2 T02960252
KHUT 062352Z 01012G23KT 10SM OVC011 23/21 A2991 RMK AO2 LTG DSNT S RAB01E29 PRESRR SLP105 P0000 60017 T02330206 10344 20233 53012
KHVE 070015Z AUTO 28013KT 10SM SCT120 27/07 A3010 RMK AO2
KHVN 062353Z 18008KT 10SM FEW080 SCT120 BKN250 23/19 A3012 RMK AO2 SLP199 T02280189 10278 20228 58007
KHVR 062353Z AUTO VRB04KT 10SM CLR 24/07 A3010 RMK AO2 SLP186 T02390067 10244 20189 56017
KHVS 070015Z AUTO 16003KT 10SM CLR 27/20 A3007 RMK AO2
KHWD 062354Z 29012KT 10SM CLR 21/14 A3002 RMK AO2 SLP175 T02060139 10222 20194 58016
KHWO 062353Z 10005KT 10SM CLR 29/23 A3013 RMK AO2 SLP203 T02940228 10344 20294 55001
KHWV 062356Z AUTO 14008KT 10SM CLR 23/19 A3014 RMK AO2 SLP203 T02280189 10256 20228 58006 TSNO
KHWY 062355Z AUTO 00000KT 10SM CLR 27/24 A3002 RMK AO2 LTG DSNT NE THRU SE T02660238 10305 20265
KHXD 070015Z AUTO 18005KT 10SM VCTS CLR 27/24 A3012 RMK AO2 LTG DSNT SW AND W P0000
KHYA 062356Z 22004KT 10SM CLR 22/18 A3014 RMK AO2 SLP206 T02220183 10278 20222 55000
KHYI 070015Z 16016G23KT 10SM SCT050 29/21 A2994 RMK AO1
KHYR 062353Z AUTO 34005KT 2 1/2SM HZ FEW020 FEW025 OVC034 18/13 A2994 RMK AO2 SLP137 60025 T01780133 10178 20150 53001
KHYS 070015Z 03016KT 8SM FEW038 OVC085 25/14 A2998 RMK AO1
KHYW 070015Z AUTO 00000KT 5SM BR CLR 25/23 A3010 RMK AO2
KHYX 070014Z AUTO 16007KT 10SM CLR 27/16 A2988 RMK AO2
KHZE 070015Z AUTO 36007KT 9SM CLR 19/10 A3017 RMK AO2
KHZL 070015Z AUTO 11006KT 7SM SCT025 SCT036 SCT049 22/21 A3012 RMK AO2
KHZR 062355Z AUTO 20005KT 10SM SCT037 A3005 RMK AO2
KHZX 070014Z AUTO 33010G17KT 10SM BKN049 16/08 A3002 RMK AO2
KHZY 062353Z AUTO 11004KT 10SM CLR 23/20 A3002 RMK AO2 SLP159 60006 T02330200 10283 20194 56014
KI16 062355Z AUTO 5SM BR CLR 22/22 A3017 RMK AO2 T02200215 10253 20205
KI35 070015Z AUTO 04003KT 7SM 24/20 A3010 RMK AO1
KI39 070015Z AUTO 00000KT 10SM CLR 26/20 A3005 RMK AO2
KI67 070015Z AUTO 21003KT 10SM CLR 27/18 A2999 RMK AO1
KI69 070016Z AUTO 20004KT 10SM CLR 26/18 A3001 RMK AO1
KI75 062355Z AUTO 33010KT 10SM -RA SCT012 BKN023 OVC044 22/21 A2989 RMK AO2 P0009 60025 T02240210 10259 20220
KIAB 070011Z AUTO 35003KT 10SM VCTS FEW007 BKN031 OVC043 22/21 A2989 RMK AO2 LTG DSNT E-SW RAE11 TSE00
KIAD 062352Z 16004KT 10SM FEW030 SCT055 BKN095 BKN250 25/23 A3001 RMK AO2 RAE05 SLP161 P0003 60050 T02500233 10289 20239 58006
KIAG 062353Z 10005KT 10SM FEW042 SCT049 BKN280 24/21 A2997 RMK AO2 TSE24 SLP146 T02440206 10300 20244 56005
KIAH 062353Z 16011KT 10SM FEW038 BKN250 31/23 A2998 RMK AO2 SLP150 T03110228 10333 20311 58019
KICL 062355Z AUTO 01015G22KT 8SM OVC022 21/18 A2992 RMK AO2
KICR 062353Z AUTO 01013KT 9SM FEW055 24/11 A3010 RMK AO2 SLP181 T02390111 10256 20233 58007
KICT 062353Z 11004KT 10SM -RA BKN007 BKN050 OVC085 22/21 A2987 RMK AO2 TSE48 SLP101 OCNL LTGICCCCG DSNT E-SE-S CB DSNT E-SE-S MOVG SE P0021 60244 T02220206 10356 20222 51026
KIDA 062353Z 01005KT 10SM SCT080 24/12 A3010 RMK AO2 SLP156 60013 T02390117 10239 20167 58009
KIDI 070015Z AUTO 00000KT 10SM CLR 23/21 A3007 RMK A01
KIDP 062355Z AUTO 16007KT 7SM CLR 28/22 A2987 RMK AO2 LTG DSNT W THRU N
KIEN 062352Z AUTO 02004KT 8SM OVC075 21/11 A3018 RMK AO2 SLP201 T02110111 10222 20194 58013
KIFA 070015Z AUTO 35012G17KT 4SM HZ SCT028 21/15 A2994 RMK AO2 T02090151
KIFP 070015Z AUTO 03004KT 10SM CLR 39/13 A2979 RMK AO2
KIGM 062351Z AUTO 09005KT 10SM -RA FEW045 SCT100 SCT120 25/17 A3005 RMK AO2 LTG DSNT SE AND SW AND NW TSB05E20 SLP109 P0001 60001 T02500172 10344 20233 58005
KIGQ 070015Z AUTO 19010G14KT 10SM CLR 24/19 A2987 RMK AO2 T02370186
KIGX 062356Z AUTO 16003KT 10SM CLR 28/21 A3007 RMK AO2 SLP176 T02780206 10311 20278 56002 TSNO
KIIB 070015Z AUTO 34017G25KT 10SM BKN018 OVC024 21/18 A2988 RMK AO2
KIIY 062355Z AUTO 00000KT 10SM CLR 30/25 A3008 RMK AO2
KIJD 062352Z AUTO 19007KT 10SM CLR 25/18 A3014 RMK AO2 SLP203 T02500178 10289 20250 53002
KIJX 062355Z AUTO 18009KT 10SM CLR 29/23 A2985 RMK AO2 T02870232 10320 20287
KIKK 062355Z AUTO 12003KT 10SM SCT002 24/22 A2989 RMK AO2 60029 T02420220 10309 20216
KIKT 062355Z AUTO VRB05G11KT 10SM FEW027 30/24 A3009 RMK A01
KIKV 062355Z AUTO 35009G15KT 9SM BKN055 22/21 A2990 RMK AO2
KIKW 070012Z AUTO 16007KT 7SM CLR 27/18 A2986 RMK AO2 T02700180
KILE 070015Z AUTO 16015G22KT 10SM CLR 31/21 A2991 RMK AO1
KILG 062351Z 16010KT 10SM FEW110 26/23 A3005 RMK AO2 LTG DSNT NE RAB2256E07 SLP175 P0006 60006 T02610233 10294 20256 58004
KILM 062353Z 22008KT 10SM FEW027 27/22 A3011 RMK AO2 SLP195 T02720217 10322 20272 53010
KILN 062354Z AUTO 17003KT 6SM HZ SCT050 26/18 A3002 RMK AO2 SLP156 T02560183 10278 20256 56008
KIML 062353Z AUTO 02013KT 6SM HZ BKN050 23/11 A3014 RMK AO2 SLP182 T02280106 10244 20206 56005
KIMS 070013Z AUTO 21004KT 10SM CLR 27/20 A3001 RMK AO1
KIMT 070005Z AUTO 34012KT 2SM RA BR BKN009 OVC050 15/14 A2984 RMK AO2 T01500139 TSNO PNO $
KIND 062354Z 20008KT 10SM FEW040 SCT250 27/20 A2995 RMK AO2 SLP135 T02720200 10294 20272 58013
KINF 070015Z AUTO 00000KT 10SM CLR A3016 RMK AO2
KINJ 062355Z AUTO 16014G21KT 7SM CLR 31/20 A2990 RMK AO2 T03100201 10328 20307
KINK 062353Z AUTO 17018G27KT 10SM CLR 33/17 A2985 RMK AO2 PK WND 17027/2349 SLP058 60000 T03330167 10394 20294 58013
KINL 062355Z AUTO 34011KT 10SM OVC050 14/06 A3005 RMK AO2 SLP179 T01440061 10178 20144 53010
KINS 062358Z AUTO 13009KT 10SM SCT110 SCT140 30/11 A3000 RMK AO2 PK WND 06032/2258 DZB21E23RAB23E39 TSB39E51 SLP111 P0000 60000 T03000112 10359 20282 55003 $
KINT 062354Z 00000KT 8SM FEW042 FEW070 BKN100 23/20 A3010 RMK AO2 PK WND 32026/2311 RAB03E30 SLP182 P0011 60011 T02330200 10306 20228 53002
KINW 062356Z AUTO 31018G25KT 10SM BKN090 BKN110 32/10 A3008 RMK AO2 SLP103 T03220100 10333 20289 56017
KIOB 062355Z AUTO 00000KT 10SM CLR 26/20 A3006 RMK AO2
KIOW 062352Z AUTO 34010G18KT 10SM FEW019 BKN038 OVC045 26/22 A2984 RMK AO2 LTG DSNT E AND SE SLP099 60004 T02610222 10283 20233 55001
KIPJ 070015Z AUTO 35003KT 10SM SCT075 27/16 A3007 RMK AO2 T02680164
KIPL 062353Z AUTO 11010KT 10SM CLR 41/10 A2974 RMK AO2 SLP070 T04060100 10417 20344 56025
KIPN 062355Z AUTO 12008KT 10SM CLR 29/23 A3011 RMK A01
KIPT 062354Z 13006KT 10SM CLR 26/20 A3002 RMK AO2 SLP162 60000 T02610200 10283 20256 56009
KIRK 070010Z AUTO 31007KT 2 1/2SM VCTS -RA BR FEW008 BKN024 OVC032 25/23 A2985 RMK AO2 LTG DSNT NE-S TSE09 P0026 T02500233
KIRS 070015Z AUTO 19006KT 7SM CLR 26/20 A2992 RMK AO2
KISM 062350Z 00000KT 10SM -RA OVC100 25/24 A3018 RMK RAB20
KISN 062352Z AUTO 02007KT 10SM FEW049 22/08 A3017 RMK AO2 SLP214 T02220083 10228 20189 58005
KISO 062356Z 17009KT 10SM CLR 28/22 A3008 RMK AO2
KISP 062356Z 15009KT 10SM FEW100 FEW140 BKN260 23/18 A3011 RMK AO2 SLP196 T02330178 10267 20233 58005
KISQ 070015Z AUTO 33013G17KT 7SM BKN005 OVC008 16/15 A2980 RMK AO2 T01590147
KISW 070007Z AUTO 36011KT 10SM OVC012 19/16 A2985 RMK AO2 T01890161
KITH 062356Z 14005KT 10SM FEW025 24/19 A3007 RMK AO2 56007 T02440194 10272 20244 SLP179
KITR 062353Z AUTO 02014G22KT 5SM HZ FEW036 BKN047 22/12 A3016 RMK AO2 SLP166 T02220122 10233 20178 56009
KIWA 062350Z 26003G08 45SM SCT100 SCT200 37/14 A2987 RMK TCU DSNT N-E/ NW
KIWD 070015Z AUTO 30003KT 1SM CLR 13/13 A2990 RMK AO1
KIWI 062353Z AUTO 15004KT 10SM CLR 22/16 A3012 RMK AO2 SLP199 T02170161 10283 20217 56005
KIXA 070015Z AUTO 00000KT 10SM CLR 25/23 A3005 RMK AO2
KIXD 070014Z 34005KT 6SM VCTS BR FEW007 FEW090 BKN110 22/21 A2989 RMK AO2 LTG DSNT E-S P0004 T02170211
KIYA 062355Z AUTO 17006KT 10SM CLR 30/24 A3006 RMK AO2 T02980241 10323 20298
KIZA 062355Z AUTO 28013KT 10SM CLR 25/12 A2997 RMK AO2
KIZG 062354Z AUTO 17004KT 10SM CLR 24/17 A3010 RMK AO2 SLP190 T02440172 10306 20244 55005
KJAC 070015Z AUTO 25003KT 10SM FEW090 SCT110 19/13 A3021 RMK AO1 LTG DSNT NE
KJAN 062354Z 17007KT 10SM FEW046 31/23 A3005 RMK AO2 SLP171 T03060228 10322 20300 58016
KJAS 062355Z AUTO 16006KT 10SM CLR 32/24 A3002 RMK AO2 T03190236
KJAX 062356Z 16012KT 10SM FEW035 SCT060 SCT085 OVC250 26/22 A3012 RMK AO2 SLP199 T02610222 10328 20261 53007 $
KJBR 062353Z AUTO 20012KT 10SM CLR 29/23 A2996 RMK AO2 SLP143 T02890228 10306 20283 56014
KJCT 062351Z AUTO 16015G20KT 10SM CLR 32/18 A2992 RMK AO2 SLP092 T03170183 10333 20311 58018
KJDD 070015Z AUTO 17006KT CLR 31/22 A2992 RMK AO2
KJDN 062348Z AUTO 35004KT 24/07 A3013 RMK AO1 SLP198 T02390067 10244 20194 58015
KJEF 062353Z 17006KT 10SM CLR 29/22 A2987 RMK AO2 SLP099 T02890222 10306 20289 56009
KJER 062353Z AUTO 26004KT 10SM CLR 30/10 A3005 RMK AO2 LTG DSNT NW SLP132 T03000100 10306 20250 58014
KJES 062355Z AUTO 00000KT 10SM SCT080 31/22 A3010 RMK AO2
KJFK 062351Z 13010KT 10SM FEW025 SCT060 SCT140 BKN250 24/18 A3012 RMK AO2 SLP198 T02440178 10283 20244 58006
KJFX 070015Z AUTO 00000KT 8SM CLR 29/23 A3009 RMK A02 P-128
KJFZ 062355Z AUTO 24003KT 10SM CLR 22/19 A3017 RMK AO2 60003 T02200186 10230 20190
KJGG 062355Z AUTO 17007KT 10SM CLR 29/24 A3006 RMK AO1
KJHN 062355Z AUTO 35015KT 10SM OVC031 22/15 A3008 RMK AO2 T02200148 10262 20214
KJHW 070015Z 17003KT 10SM SCT020 SCT025 22/18 A3006 RMK AO1
KJKA 062355Z AUTO 21004KT 10SM CLR 29/21 A3010 RMK AO2 T02900205 10322 20290
KJKJ 070011Z AUTO 35010KT 10SM SCT060 17/09 A3010 RMK AO2
KJKL 062353Z AUTO 00000KT 7SM CLR 25/20 A3008 RMK AO2 SLP171 T02500200 10278 20244 56010
KJLN 062353Z 21010KT 10SM CLR 28/23 A2991 RMK AO2 SLP118 60000 T02830228 10311 20283 53002
KJMR 070015Z AUTO 33013G20KT 310V010 10SM CLR 18/10 A3000 RMK AO2
KJMS 062356Z AUTO 35009G19KT 10SM FEW060 18/09 A3013 RMK AO2 SLP202 T01830094 10200 20178 56002
KJNX 070015Z AUTO 00000KT 10SM SCT080 SCT090 26/23 A3005 RMK AO2
KJOT 062355Z AUTO 15006KT 10SM CLR 26/22 A2985 RMK AO2 60004 T02630215 10304 20227
KJQF 062350Z 24004KT 10SM SCT045 31/17 A3010
KJSO 062355Z AUTO 17009KT 7SM CLR 31/21 A2997 RMK AO2 T03100212
KJST 062354Z AUTO 16008KT 10SM CLR 22/18 A3007 RMK AO2 LTG DSNT S AND SW SLP169 60000 T02170183 10233 20217 56010
KJSV 070015Z AUTO 16006KT 7SM CLR 29/22 A2990 RMK AO2
KJTC 070015Z AUTO 13008KT 6SM -RA FEW029 BKN035 OVC080 19/11 A3027 RMK AO2
KJVL 062345Z 23007KT 10SM BKN016 OVC021 26/23 A2982
KJVW 070015Z AUTO 00000KT 8SM CLR 31/28 A3003 RMK AO2
KJWG 070015Z AUTO 17010G17KT 10SM CLR 31/24 A2983 RMK AO2 T03080235
KJWY 062355Z AUTO 16016G21KT 7SM SCT050 32/21 A2990 RMK AO2 T03150210 10331 20310
KJXI 062355Z AUTO 16008KT 10SM SCT019 SCT026 BKN031 31/21 A2992 RMK AO2 T03080213 10324 20301
KJXN 062356Z 18007KT 8SM CLR 26/19 A2994 RMK AO2 SLP132 T02610189 10283 20261 56014
KJYG 070015Z AUTO 32015G23KT 7SM CLR 22/12 A3001 RMK AO2
KJYL 062355Z AUTO 00000KT 10SM CLR 30/23 A3009 RMK AO2 LTG DSNT SE T02950230 10328 20292
KJYM 070014Z AUTO 18003KT 7SM CLR 27/19 A2995 RMK AO2 T02670191
KJYO 062355Z AUTO 20010KT 10SM CLR 27/23 A3003 RMK AO2 LTG DSNT E AND SE
KJYR 062355Z AUTO 02020G24KT 4SM HZ OVC050 23/17 A3000 RMK AO2
KJZI 070015Z AUTO 20008KT 10SM CLR 27/23 A3011 RMK AO2
KKLS 070015Z 29009G14KT 260V320 10SM CLR A3001 RMK AO1
KL18 070015Z AUTO 22008KT 10SM CLR 23/16 A2998 RMK AO2
KL35 062355Z AUTO 22005KT 10SM CLR 22/11 A3027 RMK AO2
KL38 062355Z AUTO 22004KT 10SM CLR 31/24 A3005 RMK AO2 T03100239 10330 20310
KLAA 062353Z AUTO 01011KT 5SM HZ BKN046 24/14 A3010 RMK AO2 SLP146 60000 T02390139 10244 20206 58013 TSNO
KLAF 062354Z 20006KT 10SM CLR 27/21 A2992 RMK AO2 SLP126 T02720211 10289 20272 56016
KLAL 062353Z 08005KT 10SM FEW120 OVC200 26/23 A3016
KLAM 062355Z AUTO 00000KT 10SM SCT075 SCT080 19/14 A3025 RMK AO2 6//// T01860135
KLAN 062353Z 18010KT 5SM HZ CLR 27/18 A2990 RMK AO2 SLP121 T02670183 10283 20267 57019
KLAR 062353Z AUTO 14016KT 10SM BKN019 OVC025 16/11 A3030 RMK AO2 SLP175 T01560106 10167 20139 58006
KLAS 062356Z 15006KT 10SM SCT100 SCT150 BKN200 36/12 A2987 RMK AO2 LTG DSNT NW SLP084 ACC ALQDS CB DSNT NW T03560117 10367 20328 56017
KLAW 062353Z 17015G23KT 10SM CLR 33/20 A2981 RMK AO2 SLP080 T03280200 10344 20317 56027
KLAX 062353Z 27011KT 10SM OVC012 19/16 A2998 RMK AO2 SLP150 T01940156 10211 20183 57018
KLBB 062353Z 09008KT 10SM -TSRA FEW065CB FEW085 BKN120 BKN300 21/19 A2995 RMK AO2 PK WND 28034/2255 WSHFT 2318 SLP098 CONS LTGIC N-E-S TS N-E-S MOV E SLO P0074 60091 T02110194 10361 20206 53014
KLBE 062359Z 00000KT 10SM SCT150 23/23 A3004
KLBF 062353Z AUTO 02012G21KT 10SM CLR 23/11 A3011 RMK AO2 SLP176 T02280106 10250 20211 55005
KLBL 070015Z AUTO 36018KT 10SM OVC024 23/16 A3006 RMK AO1
KLBT 062354Z AUTO 17007KT 10SM CLR 29/21 A3008 RMK AO2 SLP184 T02890211 10333 20289 53007
KLBX 062353Z AUTO 18009KT 10SM -RA FEW026 30/24 A2999 RMK AO2 SLP156 P0000 60000 T03000244 10322 20300 58019
KLCG 062355Z AUTO 01010G17KT 3SM HZ OVC033 22/16 A3002 RMK AO2 T02220155 10246 20211
KLCH 062356Z 17007KT 10SM SCT028 SCT037 31/24 A3003 RMK AO2 T03060244
KLCI 070015Z AUTO 16005KT 10SM CLR 24/16 A3008 RMK AO1
KLCK 062355Z AUTO 22004KT 10SM CLR 26/18 A3001 RMK AO2 T02610179
KLCQ 062355Z AUTO 00000KT 10SM RA SCT047 SCT065 BKN100 25/21 A3012 RMK AO2 LTG DSNT E
KLDJ 070015Z AUTO 16007KT 10SM CLR 26/20 A3011 RMK AO2 T02600198
KLDM 070015Z AUTO 20014G24KT 7SM CLR 26/20 A2982 RMK AO2 T02580197
KLEB 062353Z 16005KT 9SM CLR 23/17 A3008 RMK AO2 SLP178 T02280172 10294 20228 55007
KLEE 062353Z AUTO 10005KT 10SM CLR 24/21 A3016 RMK AO2 SLP211 60041 T02440211 10328 20233 55001
KLEW 070015Z 17005KT 10SM CLR 22/14 A3011 RMK AO1
KLEX 062354Z 22005KT 8SM CLR 27/21 A3004 RMK AO2 SLP163 T02670206 10294 20267 56009
KLFI 062358Z AUTO 17010KT 10SM CLR 28/23 A3003 RMK AO2 LTG DSNT N SLP176 60000 T02790234 10308 20262 55008
KLFK 062353Z AUTO 17009KT 10SM CLR 32/20 A2998 RMK AO2 SLP146 T03220200 10350 20322 56022
KLFT 062353Z AUTO 19007KT 10SM CLR 31/23 A3005 RMK AO2 SLP175 T03110228 10333 20311 57017
KLGA 062351Z 16009KT 10SM SCT030 SCT065 SCT130 BKN250 25/17 A3010 RMK AO2 SLP192 T02500172 10283 20250 58004
KLGB 062353Z 20007KT 10SM CLR 23/16 A2996 RMK AO2 SLP145 T02330156 10244 20206 58018
KLGC 062355Z AUTO 26005KT 10SM CLR 29/25 A3011 RMK AO2 T02860245 10310 20282
KLGD 070015Z AUTO 33010KT 10SM CLR 34/05 A2996 RMK AO1
KLGU 062351Z AUTO 36006KT 10SM CLR 24/12 A3009 RMK AO2 SLP142 60007 T02440122 10300 20189 58008 TSNO
KLHB 070015Z AUTO 15012G20KT 10SM CLR 31/22 A2993 RMK AO2 T03050222
KLHM 062355Z AUTO 25004KT 10SM CLR 33/12 A2990 RMK AO1
KLHQ 062353Z AUTO 00000KT 9SM CLR 26/18 A3002 RMK AO2 SLP158 T02560178 10289 20256 58003
KLHW 062358Z AUTO 11004KT 10SM FEW055 26/22 A3009 RMK AO2 LTG DSNT NE AND SW SLP192 60000 T02600217 10320 20260 $
KLHX 062353Z AUTO 02007KT 10SM FEW032 OVC046 22/14 A3017 RMK AO2 SLP166 60000 T02220144 10233 20200 58004
KLHZ 062355Z AUTO 00000KT 10SM CLR 26/22 A3009 RMK AO2
KLIC 062355Z AUTO 01010KT 6SM HZ OVC041 18/12 A3025 RMK AO2 SLP183 T01830117 10189 20156 58005
KLIT 062353Z COR 19008KT 10SM BKN250 31/22 A2995 RMK AO2 SLP140 CB TOP DSNT NE T03060222 10322 20300 58020
KLJF 070013Z AUTO 33014G18KT 10SM CLR 20/09 A3002 RMK AO2
KLKR 070015Z AUTO 19004KT 5SM HZ SCT060 28/21 A3007 RMK AO2
KLKU 062355Z AUTO 18003KT 10SM CLR 25/22 A3003 RMK AO2
KLKV 070015Z AUTO 14006KT 10SM CLR 31/07 A3008 RMK AO1
KLLJ 070017Z AUTO 32007KT 4SM RA FEW080 OVC095 19/12 A3011 RMK AO2 RAE2359B03 P0004 T01940122
KLLQ 062353Z AUTO 19005KT 10SM CLR 31/25 A2998 RMK AO2 SLP148 T03060250 10322 20294 58022
KLMO 070015Z AUTO 25003KT 4SM BR SCT018 BKN031 OVC037 17/16 A3027 RMK AO2 T01720156
KLMT 062353Z 32006KT 10SM CLR 32/06 A3006 RMK AO2 SLP134 T03170061 10322 20256 58019
KLNC 062355Z AUTO 17011G19KT 7SM SCT050 31/20 A2990 RMK AO2 T03110197 10328 20308
KLND 062353Z AUTO 30004KT 5SM -RA BKN038 OVC085 16/13 A3022 RMK AO2 LTG DSNT S RAB2256 SLP190 P0002 60002 T01610133 10194 20139 55005
KLNK 062354Z 01016KT 4SM HZ SCT043 OVC050 23/18 A2996 RMK AO2 PK WND 36028/2333 SLP136 60022 T02280178 10239 20222 50009
KLNL 062355Z AUTO 01007KT 2 1/2SM BR BKN009 BKN043 OVC060 15/13 A2991 RMK AO2 P0002 60013 T01450132 10211 20139
KLNN 062355Z AUTO 00000KT 10SM CLR 25/15 A2997 RMK AO1 T02470149 10258 20245
KLNP 062355Z AUTO 18003KT 10SM CLR 23/17 A3017 RMK AO2
KLNR 070016Z AUTO 28008KT 1/2SM +RA FG SCT010 BKN027 OVC090 23/22 A2982 RMK AO2 P0024 T02330217
KLNS 070000Z 13006KT 10SM SCT026 SCT031 26/22 A3004 RMK AO2 T02560222
KLOL 062353Z AUTO VRB04KT 10SM CLR 33/07 A3000 RMK AO2 LTG DSNT W SLP117 T03330072 10339 20261 56025
KLOM 062355Z AUTO 00000KT 10SM CLR 27/22 A3006 RMK AO1
KLOR 062353Z AUTO 36003KT 10SM CLR 30/22 A3009 RMK AO2 SLP186 T03000217 10322 20300 56010
KLOT 062355Z AUTO 17008KT 10SM CLR 26/20 A2985 RMK AO2 60062 T02550195 10299 20209
KLOU 062353Z 19008KT 10SM SCT040 BKN049 BKN060 29/21 A2999 RMK AO2 SLP151 T02890206 10300 20289 57012
KLOZ 062353Z AUTO 24004KT 10SM CLR 28/18 A3007 RMK AO2 SLP171 T02780178 10294 20261 57010
KLPC 070015Z AUTO 29012G16KT 10SM FEW020 21/13 A3002 RMK AO1
KLPR 062353Z AUTO 00000KT 9SM FEW044 26/18 A2999 RMK AO2 SLP149 T02610183 10289 20261 58008 TSNO
KLRD 062356Z 13021G25KT 10SM SCT060 36/20 A2988 RMK AO2 56015 T03550200 10372 20338 SLP104
KLRF 062358Z AUTO 18006KT 10SM CLR 30/23 A2995 RMK AO2 SLP142 60000 T02990234 10318 20292
KLRJ 062355Z AUTO 01013G20KT 3SM HZ CLR 22/15 A3003 RMK AO2
KLRO 070015Z AUTO 18005KT 8SM -RA CLR 27/23 A3010 RMK AO2
KLRU 062355Z AUTO 32008KT 10SM SCT100 34/09 A2997 RMK AO2 T03410089 10346 20291
KLSB 062355Z AUTO 27010G23KT 10SM SCT085 33/11 A3000 RMK AO2
KLSE 062353Z 35011KT 7SM BKN026 20/16 A2987 RMK AO2 SLP108 60038 T02000156 10256 20194 51016
KLSF 062358Z AUTO VRB02KT 10SM CLR 28/23 A3009 RMK AO2 SLP190 T02750229 10302 20256
KLSV 062358Z AUTO 19004KT 10SM CLR 37/11 A2987 RMK AO2 SLP087 T03710110 10373 20316 57019 $
KLTS 062358Z 16018KT 10SM CLR 32/22 A2979 RMK AO2A PK WND 15027/56 SLP071 T03230224 10352 20323 $
KLUA 062355Z AUTO 23003KT 10SM SCT080 26/22 A3003 RMK AO2
KLUD 062355Z AUTO 17013KT 7SM CLR 32/18 A2987 RMK AO2 T03180181 10335 20306
KLUF 062358Z AUTO VRB04KT 10SM CLR 39/15 A2978 RMK AO2 LTG DSNT NW SLP069 57030
KLUK 062353Z 17005KT 8SM FEW045 27/21 A3000 RMK AO2 SLP154 T02670206 10294 20267 56008
KLUM 062355Z AUTO 33009KT 4SM HZ CLR 19/14 A2993 RMK AO2 60011 T01940137 10237 20171
KLUX 070015Z AUTO 19003KT 10SM CLR 27/24 A3007 RMK AO2
KLVJ 062353Z AUTO 16007KT 9SM FEW033 31/23 A3001 RMK AO2 SLP160 T03060233 10328 20306 58019
KLVK 062353Z 26011KT 10SM CLR 27/12 A2999 RMK AO2 SLP151 T02670122 10289 20233 58014
KLVM 062353Z AUTO 08012KT 10SM CLR 25/09 A3011 RMK AO2 SLP160 T02500094 10256 20167 56020
KLVN 070009Z AUTO 35006KT 4SM HZ SCT042 SCT055 21/14 A2995 RMK AO2
KLVS 062353Z AUTO 05011KT 10SM SCT005 SCT060 BKN090 16/14 A3025 RMK AO2 RAE2259B29E39 SLP154 P0000 60088 T01560139 10228 20150 58013
KLWA 070015Z AUTO 18007KT 10SM CLR 27/20 A2986 RMK AO2 T02720197
KLWB 062355Z AUTO 24004KT 10SM OVC080 23/17 A3014 RMK AO2 T02310174 10259 20226
KLWC 062352Z AUTO 12005KT 5SM RA BR FEW049 SCT075 BKN090 22/22 A2986 RMK AO2 LTG DSNT NE AND S AND SW TSE05B10E25B27E42 PRESFR SLP106 P0025 60183 T02220217 10339 20211 50010
KLWD 062353Z AUTO 34008KT 5SM -RA BR BKN020 OVC043 23/22 A2988 RMK AO2 SLP111 P0011 60115 T02280217 10278 20228 53004
KLWM 062354Z 12003KT 10SM CLR 24/18 A3011 RMK AO2 SLP196 T02440178 10300 20244 58003
KLWS 062356Z AUTO VRB05KT 10SM CLR 37/03 A2988 RMK AO2 SLP104 T03670028 10372 20294 58021
KLWT 062354Z AUTO 09005KT 10SM CLR 22/08 A3014 RMK AO2 SLP182 T02220078 10233 20167 57015
KLWV 062353Z AUTO 18008KT 10SM FEW028 28/23 A2994 RMK AO2 SLP135 T02830233 10300 20283 56016
KLXL 070015Z AUTO 33011G23KT 10SM SCT042 BKN050 16/06 A3004 RMK AO2
KLXN 062355Z AUTO 02011G15KT 5SM HZ CLR 24/12 A3007 RMK AO2 60002 T02410124 10255 20217
KLXT 070010Z AUTO 09004KT 6SM VCTS RA BR BKN015 BKN070 OVC095 22/21 A2990 RMK AO2 LTG DSNT ALQDS TSE10 P0004 T02220206
KLXV 062353Z AUTO 25006KT 10SM FEW120 13/06 A3042 RMK AO2 RAE28 SLP148 P0000 60001 T01330056 10172 20106 58010
KLXY 062355Z AUTO 14016G29KT 10SM CLR 30/22 A2991 RMK AO2 T03000224 10323 20300
KLYH 070013Z 27007G19KT 1 3/4SM +RA BR SCT038 BKN049 21/19 A3010 RMK AO2 RAB05 P0003 T02110194
KLYV 062345Z AUTO 01009G17KT 5SM SCT037 22/13 A3004 RMK AO2
KLZU 062345Z 22005KT 10SM SCT040 27/18 A3009 RMK ATIS U , RWY 25 ; YA
KLZZ 062355Z AUTO 15013G24KT 10SM SCT050 33/22 A2992 RMK AO2 T03260217 10340 20326
KM19 070016Z AUTO 23011KT 2SM +RA BR FEW016 SCT030 BKN041 26/24 A2999 RMK AO2 VIS 1 1/4V5 LTG DSNT S AND SW TSE2358B00E16RAB2359 P0012 PRESRR
KM25 070015Z AUTO 19006KT 10SM SCT070 28/23 A2999 RMK AO2 PWINO
KM40 070015Z AUTO 00000KT 6SM HZ CLR 31/22 A3006 RMK AO2
KM63 062357Z AUTO 22015G21KT 10SM FEW090 34/08 A2992 RMK AO2 WSHFT 53
KM91 070015Z AUTO 23005KT 10SM CLR 28/26 A3002 RMK
KMAE 062353Z AUTO 31012KT 10SM CLR 33/12 A2990 RMK AO2 SLP123 T03330122 10339 20278 58022
KMAF 062353Z AUTO 19016KT 10SM CLR 28/19 A2990 RMK AO2 SLP078 60001 T02830194 10361 20250 56012
KMAI 062353Z AUTO 21003KT 10SM CLR 29/22 A3009 RMK AO2 SLP188 T02940217 10317 20294 56010
KMAN 062355Z AUTO 23006KT 10SM CLR 33/09 A2995 RMK AO1
KMAO 070015Z AUTO 16006KT 10SM CLR 27/20 A3009 RMK AO2
KMBG 062352Z AUTO 36010KT 5SM HZ SCT050 SCT100 23/11 A3011 RMK AO2 SLP188 T02280111 10250 20222 57005
KMBL 070015Z AUTO 21010G14KT 10SM CLR A2981 RMK AO1
KMBS 062353Z 18012KT 8SM CLR 28/18 A2989 RMK AO2 SLP117 T02780178 10300 20278 56018
KMCB 062353Z AUTO 18003KT 10SM CLR 30/24 A3007 RMK AO2 SLP176 T03000239 10317 20294 58018
KMCC 062130Z AUTO 21004KT 10SM CLR 30/13 A2997 RMK AO2
KMCD 070016Z AUTO 31006G17KT 7SM SCT032 SCT046 BKN049 23/17 A2980 RMK AO2 T02270170
KMCE 062353Z AUTO 33016G23KT 10SM CLR 32/12 A2991 RMK AO2 SLP126 T03220117 10328 20256 56021
KMCF 062358Z AUTO 04002KT 10SM CLR 29/25 A3013 RMK AO2 SLP206 60002 T02930249 10332 20262
KMCI 070001Z 05008KT 1 1/2SM TSRA BR BKN060CB BKN080 OVC120 23/22 A2988 RMK AO2 SFC VIS 5 P0001 T02280222
KMCJ 070015Z AUTO 15011G18KT 040V030 7SM SCT028 SCT038 30/23 A2995 RMK AO1
KMCK 062353Z AUTO 03018KT 2SM HZ CLR 24/12 A3007 RMK AO2 SLP162 T02440117 10261 20211 56005
KMCN 062353Z AUTO 15003KT 10SM BKN043 28/23 A3008 RMK AO2 SLP181 60002 T02780228 10300 20261 56008 TSNO
KMCO 062353Z 12006KT 10SM FEW008 SCT045 BKN130 OVC200 24/23 A3017 RMK AO2 SLP214 TSE30 OCNL LTGICCC DSNT E-S CB DSNT E-S MOV E 60000 T02440228 10344 20239 51022
KMCW 062353Z AUTO 01011KT 2 1/2SM HZ OVC036 21/15 A2996 RMK AO2 SLP134 60000 T02110150 10278 20211 52017
KMCX 070015Z AUTO 19006KT 10SM CLR 27/23 A2991 RMK AO2 T02720225
KMDD 062355Z AUTO 17013G17KT 10SM -DZ CLR 28/19 A2992 RMK AO2 LTG DSNT N THRU E T02810191 10371 20255
KMDH 062352Z AUTO 20010KT 10SM FEW026 28/23 A2995 RMK AO2 SLP137 T02830233 10294 20278 55015
KMDJ 062355Z AUTO 15009KT 10SM FEW024 FEW029 30/25 A3012 RMK A01
KMDQ 070015Z AUTO 21005KT 10SM CLR 27/19 A3008 RMK AO2
KMDS 070010Z AUTO 36015G20KT 10SM CLR 19/12 A3008 RMK AO2
KMDT 062356Z 17008KT 10SM -RA BKN080 BKN100 OVC250 25/21 A3002 RMK AO2 RAB44 SLP165 P0000 60002 T02500211 10289 20244 56007
KMDW 062353Z 17011KT 10SM FEW040 SCT150 SCT200 BKN250 28/21 A2984 RMK AO2 SLP093 CB DSNT NW 60019 T02830211 10311 20239 56024
KMDZ 062355Z AUTO 36011G19KT 4SM HZ SCT018 BKN037 BKN044 16/13 A2990 RMK AO2 60039 T01620133 10220 20157
KMEB 062352Z AUTO 20004KT 3SM HZ CLR 29/19 A3008 RMK AO2 SLP183 T02940194 10328 20294 53005
KMEH 062356Z AUTO VRB03KT 10SM CLR 31/04 A3006 RMK AO2 SLP154 T03110039 10322 20283 57010
KMEI 062358Z 17005KT 10SM CLR 29/23 A3008 RMK AO2 SLP181 T02890228 10311 20289 56015
KMEM 062354Z 18011KT 10SM FEW031 BKN250 29/23 A3000 RMK AO2 SLP154 T02890228 10306 20283 58017
KMER 062355Z 32018KT 7SM SKC 34/11 A2992
KMEV 070015Z AUTO 15007KT 10SM TS FEW046 BKN120 17/14 A3016 RMK AO2 LTG DSNT ALQDS
KMEZ 070015Z AUTO 00000KT 7SM CLR 30/22 A2998 RMK AO2
KMFD 062352Z 21006KT 10SM CLR 26/17 A3001 RMK AO2 SLP155 T02560167 10289 20256 58007
KMFE 062353Z 14020G29KT 9SM FEW037 33/23 A2991 RMK AO2 PK WND 14029/2349 SLP126 T03280233 10356 20328 56013
KMFR 062353Z 35011KT 10SM CLR 38/09 A2987 RMK AO2 SLP099 T03830089 10383 20300 58021
KMFV 062355Z AUTO 18005KT 10SM CLR 25/23 A3006 RMK AO2 LTG DSNT W AND NW
KMGC 062355Z AUTO 18005KT 10SM SCT026 SCT034 SCT040 23/20 A2989 RMK AO2
KMGE 062358Z AUTO VRB03KT 10SM CLR 27/22 A3011 RMK AO2 SLP187 T02740216 10301 20274 $
KMGG 070017Z AUTO 33011KT 10SM SCT049 20/12 A3000 RMK AO2 T02020115
KMGJ 062354Z AUTO 15005KT 10SM CLR 25/19 A3010 RMK AO2 SLP189 T02500189 10283 20250 56005 TSNO
KMGM 062353Z 24003KT 10SM CLR 29/22 A3010 RMK AO2 SLP189 T02940222 10317 20289 56011
KMGN 070015Z AUTO 20004KT 7SM BKN048 BKN055 OVC100 26/17 A2979 RMK AO2 T02610176
KMGR 062355Z AUTO 00000KT 10SM CLR 29/21 A3011 RMK AO2
KMGW 062353Z 20003KT 10SM FEW065 SCT090 25/20 A3005 RMK AO2 SLP165 60012 T02500200 10278 20233 57001
KMGY 062353Z AUTO 23005KT 7SM CLR 27/18 A3000 RMK AO2 SLP152 T02720183 10283 20267 56008
KMHE 062353Z AUTO 36010KT 5SM HZ CLR 22/12 A3007 RMK AO2 SLP177 T02220122 10244 20222 50001 PWINO
KMHK 070014Z 01007KT 10SM BKN017 OVC024 23/22 A2991 RMK AO2 RAE03 P0000 T02280217
KMHR 062345Z 22004KT 10SM FEW070 SCT200 33/13 A2991 RMK PRESFR
KMHS 062356Z AUTO 00000KT 10SM CLR 31/09 A3005 RMK AO2 SLP158 T03110089 10328 20278 58015
KMHT 062353Z 17006KT 10SM SCT250 27/14 A3008 RMK AO2 SLP194 T02720144 10300 20272 56005
KMHV 070015Z AUTO 21013G26KT 10SM FEW120 35/00 A2996 RMK AO1
KMIA 062353Z 10009KT 10SM FEW140 BKN250 29/22 A3011 RMK AO2 SLP197 T02940222 10328 20294 55006
KMIB 062358Z AUTO 01007KT 10SM CLR 21/08 A3015 RMK AO2 SLP215 T02050079 10207 20165 58002 $
KMIC 062353Z 33009KT 5SM HZ FEW048 23/13 A2993 RMK AO2 SLP132 60001 T02330128 10233 20183 56001
KMIE 062353Z 20008KT 7SM CLR 28/19 A2997 RMK AO2 SLP139 T02780189 10300 20278 56009
KMIS 062355Z AUTO VRB03KT 9SM CLR 34/25 A3011 RMK A01
KMIV 062354Z AUTO 12007KT 9SM CLR 26/23 A3007 RMK AO2 RAE10 SLP182 P0000 60000 T02560228 10300 20256 58000
KMIW 062353Z AUTO 35016G23KT 9SM SCT024 BKN029 OVC044 22/18 A2989 RMK AO2 RAB06E22 SLP118 P0001 60013 T02170178 10244 20217 53012
KMJQ 070014Z AUTO 34014G23KT 7SM SCT047 21/14 A3003 RMK AO2
KMJX 070015Z AUTO 12005KT 10SM OVC010 24/21 A3011 RMK AO1
KMKC 062354Z 00000KT 6SM BR FEW022 BKN027 OVC038 22/22 A2987 RMK AO2 WSHFT 2251 LTG DSNT ALQDS RAEMM TSE39 SLP107 P0039 60197 T02220222 10328 20222 50029 $
KMKE 062352Z 21009KT 10SM SCT048 BKN120 25/20 A2982 RMK AO2 SLP094 60006 T02500200 10294 20239 58007
KMKG 062355Z 19012KT 7SM BKN150 BKN200 BKN250 28/19 A2985 RMK AO2 SLP103 T02780194 10300 20272 56020
KMKJ 062355Z AUTO 26004KT 10SM BKN100 23/18 A3019 RMK AO2 T02270184 10251 20212
KMKL 062353Z 19006KT 10SM FEW026 28/23 A3001 RMK AO2 SLP155 T02830233 10311 20278 58015
KMKN 070015Z AUTO 17016G26KT 10SM CLR 31/18 A2988 RMK AO2 T03110181
KMKO 062353Z AUTO 17009G18KT 10SM CLR 29/23 A2989 RMK AO2 SLP111 T02940228 10306 20283 56021
KMKS 062355Z AUTO 00000KT 10SM CLR 29/21 A3008 RMK AO2 LTG DSNT SW
KMKT 070015Z 34009KT 4SM BKN055 21/13 A2998 RMK AO1
KMKY 070015Z AUTO 00000KT 10SM CLR 23/20 A3013 RMK AO1 LTG DSNT W TSE2356B2357E12
KMLB 062353Z 26012G21KT 3SM +TSRA BR FEW035 OVC048 23/22 A3022 RMK AO2 PK WND 29029/2335 WSHFT 2317 LTG DSNT S-W RAB34 TSB34 SLP231 TS OHD MOV E OCNL LTG ICCCCG P0001 60001 T02280217 10311 20228 53033
KMLC 062353Z AUTO 18007KT 140V200 10SM FEW100 30/22 A2990 RMK AO2 SLP114 T03000222 10306 20289 55022
KMLE 062355Z AUTO 02003KT 7SM SCT032 SCT041 OVC050 23/18 A2994 RMK AO2 P0001 60005 T02340182 10243 20227
KMLF 062352Z AUTO 21015KT 10SM -RA BKN100 23/10 A3016 RMK AO2 WSHFT 2258 RAB51 TSE05 SLP153 P0000 60000 T02280100 10283 20228 51007
KMLI 070016Z 00000KT 2SM VCTS +RA BR FEW007 BKN021 OVC039 22/21 A2987 RMK AO2 LTG DSNT ALQDS TSE16 P0034 T02170206 $
KMLJ 062355Z AUTO 00000KT 10SM CLR 28/21 A3008 RMK AO2
KMLP 062353Z AUTO VRB04KT 10SM FEW085 23/02 A3021 RMK AO2 SLP140 T02280017 10244 20156 58009
KMLS 062353Z AUTO 00000KT 10SM FEW065 BKN085 23/08 A3014 RMK AO2 SLP197 T02280078 10250 20189 58013
KMLT 062353Z AUTO 00000KT 10SM CLR 24/17 A3008 RMK AO2 SLP190 T02390167 10294 20239 55007
KMLU 062353Z 16004KT 10SM CLR 31/24 A3000 RMK AO2 SLP157 T03060244 10333 20306 58023
KMMH 070015Z AUTO 22011G14KT 10SM -RA SCT075 BKN090 17/09 A3029 RMK AO1
KMMK 062353Z AUTO 17005KT 10SM BKN100 25/18 A3011 RMK AO2 SLP195 T02500178 10289 20244 56005 TSNO $
KMML 070015Z AUTO 01010G18KT 10SM CLR 19/09 A3005 RMK AO1
KMMT 062358Z AUTO 15004KT 10SM CLR 29/22 A3008 RMK AO2 SLP186 T02900224 10315 20290
KMMU 062345Z 00000KT 10SM BKN120 25/22 A3011
KMMV 062353Z AUTO 24012KT 10SM CLR 31/13 A2995 RMK AO2 SLP141 T03110128 10322 20233 56011
KMNE 062355Z AUTO 15004KT 10SM SCT044 SCT050 31/23 A2997 RMK AO2 T03100230 10335 20310
KMNH 070014Z AUTO 7SM SCT004 BKN008 OVC014 12/11 A3034 RMK AO2
KMNI 070015Z AUTO 14003KT 10SM CLR 27/21 A3008 RMK AO2
KMNM 070015Z AUTO 15007KT 1 3/4SM SCT025 SCT047 OVC060 21/18 A2974 RMK AO1 P0008
KMNN 062353Z AUTO 22006KT 8SM CLR 26/16 A3000 RMK AO2 SLP154 T02610156 10283 20256 56009 TSNO
KMNZ 062355Z AUTO 17018G26KT 10SM CLR 31/18 A2992 RMK AO2 T03120181 10332 20312
KMOB 062356Z 18010KT 10SM FEW045 SCT250 29/24 A3010 RMK AO2 SLP189 T02890239 10322 20289 58015
KMOD 062353Z 29015KT 10SM CLR 33/11 A2991 RMK AO2 SLP128 T03280111 10339 20256 56020
KMOP 070016Z AUTO 17005KT 7SM CLR 27/18 A2986 RMK AO2 T02670181
KMOR 062355Z AUTO 20003KT 10SM CLR 27/20 A3010 RMK
KMOT 062354Z 34010KT 10SM FU FEW050 19/07 A3016 RMK AO2 SLP214 T01940072 10200 20156 58002
KMOX 070014Z AUTO 34010G25KT 10SM SCT048 18/09 A3006 RMK AO2
KMPO 062353Z AUTO 14007KT 10SM BKN095 BKN110 22/18 A3014 RMK AO2 SLP197 60000 T02170178 10261 20217 58007
KMPV 062351Z AUTO 21003KT 10SM CLR 22/13 A3013 RMK AO2 SLP202 T02220133 10272 20222 55005
KMPZ 062355Z AUTO 24009KT 7SM RA SCT015 BKN041 OVC055 23/21 A2987 RMK AO2 P0057 60057 T02280205 10311 20227
KMQB 070015Z AUTO 20006KT 10SM VCTS CLR 28/24 A2986 RMK AO2 LTG DSNT W THRU N T02750235
KMQE 062354Z AUTO 18008KT 24/18 A3012 RMK AO1 SLP207 T02440178 10289 20244 56001
KMQI 070015Z AUTO 20015G19KT 10SM BKN017 27/24 A3009 RMK AO2 T02700238
KMQJ 070016Z AUTO 19006KT 7SM CLR 26/17 A2997 RMK AO1
KMQS 070015Z AUTO 11004KT 10SM CLR 24/23 A3007 RMK AO2
KMQY 062356Z VRB04KT 10SM CLR 30/22 A3005 RMK AO2 58014 T03000222 10316 20288 SLP179
KMRB 062353Z 12003KT 10SM FEW034 26/21 A3002 RMK AO2 SLP161 T02560206 10289 20256 56008
KMRC 070015Z AUTO 19005KT 10SM CLR 28/24 A3003 RMK
KMRF 070015Z AUTO 12008KT 10SM CLR A3008 RMK AO1 LTG DSNT SW
KMRH 062358Z AUTO 20015KT 10SM CLR 27/23 A3011 RMK AO2 SLP196 T02670233 10294 20267 53001 TSNO
KMRJ 062355Z AUTO 21006KT 10SM BKN070 BKN085 25/22 A2982 RMK AO2
KMRN 062355Z AUTO 00000KT 10SM SCT070 28/18 A3014 RMK AO2 T02760181 10314 20276
KMRT 070014Z AUTO 22004KT 10SM CLR 24/19 A3001 RMK AO2 T02440192
KMRY 062354Z 28009KT 10SM CLR 21/13 A3005 RMK AO2 SLP185 T02110128 10217 20178 58013
KMSL 062353Z AUTO 22010KT 10SM CLR 29/22 A3007 RMK AO2 SLP177 T02940217 10317 20289 56010
KMSN 062353Z 19006KT 10SM SCT021 BKN080 BKN130 26/21 A2980 RMK AO2 SLP086 60000 T02560211 10267 20233 58013
KMSO 062353Z 02010KT 10SM CLR 29/M03 A3005 RMK AO2 SLP158 T02891033 10289 20211 58011
KMSP 062353Z 33012KT 5SM FU FEW050 BKN060 22/13 A2995 RMK AO2 SLP137 60000 T02170128 10228 20178 51003
KMSS 062353Z AUTO 00000KT 7SM CLR 24/18 A3002 RMK AO2 SLP163 T02440178 10289 20244 56008
KMSV 070015Z AUTO 13006KT 10SM CLR 22/19 A3014 RMK AO1
KMSY 062353Z 19010KT 10SM FEW035 SCT200 SCT250 31/23 A3006 RMK AO2 SLP184 TCU DSNT E T03110228 10333 20311 58015
KMTC 062355Z 17008KT 10SM BKN250 25/18 A2992 RMK SLP139 T02470181 10278 20247 56015
KMTH 062353Z AUTO VRB05KT 10SM CLR 30/22 A3009 RMK AO2 SLP190 T03000217 10339 20294 58009
KMTJ 062353Z AUTO 29010KT 10SM CLR 29/07 A3012 RMK AO2 SLP119 T02890072 10294 20244 56020
KMTN 062345Z 14005KT 10SM SCT050 28/25 A3004
KMTO 062353Z AUTO 18005KT 10SM SCT100 24/21 A2992 RMK AO2 RAE01 SLP126 P0000 60004 T02390206 10294 20228 56017 TSNO
KMTP 062354Z AUTO VRB03KT 22/19 A3015 RMK AO1 SLP208 T02220189 10267 20222 58008
KMTV 062355Z AUTO 00000KT 10SM CLR 25/20 A3011 RMK AO2 T02490204 10300 20249
KMTW 062356Z AUTO 10SM BKN100 24/21 A2979 RMK AO2 SLP099 6//// T02440211 10244 20206 56012 PNO $
KMUI 062358Z AUTO 00000KT 10SM FEW090 26/21 A3004 RMK AO2 SLP172 T02620210 10283 20262 55008 $
KMUO 062358Z 27010KT 10SM FEW090 BKN190 33/09 A2997 RMK AO2A SLP120 T03250091 10336 20277 58014
KMUT 062355Z AUTO 25007KT 5SM -RA SCT003 BKN013 OVC029 23/21 A2985 RMK AO2 P0171
KMVL 062354Z AUTO 20003KT 10SM CLR 24/13 A3008 RMK AO2 SLP185 T02440133 10289 20244 56005 TSNO
KMVN 070015Z AUTO 18008KT 10SM FEW026 28/22 A2995 RMK AO1
KMVY 062353Z 22004KT 10SM CLR 21/17 A3015 RMK AO2 SLP208 T02060172 10261 20206 56003
KMWA 062355Z AUTO 19009KT 10SM SCT023 SCT029 28/24 A2996 RMK AO2
KMWC 062245Z AUTO 20008KT 10SM SCT110 26/18 A2983
KMWH 062352Z 24007KT 10SM CLR 36/07 A2987 RMK AO2 SLP106 T03610067 10367 20300 58019
KMWK 062355Z AUTO 36005KT 10SM CLR 25/20 A3012 RMK AO2 T02500197 10290 20250
KMWL 062353Z AUTO 17011G21KT 10SM CLR 32/19 A2985 RMK AO2 PK WND 16026/2322 SLP092 T03170189 10339 20317 56027
KMWM 070014Z AUTO 33014G22KT 7SM CLR 20/12 A3003 RMK AO2
KMWN 062352Z 20016KT 25SM FEW/// FEW010 BKN180 BKN200 11/10
KMWO 061855Z AUTO 10SM RMK AO2
KMWT 062353Z AUTO 00000KT 10SM CLR 29/22 A2993 RMK AO2 SLP121 60003 T02940222 10300 20261 56027
KMXF 062358Z AUTO 29002KT 10SM CLR 29/23 A3009 RMK AO2 SLP191 T02900226 10307 20280
KMXO 062355Z AUTO 29009G14KT 10SM FEW023 BKN080 OVC090 25/23 A2983 RMK AO2
KMYF 062353Z 30008KT 10SM OVC016 21/16 A2999 RMK AO2 SLP151 T02110156 10222 20194 58014
KMYL 062351Z AUTO 25011G17KT 10SM CLR 29/03 A3010 RMK AO2 SLP144 T02890033 10300 20256 58008
KMYP 070006Z AUTO 06013KT M1/4SM FG OVC001 08/07 A3067 RMK AO2
KMYR 062345Z 20011KT 10SM FEW030 SCT120 28/22 A3012
KMYV 062353Z AUTO 20004KT 10SM CLR 34/14 A2989 RMK AO2 SLP124 T03390144 10339 20239 58027
KMYZ 062355Z AUTO 02015G26KT 10SM OVC013 22/21 A2991 RMK AO2 LTG DSNT SE
KMZG 062355Z AUTO 14015G21KT 10SM CLR 29/26 A2997 RMK A01
KMZH 070014Z AUTO 00000KT 10SM BKN050 BKN085 17/08 A2996 RMK AO2
KMZZ 062355Z AUTO 20006KT 7SM CLR 26/19 A2996 RMK AO2 T02620186 10284 20113
KN03 070015Z AUTO 00000KT 10SM CLR 24/19 A3008 RMK AO2
KN38 070015Z AUTO 18003KT 8SM BKN021 BKN026 22/20 A3011 RMK AO2
KN60 062352Z AUTO 35008KT 20/09 A3016 RMK AO1 SLP214 T02000089 10200 20161 58001
KNAK 062354Z AUTO 17008KT 10SM CLR 27/22 A3002 RMK AO2 SLP166 60000 T02720222 10294 20267 56007
KNBC 070009Z AUTO 17007KT 10SM CLR 27/23 A3011 RMK AO2 TSE03 T02670233
KNBG 062355Z 18008KT 10SM SCT035 SCT150 BKN250 30/24 A3007 RMK AO2 SLP182 T03000244 10322 20300 58013 PNO $
KNBT 062356Z AUTO 20011KT 10SM CLR A3010 RMK AO2 SLP199 6//// 54000 PNO $
KNCA 062356Z AUTO 19010KT 10SM CLR 26/22 A3010 RMK AO2 SLP193 T02610222 10311 20261 51005
KNDZ 062356Z COR 00000KT 10SM SCT040 SCT250 32/22 A3010 RMK AO2 SLP176 T03170222 10333 20311 56012 $
KNEL 070000Z AUTO 10SM OVC010 24/21 A3010 RMK AO2 SLP190 T02390211 10283 20239 58002 PWINO $
KNEW 062353Z AUTO 18012KT 10SM BKN034 BKN041 32/24 A3007 RMK AO2 SLP177 T03220239 10333 20322 58015 TSNO
KNFE 062356Z AUTO 17007KT 10SM CLR 28/23 A3006 RMK AO2 SLP181 60027 T02830228 10311 20250 56009
KNFG 062354Z AUTO 24008G14KT 8SM CLR 22/16 A2996 RMK AO2 SLP146 T02220156 10239 20211 58016
KNFL 062356Z VRB05KT 10SM SCT060 SCT150 BKN220 34/03 A3001 RMK AO2 SLP133 CB DSNT SE-SW-W T03390028 10356 20278 56019
KNFW 062352Z 17021G31KT 10SM SCT060 33/19 A2987 RMK AO2 PK WND 16031/2344 SLP098 T03280194 10344 20328 58028 $
KNGP 062356Z 14015G23KT 6SM HZ FEW016 SCT024 BKN250 29/26 A2995 RMK AO2 PK WND 14026/2307 SLP142 T02940261 10311 20289 56016
KNGU 062359Z VRB06KT 10SM SCT030 BKN280 27/22 A3006 RMK AO2 SLP180 T2 SET 60005 T02720222 10289 20239 56008
KNHK 070012Z 22009G23KT 2 1/2SM -TSRA BR BKN020CB OVC045 23/21 A3006 RMK AO2 PK WND 21026/0001 WSHFT 2354 RAB2359 OCNL LGTIC OHD TS OHD MOV NE T1 SET P0004 T02280211 $
KNID 062356Z 20014KT 10SM SCT100 SCT280 39/02 A2987 RMK AO2 SLP088 T03890022 10400 20339 58022
KNIP 062353Z 18013KT 10SM -TSRA SCT020 BKN045CB OVC100 28/21 A3015 RMK AO2 RAB47 TSE11B29 SLP204 OCNL LTGICCG VC SW-W TS SW-W MOV NE T1 SET P0000 6//// T02780206 10339 20272 53014 $
KNJK 062356Z 09010G14KT 10SM FEW080 FEW150 SCT250 41/09 A2976 RMK AO2 SLP092 CB DSNT N AND W TCU DSNT S T04110094 10417 20339 56026 $
KNKT 062354Z 21011KT 10SM SCT021 27/22 A3012 RMK AO2 SLP195 T02720222 10317 20272 53006 $
KNKX 062355Z 28007KT 10SM SCT014 BKN019 22/15 A2999 RMK AO2 SLP148 T02170150 10239 20217 58013 $
KNLC 062356Z 35016G22KT 10SM FEW070 FEW100 FEW150 34/13 A2989 RMK AO2 SLP121 RH/27 CB OMTNS DSNT NE T03390128 10344 20283 57022
KNMM 062356Z 00000KT 10SM FEW050 SCT250 29/23 A3007 RMK AO2 SLP191 T02940228 10317 20289 56017
KNOG 062356Z AUTO 14018G27KT 10SM FEW025 31/25 A2994 RMK AO2 PK WND 15028/2308 SLP117 T03060250 10333 20306 56012 TSNO $
KNPA 062356Z 24004KT 10SM FEW035 SCT250 29/20 A3009 RMK AO2 SLP191 T02890200 10317 20289 58013 $
KNQA 062350Z 18006KT 10SM SCT032 BKN250 29/24 A2999
KNQI 062356Z 14017G24KT 7SM SCT021 SCT030 OVC250 31/26 A2993 RMK AO2 PK WND 13029/2304 SLP131 T03060261 10328 20306 56014 $
KNQX 062353Z 12011KT 9SM FEW020 SCT250 30/24 A3009 RMK AO2 SLP189 T2 SET T03000244 10328 20300 58003 $
KNRB 062352Z 17007KT 10SM SCT050 SCT100 BKN250 25/21 A3012 RMK AO2 SLP199 T2 SET T02500211 10289 20250 53001 $
KNRS 062356Z AUTO 29008KT 10SM OVC021 21/16 A2999 RMK AO2 SLP154 T02060161 10217 20200 58016
KNSE 062356Z 31003KT 10SM SCT045 SCT250 30/22 A3010 RMK AO2 SLP177 T03000217 10322 20294 56012 $
KNSI 062357Z AUTO 30017KT 10SM OVC012 A3000 RMK AO2 SLPNO 6//// 56017 PNO $
KNTD 070017Z 25008KT 10SM SCT012 BKN080 21/15 A2998 RMK AO2 T02110150 $
KNTU 062356Z 17004KT 10SM FEW040 SCT120 BKN250 28/22 A3005 RMK AO2 SLP178 60113 T02780222 10311 20239 56011 $
KNUC 062256Z 28013KT 10SM BKN011 OVC019 19/14 A3003 RMK DZB38E55 SLP167 LAST P0000 T01890144
KNUQ 062356Z 35014KT 10SM CLR 24/15 A3001 RMK AO2 SLP166 T02390150 10250 20206 58017
KNUW 062356Z 23009KT 9SM FEW050 SCT200 BKN250 19/13 A3003 RMK AO2 SLP168 T01890128 10194 20167 58008 VISNO $
KNXF 062356Z AUTO 26008KT 8SM FEW011 OVC021 22/16 A2997 RMK AO2 SLPNO T02170161 10233 20206 58011 $
KNXP 062356Z AUTO 36011KT 10SM FEW110 33/15 A2996 RMK AO2 PK WND 15030/2302 RAE41 TSE56 SLP106 6//// T03280150 10400 20300 56015 PNO $
KNY0 062355Z AUTO 13004KT 10SM CLR 24/17 A3009 RMK AO2 T02360172 10265 20236
KNYC 062351Z AUTO 16007KT 10SM CLR 24/17 A3013 RMK AO2 SLP193 T02440167 10283 20244 58004 $
KNYG 062256Z 26005KT 10SM SCT060 BKN140 28/22 A2999 RMK SLP164 T02780220
KNYL 062357Z AUTO 16011G16KT 10SM CLR 41/14 A2977 RMK AO2 SLP076 T04060144 10411 20361 56023
KNZY 062352Z 28009KT 10SM FEW014 OVC019 20/16 A2998 RMK AO2 SLP151 T02000161 10211 20194 56015 $
KO22 062355Z AUTO 28007G14KT 10SM CLR 32/09 A3000 RMK AO1
KO54 062355Z AUTO 16004KT 10SM CLR 33/08 A2998 RMK AO1
KO69 070015Z AUTO 29018G21KT 10SM CLR 22/12 A3003 RMK AO1
KO86 070015Z AUTO 18007KT 10SM CLR 33/08 A2998 RMK AO1
KOAJ 070015Z AUTO 19007KT 10SM BKN100 26/21 A3009 RMK AO1
KOAK 062353Z 27013KT 10SM BKN200 20/13 A3002 RMK AO2 SLP166 T02000128 10228 20189 58016
KOBE 070015Z AUTO 36009KT 10SM SCT070 SCT090 SCT120 25/21 A3018 RMK AO2 LTG DSNT N SE AND SW
KOCF 070015Z AUTO 15003KT 10SM CLR 25/21 A3015 RMK AO1
KOCH 070015Z AUTO 19008KT 10SM CLR A2995 RMK AO1
KOCQ 062355Z AUTO 25011G14KT 3/4SM BKN008 OVC017 22/22 A2976 RMK AO1 P0071 60074 T02190219 10265 20219
KOCW 070015Z AUTO 17006KT 10SM CLR 28/22 A3008 RMK AO2 T02750216
KODO 062353Z AUTO 18019G26KT 10SM FEW032 SCT043 29/19 A2991 RMK AO2 PK WND 18026/2351 RAE46 SLP078 P0000 60000 T02890194 10361 20250 58006
KODX 062353Z AUTO 01015G21KT 6SM HZ FEW050 24/11 A3006 RMK AO2 SLP168 T02390111 10250 20228 55002
KOEB 070014Z AUTO 18003KT 7SM CLR 26/18 A2993 RMK AO2 T02560181
KOEO 062355Z AUTO 35004KT 5SM HZ SCT060 21/15 A2997 RMK AO2 60002 T02050147 10208 20161
KOFF 062358Z AUTO 36015G19KT 10SM FEW034 23/18 A2993 RMK AO2 SLP132 60008 T02290181 10238 20226 52017 $
KOFK 062356Z AUTO 36013KT 1 1/2SM HZ BKN031 OVC039 23/15 A3001 RMK AO2 SLP151 60000 T02330150 10250 20228 53002
KOFP 062354Z AUTO 00000KT 8SM CLR 23/23 A3005 RMK AO2 SLP174 60055 T02330228 10306 20222 56001
KOGA 062355Z AUTO 02009KT 4SM HZ OVC060 22/11 A3015 RMK AO2 60001 T02200112 10241 20220
KOGB 062353Z AUTO 19004KT 10SM CLR 29/21 A3008 RMK AO2 SLP182 T02890211 10306 20283 56003
KOGD 062353Z AUTO 36007KT 10SM CLR 28/09 A3005 RMK AO2 SLP118 T02830094 10311 20272 56007 TSNO
KOJA 070015Z AUTO 18009KT 10SM SCT060 31/21 A2984 RMK AO2 LTG DSNT W AND NW
KOJC 062353Z 27005KT 4SM RA BR BKN006 BKN010 OVC075 22/21 A2987 RMK AO2 WSHFT 2242 LTG DSNT ALQDS TSE46 SLP106 P0055 60133 T02170211 10311 20211 50021
KOKB 062352Z AUTO 25007G14KT 10SM OVC017 22/16 A2996 RMK AO2 SLP146 T02170156 10239 20206 58015
KOKC 062352Z 17013G23KT 10SM SCT036 SCT044 BKN250 31/23 A2985 RMK AO2 PK WND 17026/2315 PRESRR SLP090 T03060228 10328 20306 55019
KOKK 070015Z AUTO 20009KT 10SM FEW002 27/20 A2993 RMK AO1
KOKM 062355Z AUTO 18015G21KT 10SM CLR 30/23 A2987 RMK AO2 T02980230 10311 20290
KOKV 062355Z AUTO 17004KT 10SM SCT035 26/21 A3003 RMK AO2
KOKZ 062355Z AUTO 00000KT 10SM CLR 29/22 A3008 RMK AO2 LTG DSNT SE T02880221 10313 20287
KOLE 062355Z AUTO 15004KT 10SM SCT026 BKN032 BKN039 22/18 A3009 RMK AO2
KOLF 062353Z AUTO VRB03KT 6SM HZ FEW090 23/07 A3014 RMK AO2 SLP204 T02330072 10244 20206 58012
KOLG 062355Z AUTO 36004KT 5SM SCT041 SCT048 BKN060 18/13 A2994 RMK AO1
KOLM 062354Z 23008KT 10SM CLR 29/09 A2998 RMK AO2 SLP149 T02890094 10300 20222 56005
KOLS 070014Z AUTO 12007KT 10SM -RA FEW043 BKN075 OVC100 22/19 A3006 RMK AO2 WSHFT 2341 LTG DSNT ALQDS TSE08 P0007 T02220189
KOLV 062350Z 17011KT 8SM FEW020 BKN250 27/26 A3001
KOLY 062355Z AUTO 17008KT 10SM SCT025 28/23 A2994 RMK AO2 LTG DSNT N
KOLZ 062355Z AUTO 34015G22KT 9SM BKN019 OVC023 21/17 A2990 RMK AO2
KOMA 062352Z 01013KT 6SM HZ BKN040 OVC047 23/18 A2994 RMK AO2 SLP131 60001 T02280178 10250 20228 53015
KOMH 062355Z AUTO 00000KT 10SM CLR 25/22 A3004 RMK AO2 LTG DSNT E
KOMK 062353Z AUTO 20008KT 10SM CLR 36/03 A2986 RMK AO2 SLP103 T03610028 10367 20289 56025
KOMN 062250Z 23005KT 7SM -TSRA SCT041 BKN050 22/21 A3013 RMK TS S MOV E LAST
KONA 070014Z AUTO 34008G15KT 2 1/2SM HZ OVC030 21/15 A2992 RMK AO2
KONL 062355Z AUTO 01014G19KT 7SM CLR 23/13 A3009 RMK AO2 T02270125 10242 20222
KONM 062355Z AUTO 30005KT 10SM CLR 33/07 A3000 RMK AO2 T03270071 10330 20273
KONO 062353Z AUTO 17009KT 10SM CLR 36/11 A2992 RMK AO2 SLP112 T03560111 10361 20300 56022
KONP 062355Z AUTO 23007KT 7SM OVC005 15/12 A3011 RMK AO2
KONT 062353Z 27013G18KT 10SM FEW085 FEW300 29/14 A2995 RMK AO2 SLP126 CB DSNT N-E TCU DSNT SE T02890144 10294 20222 56016
KONX 070015Z AUTO 18004KT 10SM CLR 27/23 A3007 RMK AO2 T02730225
KONZ 070014Z AUTO 14008KT 10SM CLR 24/21 A2994 RMK AO2
KOOA 062355Z AUTO 33003KT 10SM BKN033 BKN049 OVC085 23/21 A2987 RMK AO2 P0001 60039 T02300213 10266 20221
KOPF 062353Z 10008KT 10SM CLR 29/23 A3012 RMK AO2 SLP200 T02940228 10339 20294 55002
KOPL 062355Z AUTO 21006KT BKN040 BKN045 BKN050 30/23 A3004 RMK AO2 T02990231 10320 20299 PWINO
KOPN 062355Z AUTO 28005KT 10SM CLR 29/23 A3012 RMK AO2
KOQT 062353Z AUTO 22004KT 10SM CLR 28/20 A3008 RMK AO2 SLP170 60000 T02830200 10300 20278 58012
KORC 062355Z AUTO 36010G17KT 5SM HZ SCT037 21/13 A3003 RMK AO2
KORD 062351Z 18009KT 10SM FEW050 SCT140 BKN200 BKN250 26/21 A2984 RMK AO2 SLP099 60005 T02610206 10294 20228 56021
KORE 062352Z AUTO 18005KT 10SM CLR 25/18 A3011 RMK AO2 SLP194 T02500178 10289 20250 55004
KORF 062351Z 19008KT 10SM CLR 28/22 A3005 RMK AO2 SLP175 60021 T02780222 10317 20233 56009
KORG 070015Z AUTO 16009KT 10SM CLR 30/22 A3003 RMK AO2 T02990215
KORH 062354Z 20007KT 10SM CLR 25/17 A3015 RMK AO2 SLP204 T02500172 10283 20250 56003
KORL 062353Z 11006KT 10SM CLR 23/21 A3016 RMK AO2 LTG DSNT NE AND E SLP216 60003 T02280211 10339 20228 51001
KORS 070015Z AUTO 18009G14KT 030V040 8SM CLR 20/13 A2994 RMK AO2
KOSA 062355Z AUTO 17013G17KT 7SM CLR 31/21 A2992 RMK AO1 T03120208 10331 20306
KOSC 070014Z AUTO 19009G16KT 10SM CLR 26/16 A2986 RMK AO2 T02640166
KOSH 070009Z 23007KT 9SM -RA SCT020 BKN031 OVC050 24/21 A2979 RMK AO2 RAB00 P0000 T02390211
KOSU 062353Z 24007KT 10SM CLR 27/16 A3001 RMK AO2 SLP155 T02670161 10289 20267 58006
KOTG 070015Z AUTO 36016G22KT 8SM CLR 19/11 A3005 RMK AO1
KOTH 070015Z 25007KT 10SM OVC016 17/13 A3009 RMK AO1
KOTM 070001Z AUTO 32005KT 10SM SCT022 BKN030 OVC065 23/23 A2985 RMK AO2 T02330228
KOUN 062355Z AUTO 17011KT 10SM CLR 30/23 A2986 RMK AO2
KOVE 062353Z AUTO VRB03KT 10SM CLR 33/16 A2991 RMK AO2 SLP128 T03280161 10333 20250 58027
KOVL 070013Z AUTO 33017G21KT 10SM SCT046 20/10 A3002 RMK AO2
KOVS 062353Z AUTO 31005KT 10SM FEW020 SCT030 OVC046 24/22 A2980 RMK AO2 RAB2255E40 SLP090 P0015 60015 T02390222 10272 20233 55008
KOWA 070015Z AUTO 35004KT 2 1/2SM HZ CLR 20/14 A2997 RMK AO2
KOWB 062356Z 18006KT 10SM CLR 28/24 A2997 RMK AO2 58015 T02830238 10311 20283 SLP146
KOWD 062353Z 18005KT 10SM CLR 25/19 A3011 RMK AO2 SLP195 T02500189 10300 20250 53001
KOWP 070015Z AUTO 17010G14KT 7SM SCT036 SCT045 SCT055 31/23 A2988 RMK AO2 LTG DSNT W AND NW T03060234
KOXB 062353Z AUTO 20005KT 8SM CLR 26/23 A3007 RMK AO2 SLP183 T02560233 10278 20256 55005 TSNO
KOXC 062350Z 20006KT 8SM FEW090 BKN250 23/17 A3015
KOXI 070015Z AUTO 18008KT 10SM CLR 27/20 A2989 RMK AO1
KOXR 062351Z 25010KT 10SM BKN012 20/14 A2998 RMK AO2 SLP150 T02000144 10217 20178 58012
KOXV 062355Z AUTO 33009KT 10SM FEW009 SCT013 BKN060 23/21 A2987 RMK AO2
KOZA 062355Z AUTO 20011G20KT 10SM CLR 31/17 A2995 RMK AO2
KOZR 062358Z AUTO 33003KT 10SM CLR 30/22 A3010 RMK AO2 SLP192 T02970215 10314 20297 $
KOZS 070015Z AUTO 17005KT 10SM CLR 27/22 A2992 RMK AO2
KOZW 070015Z AUTO 16007KT 7SM CLR 26/17 A2993 RMK AO2 T02550171
KP08 070015Z AUTO 24008KT 10SM CLR 36/15 A2985 RMK AO2
KP28 062356Z AUTO 02020G29KT 26/21 A2987 RMK AO1 PK WND 01036/2308 SLP099 T02560211 10367 20256 53027
KP53 062356Z AUTO 33015KT 12/11 A2984 RMK AO1 SLP106 P0002 60034 T01220106 10250 20117 51025
KP58 062351Z AUTO 15005KT 26/18 A2989 RMK AO1 SLP113 T02610178 10272 20206 56014
KP59 062351Z AUTO 36012KT 11/10 A2986 RMK AO1 SLP110 P0001 60044 T01060100 10128 20089 55000
KP60 062356Z AUTO 26007KT 220V300 17/08 A3032 RMK AO1 SLP200 T01670078 10200 20150 56004
KP68 062353Z AUTO 17010G20KT 23/10 A3018 RMK AO1 WSHFT 2307 SLP147 P0003 6//// T02280100 10294 20194
KP69 062352Z AUTO VRB03KT 38/06 A2990 RMK AO1 SLP092 T03830056 10389 20278 58020 $
KP92 062353Z AUTO VRB03KT 31/26 A3005 RMK AO1 SLP176 T03060256 10322 20306 58018
KPAE 062353Z 36005KT 10SM CLR 24/13 A3000 RMK AO2 SLP155 T02390133 10261 20206 56004
KPAH 062353Z 20006KT 9SM FEW031 FEW044 29/23 A2996 RMK AO2 SLP139 T02890233 10306 20289 58013
KPAM 062358Z AUTO 29006KT 10SM CLR 28/23 A3010 RMK AO2 SLP196 60001 T02810226 10294 20259 402940214 $
KPAN 070015Z AUTO 31018G26KT 10SM VCTS FEW070 FEW090 FEW120 27/10 A3014 RMK AO2 LTG DSNT W AND NW
KPAO 062347Z 32013KT 30SM SCT060 26/14 A3001
KPBF 062353Z AUTO 18009KT 10SM CLR 29/24 A2996 RMK AO2 SLP142 T02890239 10322 20289 58023
KPBG 062353Z AUTO 17004KT 10SM CLR 24/16 A3003 RMK AO2 SLP168 T02440161 10267 20244 55008
KPBH 070015Z AUTO 34005KT 3SM BR BKN013 OVC020 15/14 A2992 RMK AO2 T01520137
KPBI 062353Z 12007KT 10SM SCT025CB SCT150 BKN220 29/23 A3016 RMK AO2 SLP211 CB NW MOV NW TCU W T02940233 10322 20294 53004 $
KPBX 062355Z AUTO 00000KT 10SM CLR 24/20 A3009 RMK AO2 T02410203 10250 20232
KPCM 070015Z AUTO 10003KT 10SM CLR 28/24 A3017 RMK AO2
KPCW 070012Z AUTO 11005KT 25/21 A2996 RMK AO2 $
KPCZ 062355Z AUTO 27004KT 10SM SCT025 BKN050 OVC080 24/23 A2979 RMK AO2 T02410229 10285 20241
KPDC 062355Z AUTO 32011G17KT 10SM BKN011 OVC016 22/20 A2982 RMK AO2 P0001 60011 T02220198 10266 20222
KPDK 062353Z 24003KT 7SM BKN039 OVC047 26/23 A3011 RMK AO2 RAE51 SLP181 P0018 60021 T02560233 10306 20239 53000
KPDT 062353Z 28009G15KT 10SM CLR 37/04 A2989 RMK AO2 SLP100 T03720039 10378 20317 56017
KPDX 062353Z 31006KT 10SM FEW120 SCT250 33/13 A2992 RMK AO2 SLP133 ACC DSNT E-SE T03330133 10333 20239 56016
KPEA 062355Z AUTO 33007KT 5SM -RA SCT007 BKN044 OVC060 22/22 A2989 RMK AO2 60002 T02200220 10258 20220
KPEO 062353Z AUTO 15006KT 7SM FEW090 SCT110 26/21 A3004 RMK AO2 SLP165 T02560206 10278 20256 56006
KPEQ 062355Z AUTO 15015G19KT 10SM CLR 33/16 A2984 RMK AO2 LTG DSNT SW T03320156 10373 20308
KPEX 070013Z AUTO 28011G21KT 10SM CLR 17/08 A3003 RMK AO2 T01710083
KPEZ 070015Z AUTO 12016G20KT 10SM SCT039 SCT044 BKN060 31/22 A2992 RMK AO2 T03050219
KPGA 062353Z AUTO 31007KT 270V340 10SM BKN110 29/08 A3007 RMK AO2 SLP114 60000 T02890083 10311 20272 56012 TSNO
KPGD 062353Z 13006KT 10SM FEW048 25/22 A3017 RMK AO2 SLP216 60033 T02500217 10333 20228 53007
KPGV 062355Z AUTO 18011KT 10SM CLR 29/22 A3008 RMK AO2
KPHD 062353Z AUTO 00000KT 8SM FEW080 BKN110 22/21 A3001 RMK AO2 RAE02 SLP157 P0000 60018 T02170206 10289 20211 58005
KPHF 062354Z 17010KT 10SM CLR 28/23 A3005 RMK AO2 LTG DSNT N AND SW SLP175 T02780233 10311 20278 55005
KPHL 062354Z 15007KT 10SM TS FEW020 SCT035CB SCT075 BKN210 BKN260 28/22 A3006
KPHN 070015Z AUTO 16006KT 10SM CLR 24/16 A2995 RMK AO2
KPHP 062355Z AUTO 02006KT 10SM FEW080 FEW090 23/13 A3013 RMK AO2 SLP189 T02280128 10250 20222 58012
KPHT 070015Z AUTO 20005KT 10SM CLR 27/23 A3001 RMK
KPHX 062351Z 28010KT 10SM FEW100 SCT180 SCT250 39/13 A2980 RMK AO2 SLP069 CB DSNT N,S T03940128 10400 20333 56027
KPIA 062354Z 19010KT 10SM CLR 30/23 A2983 RMK AO2 SLP094 T03000228 10322 20300 56019
KPIB 070015Z AUTO 20003KT 10SM CLR 29/22 A3010 RMK AO1
KPIE 062353Z 11004KT 10SM CLR 28/23 A3013 RMK AO2 SLP202 60000 T02830233 10311 20244 55002
KPIH 062353Z COR 30007KT 10SM SCT080 27/12 A3008 RMK AO2 SLP136 T02670122 10289 20228 56013
KPIL 070002Z AUTO 15018G25KT 5SM HZ BKN018 29/26 A2994 RMK AO2 T02940256
KPIR 062353Z AUTO 01009KT 9SM CLR 23/12 A3010 RMK AO2 SLP182 T02280122 10244 20228 58008
KPIT 062351Z 21006KT 10SM FEW042 BKN140 BKN250 24/20 A3002 RMK AO2 RAB2256E12 TSE21 SLP164 P0000 60004 T02440200 10283 20211 58004
KPKB 062353Z 17003KT 10SM SCT065 BKN090 24/21 A3006 RMK AO2 LTG DSNT SE AND S SLP171 T02390206 10283 20239 58003
KPKD 062353Z AUTO 34013G20KT 10SM OVC049 16/06 A3007 RMK AO2 SLP183 T01610061 10189 20156 51006
KPKV 070006Z AUTO 16012G20KT 10SM SCT023 SCT029 SCT039 29/25 A2998 RMK AO2
KPLN 062354Z AUTO 18007KT 6SM HZ CLR 27/18 A2979 RMK AO2 SLP083 T02720178 10294 20272 56020
KPLU 062355Z AUTO VRB05KT 10SM CLR 31/13 A2998 RMK AO2
KPMD 062353Z AUTO 23020KT 10SM CLR 34/06 A2994 RMK AO2 PK WND 22028/2254 SLP109 T03440061 10361 20322 56015
KPMP 062353Z 10006KT 8SM CLR 30/23 A3013 RMK AO2 SLP202 T03000233 10322 20294 53001
KPMV 062355Z AUTO 35007G16KT 5SM HZ SCT025 BKN033 OVC041 23/18 A2994 RMK AO2 60001 T02250177 10253 20220
KPNA 062355Z AUTO 11009KT 10SM -RA OVC065 12/12 A3029 RMK AO2 LTG DSNT E AND SE
KPNC 070002Z AUTO 17009G18KT 9SM BKN047 BKN060 32/22 A2983 RMK AO2 LTG DSNT W-NE T03170222
KPNE 062354Z AUTO 13007KT 10SM CLR 28/20 A3008 RMK AO2 SLP184 T02780200 10306 20278 56003 TSNO
KPNM 070014Z AUTO 33012G16KT 10SM CLR 19/11 A2999 RMK AO2
KPNS 062353Z 25010KT 10SM CLR 30/19 A3009 RMK AO2 SLP191 T03000194 10322 20294 57013
KPNT 062355Z AUTO 17009G14KT 7SM CLR 28/25 A2986 RMK AO2 60062 T02820251 10304 20217
KPOB 062359Z AUTO 18003KT 10SM FEW002 SCT055 BKN110 23/20 A3006 RMK AO2 DZE59
KPOC 062347Z 27010KT 10SM CLR 27/15 A2998
KPOE 062358Z AUTO 17012KT 10SM CLR 31/23 A3001 RMK AO2 SLP161 T03090225 10336 20309
KPOF 062353Z AUTO 20009KT 10SM FEW039 BKN060 28/23 A2995 RMK AO2 SLP135 T02830233 10300 20272 55010
KPOU 062353Z AUTO 15004KT 10SM CLR 26/18 A3009 RMK AO2 SLP186 T02560183 10294 20256 56004
KPOV 070016Z AUTO 00000KT 10SM SCT075 SCT085 23/19 A3001 RMK AO2 T02250191
KPOY 062355Z AUTO 18003KT 10SM CLR 21/06 A3018 RMK AO2
KPPA 062355Z AUTO 13010KT 10SM -DZ BKN038 BKN050 BKN070 22/18 A3002 RMK AO2 LTG DSNT SE THRU SW T02160176 10315 20216
KPPF 062352Z AUTO 16006KT 10SM FEW032 SCT100 29/24 A2988 RMK AO2 LTG DSNT N AND NW SLP106 T02890239 10328 20289 51010
KPPO 062355Z AUTO 18007KT 10SM SCT046 SCT060 BKN095 28/21 A2991 RMK AO2 T02810213 10300 20280
KPPQ 062355Z AUTO 18006KT 10SM CLR 28/23 A2986 RMK AO2 T02820233 10310 20282
KPQI 070015Z AUTO 00000KT 10SM CLR 23/14 A3007 RMK AO1
KPQL 062353Z 19005KT 10SM CLR 29/24 A3009 RMK AO2 SLP191 T02890239 10311 20289 58013
KPQN 070014Z AUTO 02012G18KT 7SM SCT038 20/11 A3007 RMK AO2
KPRB 062353Z AUTO 23005KT 10SM CLR 32/13 A2992 RMK AO2 SLP125 T03220133 10350 20217 56023 TSNO
KPRC 062353Z COR 30013KT 10SM SCT075CB 28/11 A3015 RMK CB DSNT SE MOV SE AO2 SLP126 T02780106 10294 20267 56008
KPRG 062355Z AUTO 18007KT 10SM SCT027 28/24 A2992 RMK AO2 LTG DSNT SW T02810236 10302 20281
KPRN 062356Z AUTO 33004KT 10SM CLR 29/21 A3010 RMK AO2 SLP187 T02940211 10317 20294 57010
KPRO 062355Z AUTO 36012G21KT 5SM HZ SCT034 BKN060 OVC080 22/16 A2993 RMK AO2 T02210162 10248 20210
KPRS 062355Z AUTO 05007KT 10SM CLR 36/15 A2988 RMK AO2 LTG DSNT N E AND SW T03590153 10374 20322
KPRX 070015Z 17011G14KT 10SM CLR 30/22 A2989 RMK AO1
KPSC 062353Z 13006KT 10SM CLR 38/09 A2981 RMK AO2 SLP092 T03780089 10383 20289 56026
KPSF 062354Z AUTO 18006KT 10SM CLR 24/18 A3012 RMK AO2 SLP178 T02390178 10267 20239 55000
KPSK 062355Z AUTO 00000KT 10SM CLR 24/20 A3016 RMK AO2 T02370196 10275 20225
KPSM 062358Z 15006KT 10SM FEW250 22/17 A3009 RMK AO2A SLP192 T02220165 10267 20222 58006
KPSN 070015Z AUTO 14009KT 7SM CLR 31/22 A2993 RMK AO2 T03110223
KPSO 070015Z AUTO 16004KT 10SM CLR 19/10 A3028 RMK AO2 T01870102
KPSP 062353Z 36007KT 10SM SCT120 40/14 A2981 RMK AO2 SLP089 T04000139 10411 20356 56024
KPSX 062353Z AUTO 16014KT 8SM SCT024 30/24 A2999 RMK AO2 SLP153 T03000244 10322 20300 58016
KPTB 062355Z AUTO 00000KT 10SM CLR 28/27 A3004 RMK AO2 LTG DSNT NE 60004 T02770273 10309 20271
KPTK 062353Z 20008KT 9SM BKN260 27/16 A2994 RMK AO2 SLP132 T02670156 10289 20267 56009
KPTN 070015Z AUTO 19006KT 10SM CLR 29/24 A3008 RMK AO1
KPTS 062355Z AUTO 21006KT 10SM CLR 29/24 A2989 RMK AO2 LTG DSNT NW T02850235
KPTT 062355Z AUTO 02018G24KT 10SM OVC014 23/18 A2995 RMK AO2 LTG DSNT E AND SE
KPTV 070015Z 34008KT 10SM CLR 34/14 A2990 RMK AO1
KPTW 070011Z AUTO 00000KT 10SM VCTS FEW042 SCT070 BKN110 23/22 A3007 RMK AO2 LTG DSNT SE AND S T02330222
KPUB 062353Z AUTO 04010KT 10SM -RA OVC055 20/16 A3021 RMK AO2 SLP173 P0002 60007 T02000161 10294 20194 50008
KPUC 062353Z AUTO 10007KT 10SM CLR 22/11 A3018 RMK AO2 RAE27 SLP153 P0000 60003 T02220106 10317 20200 51012 TSNO
KPUJ 070015Z AUTO 00000KT CLR 28/24 A3013 RMK AO2 PWINO
KPUW 062353Z AUTO 14004KT 10SM CLR 33/04 A2998 RMK AO2 SLP135 T03280039 10339 20272 58019
KPVB 062355Z AUTO 20008KT 10SM SCT042 BKN080 25/23 A2982 RMK AO1 T02510225 10263 20241
KPVC 070015Z 20008KT 10SM CLR 22/M11 A3014 RMK AO1
KPVD 062351Z 20007KT 10SM BKN300 23/18 A3014 RMK AO2 SLP204 T02330183 10289 20233 53001
KPVE 070015Z AUTO 19009KT 10SM FEW023 27/23 A3002 RMK
KPVF 070015Z AUTO 24003KT 10SM CLR 29/10 A3006 RMK AO1
KPVG 070015Z AUTO 15005KT 10SM CLR 27/22 A3007 RMK AO1 LTG DSNT W
KPVJ 070015Z AUTO 17005KT 10SM OVC060 30/21 A2985 RMK AO2 T02950214
KPVU 062359Z 16004KT 15SM BKN090 BKN140 28/08 A3007 RMK LTG DSNT NW
KPVW 062355Z AUTO 06010KT 10SM -RA SCT041 SCT050 BKN070 21/21 A2997 RMK AO2 P0016 60025 T02110210 10325 20211 TSNO
KPWA 062353Z 18015G21KT 7SM FEW036 SCT095 31/23 A2985 RMK AO2 PK WND 19026/2306 SLP089 T03110228 10328 20311 55018
KPWC 070014Z AUTO 33014G19KT 10SM BKN050 16/08 A3008 RMK AO2
KPWG 070015Z AUTO 16017G24KT 10SM CLR 31/21 A2990 RMK AO1
KPWK 062352Z 19013KT 10SM CLR 27/21 A2985 RMK AO2 SLP102 60004 T02720211 10306 20228 56020
KPWM 062351Z 19007KT 10SM CLR 21/15 A3011 RMK AO2 SLP194 T02110150 10267 20211 55005
KPWT 070015Z AUTO 20007KT 10SM CLR 28/12 A3000 RMK AO1
KPXE 062355Z AUTO 22004KT 10SM CLR 30/21 A3010 RMK AO2 T02960213 10320 20294
KPYM 062352Z AUTO 17004KT 10SM CLR 23/18 A3014 RMK AO2 SLP205 T02330178 10289 20233 53001
KPYX 062350Z AUTO 35022G27KT 10SM CLR 25/18 A2999 RMK AO2 T02480175 10310 20248
KPZQ 070015Z AUTO 17008KT 7SM CLR 26/18 A2981 RMK AO2 T02630183
KQAJ 062355Z AUTO 31015G19KT 9999 CLR 33/M05 A2955 RMK AO2 PK WND 31026/2306 SLP996 T03281046 10390 20323 404510315 55007
KQAY 062355Z AUTO 30009KT 6000 BR FEW034 RMK AO2 SLPNO 56005 $
KQBL 062356Z AUTO 00000KT 10SM CLR 29/23 A3011 RMK AO2 SLP198 T02920225 10332 20292 57010
KQCL 070012Z AUTO 19001KT 9999 BKN022 OVC043 24/20 A2969 RMK AO2 SLP971 $
KQEB 062355Z AUTO 00000KT 9999 FEW003 SCT005 BKN008 15/14 A3030 RMK AO2 SLP239 60001 T01460138 10164 20157 402290137 57013
KQEI 070010Z AUTO 32003KT 9999 CLR 19/09 A2993 RMK A02 TSNO
KQEJ 070010Z AUTO 31001KT 9999 CLR 20/09 A2988 RMK A02 TSNO
KQEL 070010Z AUTO 24002KT 9999 CLR 21/14 A2993 RMK A02 TSNO
KQEN 070010Z AUTO / // CLR / / RMK A02 TSNO
KQEP 070010Z AUTO 01001KT 9999 CLR 22/15 A2982 RMK A02 TSNO
KQEQ 070010Z AUTO 03003KT 9999 CLR 22/16 A2972 RMK A02 TSNO
KQER 070010Z AUTO 32001KT 8000 /CLR 20/12 A2987 RMK A02 TSNO
KQES 070010Z AUTO 9999 CLR 21/17 A2988 RMK A02 TSNO
KQEV 070010Z AUTO 13002KT 9999 CLR 22/16 A2987 RMK A02 TSNO
KQEW 070010Z AUTO 19001KT 9999 CLR 21/15 A2989 RMK A02 TSNO
KQEX 070010Z AUTO 03002KT 9999 CLR 21/15 A2992 RMK A02 TSNO
KQEY 070010Z AUTO 09001KT 9999 SCT029 21/16 A2989 RMK A02 TSNO
KQFB 070010Z AUTO 28002KT 9999 BKN140 20/14 A2994 RMK A02 TSNO
KQFG 062355Z AUTO VRB04KT 9999 CLR 30/19 A2958 RMK AO2 SLP955 T02950192 10340 20301 404400295 50005 $
KQFQ 062355Z AUTO VRB03KT 6SM FEW180 23/17 A2983 RMK AO2 SLP100 T02340167 10229 20174 55000 $
KQFT 070010Z AUTO 35002KT 9999 FEW065 22/14 A2985 RMK A02 TSNO
KQFU 070010Z AUTO 22001KT 4800 HZ CLR 24/15 A2987 RMK A02 TSNO
KQFX 070010Z AUTO 15001KT 9999 SCT070 23/16 A2987 RMK A02 TSNO
KQGV 062355Z 28010G18KT 9999 CLR 31/M04 A2954 RMK SLPNO QNH1000 PA +827 57012
KQGX 062358Z AUTO 21006KT 9999 CLR 29/23 A2942 RMK AO2 SLP964 T02890232 10322 20289 55006 $
KQHN 062355Z 24003KT 3200 DU CLR 30/M01 A2953 RMK SLP910 Q1000 DA6275
KQHY 062356Z AUTO 27005KT 10SM CLR 29/23 A3012 RMK AO2 SLP201 T02870228 10326 20287
KQIR 062358Z COR 33017KT 6000 DU CLR 34/18 A2944 RMK AO2A SLP970 T03430175 10366 20343 55007 COR 2359
KQL5 062355Z 18003KT 8000 HZ CLR 29/20 A2953 RMK SLP951 T02910202 10426 20338 404620291 53004 $
KQSA 062358Z VRB01KT 9999 CLR 24/M03 A2974 RMK AO2A SLP965 T02401031 10272 20231 57004 VISNO RWY21 CHINO RWY21 $
KQSF 062355Z AUTO 26001KT 8000 HZ CLR 20/01 A2989 RMK AO2 SLP006 T02040008 10315 20254 403290203 57004
KQSN 062355Z AUTO VRB03KT 9000 HZ CLR 18/M04 A2985 RMK AO2 SLP977 T01801037 10324 20239 403260179 57003
KQTZ 062355Z 33007KT 5000 DU FEW030 33/04 A2957 RMK DU FEW030 SLP010 WND/ALSTG/SLP ESTMD
KQWM 062355Z 29011KT 9000 HZ CLR 32/M03 A2954 RMK SLP992 QNH1000
KQXT 062355Z 18014G18KT 6000 BLDU CLR 29/M04 A2950 RMK SLP919 WND DATA ESTMD ALSTG/SLP ESTMD Q0999 51008
KRAC 062353Z AUTO 22005KT 10SM FEW035 BKN046 OVC065 24/21 A2985 RMK AO2 SLP103 60008 T02390206 10272 20228 58007
KRAL 062353Z A2994 RMK AO2 SLPNO 6//// $
KRAP 062352Z 01005KT 10SM SCT060 OVC075 21/12 A3018 RMK AO2 SLP206 T02060117 10228 20178 58011
KRAS 062355Z AUTO 14010KT 7SM OVC018 29/26 A2996 RMK AO2 T02880260 10309 20288
KRBD 062353Z AUTO 18010G19KT 140V220 9SM SCT060 32/19 A2988 RMK AO2 PK WND 17026/2323 SLP109 T03170189 10328 20311 58027
KRBG 062353Z AUTO 30009G18KT 10SM CLR 33/15 A2994 RMK AO2 SLP134 T03280150 10344 20256 56007
KRBL 062354Z AUTO 15011KT 10SM CLR 33/14 A2989 RMK AO2 SLP116 T03330144 10344 20261 58024
KRBO 062355Z AUTO 15018G21KT 10SM SCT024 31/24 A2994 RMK AO2 T03070242 10331 20307
KRBW 070015Z AUTO 18008KT 10SM CLR 26/22 A3011 RMK AO2
KRCA 062358Z AUTO 01007KT 10SM BKN055 OVC070 21/11 A3018 RMK AO2 SLP209 T02080114 10223 20179 57011 $
KRCE 062355Z AUTO 18017G21KT 8SM FEW038 SCT046 30/24 A2987 RMK AO2
KRCM 062355Z AUTO 31009KT 274V344 10SM VCTS SCT080 27/23 A2987 RMK AO2 LTG DSNT W THRU NE
KRCR 062355Z AUTO 20005KT 10SM CLR 28/21 A2993 RMK AO2
KRCV 070015Z AUTO 05008KT 10SM BKN110 13/11 A3034 RMK AO2 T01320109
KRCX 062355Z AUTO 35010G15KT 3SM HZ BKN014 OVC027 17/14 A2994 RMK AO2 T01700142 10230 20160
KRCZ 062355Z AUTO 18005KT 10SM SCT080 29/22 A3008 RMK AO2 T02850215 10320 20285
KRDD 062353Z 18011KT 10SM CLR 36/13 A2987 RMK AO2 SLP109 T03560128 10367 20283 56024
KRDG 062354Z 00000KT 10SM CLR 24/21 A3004 RMK AO2 RAB12E29 SLP176 P0003 60003 T02390211 10294 20239 57003
KRDK 062355Z AUTO 02013KT 6SM HZ OVC032 21/18 A2993 RMK AO2
KRDM 070016Z 24016KT 10SM VCTS -RA OVC100 22/15 A3003 RMK AO2 LTG DSNT ALQDS P0000 T02220150
KRDR 062358Z AUTO 03012KT 10SM CLR 18/08 A3013 RMK AO2 SLP209 T01760082 10189 20158 53003
KRDU 062351Z 20007KT 10SM FEW050 SCT095 SCT150 BKN250 29/20 A3007 RMK AO2 SLP175 CB DSNT NW T02890200 10317 20289 56001
KREO 062352Z AUTO 31015KT 33/06 A3004 RMK AO1 SLP125 T03330061 10333 20261 56016
KRFD 062354Z 20010KT 10SM FEW025 BKN100 BKN230 27/21 A2982 RMK AO2 SLP093 60006 T02670211 10267 20222 56023
KRFI 062355Z AUTO 17007KT 10SM CLR 30/21 A2996 RMK AO2 T03000206 10322 20300
KRGK 070011Z AUTO 01003KT 3SM HZ CLR 21/15 A2993 RMK AO2 LTG DSNT E
KRHI 070012Z AUTO 36006G15KT 2 1/2SM BR BKN034 OVC041 15/13 A2989 RMK AO2 T01500128
KRHP 062337Z AUTO 00000KT 10SM CLR 25/22 A3013 RMK AO2
KRHV 062347Z 32012KT 10SM SCT150 26/14 A3003
KRIC 062354Z 25003KT 10SM FEW044 SCT070 SCT110 26/21 A3004 RMK AO2 SLP175 CB DSNT E 60038 T02610211 10311 20239 55006
KRIL 062353Z AUTO 00000KT 10SM CLR 27/11 A3009 RMK AO2 SLP121 T02720106 10278 20178 56020
KRIV 062358Z AUTO 32013KT 10SM CLR 30/14 A2995 RMK AO2 SLP130 T02960142 10303 20226 57015
KRIW 062353Z AUTO 03003KT 10SM OVC049 21/10 A3022 RMK AO2 SLP182 T02060100 10217 20167 55008
KRKD 070015Z AUTO 00000KT 10SM CLR 18/15 A3011 RMK AO1
KRKP 062353Z AUTO 15012G20KT 8SM -RA FEW016 30/25 A2996 RMK AO2 PK WND 17027/2338 SLP146 P0000 60000 T03000250 10322 20300 56016
KRKR 070015Z AUTO 18008G14KT 10SM CLR 30/21 A2991 RMK AO2 T02950207
KRKS 062354Z AUTO 13012KT 10SM CLR 23/10 A3017 RMK AO2 LTG DSNT W-N SLP138 T02330100 10239 20194 58019
KRME 062353Z 17005KT 10SM CLR 27/18 A3005 RMK AO2 SLP172 T02670178 10289 20267 58006
KRMG 062353Z AUTO 00000KT 10SM FEW041 28/21 A3008 RMK AO2 SLP176 T02830211 10306 20283 56005
KRMN 062355Z AUTO 16004KT 10SM SCT036 SCT045 SCT060 25/20 A3005 RMK AO2 LTG DSNT NE AND SE 60001 T02520204 10296 20243
KRMY 070014Z AUTO 19005KT 10SM CLR 26/19 A2991 RMK AO2 T02600190
KRNC 062355Z AUTO 21003KT 10SM CLR 28/22 A3008 RMK
KRND 062356Z AUTO 15014KT 10SM SCT042 SCT055 30/22 A2995 RMK AO2 SLP134 T03030216 10327 20302 $
KRNH 062355Z AUTO 36006KT 4SM HZ SCT036 SCT043 BKN055 19/14 A2995 RMK AO2 60001 T01930143 10204 20161
KRNM 062353Z 29010KT 10SM CLR 24/16 A2999 RMK AO2 SLP140 T02440156 10267 20189 58010
KRNO 062355Z 05011KT 10SM -TSRA FEW060 BKN090CB BKN160 27/12 A3008 RMK AO2 RAB05E20B38 TSB05 SLP132 FRQ LTGIC W-OHD TS W-OHD MOV NE 60000 T02670122 10344 20267 55007 PNO $
KRNP 070015Z AUTO 16005KT 7SM CLR 26/18 A2989 RMK AO2 T02620175
KRNT 062353Z 00000KT 10SM CLR 29/11 A2995 RMK AO2 SLP148 T02940111 10300 20239 56008
KRNV 062355Z AUTO 17005KT 10SM CLR 29/27 A3000 RMK AO2 T02880265 10295 20270
KROA 062354Z 25010KT 10SM SCT095 BKN120 25/19 A3010 RMK AO2 RAE2256 SLP180 P0000 60001 T02500189 10289 20222 53002
KROC 062354Z 19007KT 10SM FEW040 SCT130 BKN180 28/19 A2999 RMK AO2 SLP156 TCU DSNT SE-S T02780189 10294 20278 55005
KROG 062357Z 20013KT 10SM FEW026 SCT040 28/22 A2996 RMK AO2 SLP130 T02780222 10300 20267 56008
KROS 070015Z AUTO 33011G16KT 10SM CLR 19/11 A2996 RMK AO2 T01930114
KROW 062351Z 33006KT 10SM CLR 36/13 A2990 RMK AO2 SLP051 T03560133 10367 20300 56014
KROX 070014Z AUTO 33007KT 10SM OVC060 16/09 A3010 RMK AO2
KRPD 062355Z AUTO 35005KT 4SM HZ SCT026 SCT033 SCT044 18/14 A2995 RMK AO2 60008 T01830137 10187 20158
KRPH 062355Z AUTO 15010G19KT 10SM CLR 34/18 A2983 RMK AO2 T03350175 10345 20303
KRPJ 062355Z AUTO 21013G18KT 7SM RA SCT014 BKN037 BKN060 23/21 A2984 RMK AO2 LTG DSNT SE THRU W P0005 60007 T02270212 10270 20209
KRPX 062355Z AUTO 04002KT 40SM 23/06 A3005 RMK A01 T02270055
KRQB 070015Z AUTO 17004KT 10SM CLR 26/17 A2986 RMK AO2 T02580170
KRQE 062353Z AUTO 30010KT 10SM SCT070 BKN090 BKN110 20/11 A3023 RMK AO2 RAE2258B23E34 SLP128 P0000 60001 T02000111 10294 20200 55001 TSNO $
KRRL 062355Z AUTO 36006G15KT 7SM BKN015 OVC036 16/15 A2988 RMK AO2 60033 T01620146 10230 20155
KRRT 070014Z AUTO 31006KT 10SM OVC060 15/09 A3010 RMK AO2
KRSL 062353Z AUTO 03020G25KT 10SM CLR 24/18 A2994 RMK AO2 PK WND 01027/2319 SLP121 60001 T02390178 10250 20222 55004
KRSN 070015Z AUTO 17007KT 10SM SCT040 SCT048 SCT060 32/25 A3001 RMK AO2 T03170249
KRSP 062254Z AUTO 10SM BKN100 23/20 A3006 RMK AO2 SLP171 T02280200 $
KRST 062354Z 36013KT 1 3/4SM FU OVC027 19/14 A2994 RMK AO2 TWR VIS 2 1/2 SLP134 60015 T01890144 10250 20189 50011
KRSV 062355Z AUTO 20009KT 10SM CLR 28/23 A2994 RMK AO2 LTG DSNT NW T02840227 10306 20284
KRSW 062353Z 00000KT 10SM CLR 23/21 A3015 RMK AO2 LTG DSNT S AND SW RAB09E40 SLP206 P0006 60006 T02330211 10333 20228 50007
KRTN 062353Z AUTO 11004KT 10SM SCT020 BKN026 OVC080 18/15 A3024 RMK AO2 RAE00B18E52 SLP162 P0000 60005 T01780150 10189 20172 56005
KRTS 070010Z AUTO 11025G29KT 10SM -RA FEW029 FEW042 OVC090 21/10 A3012 RMK AO2 P0002
KRUE 062353Z AUTO 22004KT 10SM SCT060 OVC100 29/22 A2995 RMK AO2 SLP133 T02940222 10311 20289 55013
KRUQ 062355Z AUTO 36004KT 10SM SCT070 SCT080 BKN100 28/20 A3007 RMK AO2 T02770195 10318 20268
KRUT 070015Z AUTO 13007KT 10SM CLR 22/14 A3010 RMK AO1
KRVS 062353Z 17013G18KT 10SM BKN036 BKN047 OVC055 31/23 A2986 RMK AO2 SLP112 T03060233 10339 20306 55011
KRWF 062353Z AUTO 34015G26KT 10SM CLR 21/10 A3001 RMK AO2 PK WND 33028/2340 SLP160 T02060100 10239 20206 53012
KRWI 062353Z AUTO 19004KT 10SM CLR 29/21 A3006 RMK AO2 SLP177 T02940206 10333 20294 55001
KRWL 062353Z AUTO 05008KT 10SM FEW042 20/10 A3024 RMK AO2 SLP160 T02000100 10211 20161 56016
KRWV 062350Z AUTO 17014G19KT 10SM FEW041 30/23 A2998 RMK AO2
KRXE 062353Z AUTO 20005KT 10SM CLR 24/08 A3011 RMK AO2 SLP157 T02390078 10244 20211 58015
KRYN 062345Z 29011KT 10SM CLR 33/18 A2996
KRYT 062353Z AUTO 00000KT 10SM SCT040 24/22 A3004 RMK AO2 SLP161 60004 T02390217 10283 20233 58001 $
KRYV 062355Z AUTO 21007KT 10SM OVC033 25/23 A2981 RMK AO2 T02470230 10262 20230
KRYW 062355Z AUTO 17013G22KT 10SM CLR 31/19 A2996 RMK AO2 T03050194 10328 20304
KRYY 062347Z 28007KT 10SM SCT035 28/21 A3012
KRZL 070015Z AUTO 18008KT 10SM CLR 27/23 A2990 RMK AO2
KRZN 062355Z AUTO 34007KT 7SM SCT055 20/13 A2994 RMK AO2 60003 T02020126 10208 20151
KRZR 070015Z AUTO 20005KT 10SM CLR 26/20 A3009 RMK
KRZT 070014Z AUTO 22003KT 10SM CLR 24/17 A3002 RMK AO2 LTG DSNT E
KS39 070015Z AUTO 25014G20KT 10SM CLR 29/08 A3000 RMK AO2 LTG DSNT SW AND W
KSAA 062355Z AUTO 32008KT 10SM CLR 22/08 A3025 RMK AO2
KSAC 062353Z 21009KT 10SM CLR 33/14 A2990 RMK AO2 SLP125 T03280144 10333 20239 58026
KSAD 062351Z AUTO 29016G21KT 10SM CLR 36/13 A2990 RMK AO2 LTG DSNT NE SLP067 T03560133 10361 20311 56023
KSAF 062353Z 15008KT 10SM FEW065 22/12 A3018 RMK AO2 RAE20 SLP123 P0000 60000 T02220122 10272 20206 58006
KSAN 062351Z 29009KT 10SM SCT015 OVC019 21/16 A3000 RMK AO2 SLP158 T02110156 10217 20200 56015
KSAR 070015Z AUTO 17006KT 10SM CLR 28/24 A2995 RMK AO2 T02770235
KSAT 062351Z 14019KT 10SM FEW043 SCT250 31/22 A2994 RMK AO2 SLP119 T03110217 10333 20300 57015
KSAV 062353Z VRB03KT 6SM -TSRA FEW010 SCT024 BKN041CB 25/22 A3012 RMK AO2 TSB16RAB11 SLP199 OCNL LTGIC N-E TS N-E MOV NE P0009 60009 T02500222 10317 20250 53009
KSAW 062347Z 02012KT 10SM RA OVC005 13/12 A2986
KSAZ 070013Z AUTO 34009KT 10SM BKN050 16/07 A3006 RMK AO2
KSBA 062353Z 23007KT 10SM CLR 22/14 A2996 RMK AO2 SLP146 T02170144 10222 20178 58023
KSBD 062347Z 24010KT 7SM FEW080 30/11 A2994
KSBM 062353Z AUTO 22012KT 10SM FEW029 OVC120 26/21 A2980 RMK AO2 SLP086 T02610206 10278 20239 55012
KSBN 062354Z 19010KT 9SM CLR 28/21 A2991 RMK AO2 SLP122 T02780206 10300 20278 56015
KSBO 062355Z AUTO 29005KT 10SM SCT046 SCT090 28/22 A3009 RMK AO2 LTG DSNT SE
KSBP 062356Z 32014KT 10SM CLR 22/13 A2999 RMK AO2 SLP154 T02170133 10239 20206 56015
KSBS 070015Z AUTO 28003KT 10SM CLR 23/09 A3020 RMK AO1 T02250089
KSBY 062354Z 15006KT 10SM CLR 27/23 A3006 RMK AO2 SLP181 60031 T02670233 10306 20239 55003
KSCD 070015Z AUTO 00000KT 10SM CLR 28/23 A3011 RMK AO2 T02790225
KSCF 062355Z AUTO 15011KT 10SM 30/25 A3007 RMK A01
KSCH 062349Z 19005KT 10SM CLR 26/17 A3008
KSCK 062355Z 30017G24KT 10SM CLR 33/12 A2992 RMK AO2 PK WND 31027/2313 SLP132 T03280117 10333 20250 56021
KSCR 062355Z AUTO 11003KT 10SM SCT036 BKN047 BKN060 26/23 A3008 RMK AO2 T02600227 10305 20236
KSDA 062355Z AUTO 02013G18KT 8SM OVC029 21/19 A2992 RMK AO2
KSDB 062348Z AUTO 18014G19KT 10SM CLR 30/03 A3012 RMK AO2 SLP138 T03000028 10322 20272 56013 $
KSDF 062356Z 21009KT 10SM FEW040 FEW250 29/21 A2998 RMK AO2 SLP149 T02890211 10311 20289 58011
KSDL 062353Z 26008KT 10SM CLR 38/14 A2984 RMK AO2 SLP076 T03780144 10383 20328 56027
KSDM 070002Z AUTO 29006KT 10SM OVC017 21/16 A2998 RMK AO2 T02060161
KSDY 070015Z AUTO 01004KT 8SM CLR 22/09 A3016 RMK AO1
KSEA 062353Z 25009KT 10SM FEW040 BKN250 29/09 A2999 RMK AO2 SLP158 T02940094 10294 20222 56006
KSEE 062355Z AUTO 26009KT 10SM CLR 24/15 A2999 RMK AO2
KSEG 062353Z AUTO 00000KT 9SM FEW080 26/22 A3004 RMK AO2 SLP169 60000 T02560222 10289 20256 56007
KSEM 070015Z AUTO 00000KT 9SM CLR 29/23 A3009 RMK AO2
KSEP 062355Z AUTO 16012G20KT 7SM CLR 31/18 A2991 RMK AO2 T03100180 10330 20307
KSET 062354Z AUTO 17007KT 10SM CLR 28/23 A2988 RMK AO2 SLP113 60000 T02780228 10322 20267 55018
KSEZ 062355Z AUTO 00000KT 10SM SCT100 27/10 A3012 RMK AO2 LTG DSNT N
KSFB 062353Z 18006KT 10SM TS FEW070 FEW090 23/20 A3016 RMK AO2 LTG DSNT SE TSB46 SLP211 T02330200 10333 20233 56001
KSFF 062353Z 07006KT 10SM SCT120 33/05 A2995 RMK AO2 SLP125 T03280050 10344 20267 58020
KSFM 070015Z AUTO 00000KT 10SM CLR 21/14 A3012 RMK AO1
KSFO 062356Z 28014KT 10SM BKN180 22/13 A3002 RMK AO2 SLP167 6//// T02170128 10222 20189 58018
KSFQ 062355Z AUTO 14004KT 5SM -VCTSRA SCT018 SCT035 BKN070 26/24 A3006 RMK AO2 LTG DSNT N AND W P0003 60004 T02570235 10298 20240
KSFY 062355Z AUTO 22004KT 10SM SCT014 SCT075 BKN120 25/22 A2983 RMK AO2 LTG DSNT SW 60014 T02520217 10269 20236
KSFZ 070015Z AUTO 21004KT 10SM CLR 23/16 A3014 RMK AO1
KSGF 062352Z 17008KT 10SM FEW039 27/23 A2994 RMK AO2 RAB20E29 SLP123 P0000 60000 T02720228 10300 20272 55004
KSGH 061956Z AUTO 23010KT 7SM FEW045 29/18 A3008 RMK AO2 T02880177 SLP178
KSGJ 062358Z 00000KT 10SM -RA BKN110 25/21 A3015 RMK AO2 LTG DSNT NW TSE44RAB50 SLP208 P0000 60000 T02500211 10289 20250 55000
KSGR 062353Z 19013KT 10SM FEW032 31/23 A2998 RMK AO2 SLP151 T03110228 10333 20306 58018
KSGS 070013Z AUTO 35006G14KT 7SM SCT040 SCT050 SCT065 22/13 A2994 RMK AO2 T02170128
KSGT 070015Z AUTO 10SM CLR 30/23 A2995 RMK AO1
KSGU 070015Z AUTO 15011KT 10SM FEW120 31/11 A3001 RMK AO1
KSHD 062355Z AUTO 24003KT 10SM SCT060 25/22 A3008 RMK AO2 60005 T02500218 10285 20247
KSHL 062355Z AUTO 36015KT 6SM HZ CLR 21/14 A3002 RMK AO2
KSHM 062357Z AUTO 03009KT 10SM BKN013 BKN046 15/13 A3029 RMK AO2 SHRAE56
KSHN 062353Z AUTO 22017KT 10SM CLR 26/11 A2997 RMK AO2 SLP148 T02610111 10272 20206 56005
KSHR 062353Z AUTO 16004KT 10SM SCT027 BKN039 19/12 A3020 RMK AO2 SLP205 T01940122 10200 20139 58018 $
KSHV 062356Z 17008KT 10SM FEW060 SCT300 32/22 A2995 RMK AO2 SLP139 T03170222 10339 20317 58025
KSIF 070015Z AUTO 00000KT 5SM BR CLR 24/23 A3007 RMK AO2 T02360225
KSIY 062353Z AUTO 24007KT 10SM CLR 34/08 A2996 RMK AO2 SLP127 T03440078 10361 20289 TSNO
KSJC 062353Z 32014KT 10SM FEW035 SCT100 BKN160 23/14 A3001 RMK AO2 SLP162 T02330139 10250 20211 58013 $
KSJN 062354Z AUTO 30015G19KT 10SM SCT090 31/08 A3011 RMK AO2 LTG DSNT S SLP091 T03060083 10311 20261 56016
KSJS 062355Z AUTO 18004KT 10SM CLR 26/21 A3008 RMK AO2 T02580210 10272 20254
KSJT 062351Z 17014G21KT 10SM FEW065 33/18 A2988 RMK AO2 SLP089 T03330183 10356 20328 56019
KSJX 070017Z AUTO 22005KT 1 1/4SM RA SCT013 SCT021 OVC039 18/17 A2979 RMK AO2 T01780172
KSKA 062358Z AUTO 08005KT 10SM FEW120 32/05 A2996 RMK AO2 SLP130 60000 T03240047 10327 20253 403270155 57019
KSKF 062359Z 14015KT 10SM SCT055 SCT250 30/22 A2992 RMK AO2A SLP124 T03020223 10322 20302 $
KSKX 070015Z AUTO 12006KT 10SM CLR 21/10 A3024 RMK AO1
KSLB 062355Z AUTO 02011G18KT 3SM HZ SCT035 SCT042 22/16 A3000 RMK AO2
KSLC 062353Z 12011KT 10SM SCT095 BKN110 BKN150 BKN220 27/14 A3005 RMK AO2 LTG DSNT S SLP122 RAB04E25 TSE25 CB DSNT E AND S P0000 60000 T02670144 10317 20233 58001
KSLE 062356Z 27007KT 10SM CLR 32/13 A2995 RMK AO2 SLP139 TCU DSNT E T03170128 10333 20256 56007
KSLG 070015Z AUTO 19008G14KT 10SM FEW029 SCT034 27/21 A2996 RMK AO1
KSLH 070013Z AUTO 17004KT 7SM CLR 26/17 A2978 RMK AO2 T02610180
KSLI 062358Z AUTO 22010KT 10SM CLR 23/16 A2996 RMK AO2 SLP148 T02280162 10240 20203 57017
KSLK 062351Z AUTO 23003KT 10SM CLR 23/11 A3007 RMK AO2 SLP179 T02330111 10267 20233 56007
KSLN 062353Z 02014KT 10SM BKN017 OVC027 23/20 A2992 RMK AO2 SLP119 60022 T02330200 10328 20233 53009
KSLO 070015Z AUTO 19005KT 10SM CLR 29/24 A2994 RMK AO2 T02920235
KSLR 062355Z AUTO 19009KT 7SM CLR 31/20 A2992 RMK AO2 T03100204 10329 20307
KSME 062355Z AUTO 00000KT 10SM CLR 26/19 A3006 RMK AO2
KSMF 062353Z 19008KT 10SM FEW250 33/15 A2989 RMK AO2 SLP122 T03280150 10328 20244 56024
KSMN 070015Z AUTO 36013G20KT 10SM CLR 31/03 A2996 RMK AO1
KSMO 062351Z 25008KT 10SM OVC012 18/16 A2998 RMK AO2 SLP150 T01830156 10211 20172 58018
KSMQ 062353Z AUTO 00000KT 9SM FEW019 SCT040 BKN048 23/21 A3008 RMK AO2 RAB13E41 SLP185 P0001 60033 T02330211 10294 20233 58004
KSMS 070015Z AUTO 16004KT 10SM OVC014 28/22 A3008 RMK AO2
KSMX 062351Z 31014KT 10SM FEW020 22/14 A3000 RMK AO2 SLP160 T02170139 10228 20183 56017
KSNA 062353Z 24007KT 10SM FEW020 SCT042 22/16 A2997 RMK AO2 SLP146 TCU N-NE T02220156 10239 20200 58016
KSNC 062355Z AUTO 19004KT 10SM BKN090 22/18 A3014 RMK AO2
KSNH 070015Z AUTO 21007KT 10SM CLR 28/00 A3004 RMK
KSNK 062355Z AUTO 22017KT 10SM SCT060 SCT075 BKN110 28/20 A2990 RMK AO2 T02840202 TSNO
KSNL 062015Z AUTO 19010KT SCT031 SCT060 BKN075 31/25 A2995 RMK AO2 PWINO
KSNS 062353Z AUTO 27011G17KT 10SM CLR 22/13 A3003 RMK AO2 SLP176 T02170128 10228 20189 58012 TSNO
KSNT 062351Z AUTO 00000KT 21/09 A3022 RMK AO1 SLP151 T02060089 10261 20178 58002
KSNY 062353Z AUTO 05011KT 3SM HZ BKN040 OVC050 20/11 A3022 RMK AO2 SLP196 T02000111 10217 20194 58007
KSOA 062355Z AUTO 16012G19KT 9SM CLR 32/19 A2997 RMK AO2
KSOP 070015Z AUTO 00000KT 10SM CLR 24/21 A3007 RMK AO1
KSOW 070015Z AUTO 26007KT 10SM CLR 24/09 A3021 RMK AO2
KSPA 070015Z AUTO 24003KT 10SM 29/18 A3007 RMK AO2
KSPB 062353Z AUTO 35010KT 10SM CLR 31/16 A2994 RMK AO2 SLP138 T03060156 10317 20228 56010
KSPD 062356Z AUTO 01017KT 19/15 A3014 RMK AO1 SLP152 60008 T01940150 10233 20183 58007
KSPF 062355Z AUTO 34007KT 10SM CLR 19/12 A3022 RMK AO2
KSPG 062353Z 08005KT 10SM BKN035 OVC047 30/23 A3012 RMK AO2 SLP198 60000 T03000228 10317 20283 53001
KSPI 062352Z COR 17011KT 10SM CLR 29/22 A2987 RMK AO2 SLP109 T02890217 10317 20289 56016
KSPL 070015Z AUTO 23010KT 1SM CLR 28/25 A2995 RMK AO1
KSPR 062355Z AUTO 15012KT 10SM FEW022 30/24 A3008 RMK A01
KSPS 062352Z 18017KT 10SM BKN060 33/20 A2981 RMK AO2 SLP079 T03330200 10339 20311 56026
KSPW 070005Z AUTO 35016KT 3SM HZ BKN034 OVC042 22/14 A3001 RMK AO2 T02220139
KSQE 062355Z AUTO 13006KT 9SM FEW021 FEW034 30/25 A3009 RMK A01
KSQI 070015Z AUTO 25004KT 10SM FEW120 23/21 A2983 RMK AO1 LTG DSNT SE
KSQL 062247Z 26009G14KT 10SM FEW200 24/13 A3005
KSRB 070015Z AUTO 00000KT 10SM CLR 28/23 A3007 RMK
KSRC 062356Z AUTO 21005KT 10SM FEW048 BKN060 OVC080 29/24 A2996 RMK AO2 SLP148 60010 T02890244 10311 20272 56021 TSNO
KSRQ 070002Z AUTO 18004KT 10SM VCTS BKN023 BKN028 29/23 A3013 RMK AO2 LTG DSNT S T02890233
KSRR 062355Z AUTO 00000KT 10SM SCT075 BKN120 22/15 A3019 RMK AO2
KSSC 062358Z AUTO 19006KT 10SM CLR 29/21 A3006 RMK AO2 SLP179 T02890214 10314 20289 $
KSSF 062353Z 14014G20KT 10SM CLR 31/22 A2991 RMK AO2 SLP117 T03110222 10333 20311 56015
KSSI 062353Z AUTO 17008KT 10SM FEW050 SCT065 BKN080 26/22 A3012 RMK AO2 LTG DSNT SW SLP199 60001 T02610222 10300 20261 53002
KSTC 062353Z 34015G21KT 10SM SCT049 19/09 A2999 RMK AO2 SLP162 T01890089 10239 20189 53011
KSTE 062355Z AUTO 33011KT 10SM OVC007 18/17 A2984 RMK AO2 P0003 60100 T01750166 10245 20175
KSTF 070015Z AUTO 17003KT 10SM CLR 28/23 A3005 RMK AO2
KSTJ 070011Z AUTO 5SM VCTS RA BR BKN026 BKN031 OVC045 23/22 A2987 RMK AO2 LTG DSNT SE AND S P0003 T02280217 $
KSTK 070005Z AUTO 04006KT 5SM HZ OVC055 20/12 RMK AO2
KSTL 062351Z 17008KT 10SM FEW055 SCT100 SCT150 BKN250 29/23 A2990 RMK AO2 SLP113 60014 T02940228 10322 20261 55016
KSTP 062353Z 35010KT 5SM HZ FEW050 BKN060 22/14 A2994 RMK AO2 SLP134 60025 T02170139 10217 20172 51004
KSTS 062353Z 18009KT 10SM SCT250 27/13 A2997 RMK AO2 SLP142 T02670128 10278 20194 58017
KSUA 070015Z AUTO 00000KT 10SM CLR 27/22 A3018 RMK AO2 LTG DSNT ALQS
KSUE 070015Z AUTO 16004KT 3SM FEW065 OVC090 20/18 A2978 RMK AO1
KSUN 062350Z 21005KT 10SM FEW060 BKN150 22/13 A3014
KSUS 062354Z 19004KT 10SM FEW055 SCT100 BKN250 29/24 A2988 RMK AO2 SLP110 60002 T02890244 10317 20244 55014
KSUT 062258Z AUTO 19007KT 10SM CLR 27/22 A3011 RMK AO2
KSUU 062358Z AUTO 26016KT 10SM CLR 30/13 A2990 RMK AO2 PK WND 26028/51 SLP131 T02990125 10304 20213 57019 PNO $
KSUW 062355Z AUTO 35011G16KT 10SM SCT060 19/11 A2995 RMK AO2 60004 T01900109 10206 20156
KSUX 070003Z 01017KT 2SM HZ SCT030 OVC040 23/14 A3000 RMK AO2 T02330144
KSVC 070015Z AUTO 04016G20KT 10SM 27/10 A3011 RMK AO2
KSVH 062355Z AUTO 00000KT 10SM BKN100 26/19 A3007 RMK AO2 T02560194 10316 20245
KSVN 070010Z AUTO 06003KT 10SM TS SCT031 BKN075 BKN120 23/22 A3010 RMK AO2 LTG DSNT NW-N RAE07DZB07E09RAB09E10 TSE04TSB09
KSWF 062345Z VRB05KT 5SM HZ BKN080 27/21 A3012
KSWO 062353Z AUTO 17019KT 10SM FEW038 31/23 A2982 RMK AO2 SLP083 T03110228 10339 20311 55016 TSNO
KSWW 062355Z AUTO 17015G23KT 10SM CLR 33/19 A2991 RMK AO2 LTG DSNT SW AND W T03250189 10335 20305
KSXS 062356Z AUTO 33001KT 10SM CLR 30/22 A3012 RMK AO2 SLP198 T03030217 10320 20289
KSXT 062356Z AUTO 10SM CLR 28/14 A3009 RMK AO2 SLP121 T02830144 10306 20250 58013
KSYF 062355Z AUTO 02010G15KT 4SM HZ SCT045 BKN050 23/10 A3012 RMK AO2 T02280101 10243 20192
KSYI 070015Z AUTO 19006KT 10SM CLR 28/23 RMK
KSYM 070010Z AUTO 18004KT 8SM FEW043 SCT050 25/20 A3006 RMK AO2
KSYN 062345Z AUTO 02006KT 2 1/2SM BKN029 OVC050 21/15 A2994 RMK AO2
KSYR 062354Z 16009KT 10SM BKN200 BKN240 27/19 A3001 RMK AO2 SLP158 T02670194 10289 20267 56007
KSZL 070011Z 19006KT 10SM VCTS SCT025 BKN050 OVC180 27/24 A2985 RMK LTG DSNT NW
KSZT 070015Z AUTO 10005KT 10SM CLR 29/07 A2998 RMK AO2
KT20 062355Z AUTO 17009G14KT 10SM SCT038 SCT050 30/23 A2995 RMK AO2 60021 T03040233 10332 20304
KT35 062355Z AUTO 16010G16KT 10SM SCT041 SCT049 SCT055 31/22 A2993 RMK AO2 T03100224 10333 20307
KT65 062355Z AUTO 15016G22KT 7SM SCT034 31/23 A2992 RMK AO2 T03120228 10334 20311
KT82 062355Z AUTO 16012G16KT 10SM SCT050 29/18 A2995 RMK AO2 T02900178 10311 20290
KTAD 062354Z AUTO 08009KT 10SM SCT010 BKN047 OVC090 17/16 A3023 RMK AO2 RAE45 SLP173 P0002 60007 T01670156 10189 20167 58003
KTAN 062352Z AUTO 18005KT 10SM CLR 24/17 A3012 RMK AO2 SLP200 T02390172 10306 20239 55001
KTAZ 062355Z AUTO 18008G14KT 10SM CLR 26/22 A2991 RMK AO2
KTBN 062358Z AUTO 20005KT 10SM CLR 28/24 A2993 RMK AO2 SLP127 T02760238 10298 20276
KTBX 070015Z AUTO 00000KT 10SM SCT023 OVC029 15/10 A3040 RMK AO2
KTCC 070014Z AUTO 04015G22KT 10SM -TSRA BKN044 OVC090 23/16 A3008 RMK AO2 LTG DSNT W-NE RAB09 TSE2356B08 P0000 T02280161
KTCL 062353Z 18005KT 8SM CLR 29/22 A3008 RMK AO2 SLP183 T02940222 10306 20283 56016
KTCM 062358Z AUTO VRB06KT 10SM CLR 29/12 A2997 RMK AO2 SLP151 T02910120 10294 20235 57005 $
KTCS 062353Z AUTO 32004KT 10SM BKN110 32/09 A3000 RMK AO2 SLP064 T03170094 10339 20294 56021 TSNO
KTDF 062355Z AUTO 20003KT 10SM CLR 27/21 A3007 RMK AO2
KTDR 062356Z AUTO 27004KT 10SM CLR 28/23 A3010 RMK AO2 SLP196 T02760234 10285 20257 TSNO $
KTDZ 062353Z AUTO 18006KT 10SM CLR 27/17 A2996 RMK AO2 SLP143 T02670172 10294 20267 56011
KTEB 062351Z 17008KT 10SM CLR 26/18 A3009 RMK AO2 SLP189 T02560183 10289 20256 58003
KTEW 070014Z AUTO 17005KT 7SM CLR 24/19 A2992 RMK AO2 T02400185
KTEX 070015Z AUTO 29010G16KT 10SM OVC080 21/05 A3036 RMK AO2 LTG DSNT NW T02130047
KTFP 062355Z AUTO 14015G19KT 10SM SCT015 30/26 A2996 RMK AO2 T03020255
KTGI 062358Z AUTO 17011G18KT 10SM CLR 27/23 A3005 RMK AO1
KTHA 070015Z AUTO 00000KT 10SM CLR 26/21 A3009 RMK
KTHV 062353Z AUTO 14005KT 10SM SCT110 23/21 A3004 RMK AO2 RAE31 TSB2255E16B20E35 SLP171 P0001 60003 T02330211 10283 20233 50001
KTIF 062355Z AUTO 36010G15KT 7SM SCT045 SCT060 22/13 A3014 RMK AO2 T02180130 10236 20217
KTIK 062358Z AUTO 17014KT 10SM FEW037 30/23 A2985 RMK AO2 SLP100 T03010230 10315 20297
KTIP 062355Z AUTO 20009KT 10SM SCT028 SCT035 29/24 A2990 RMK AO2 6//// T02910239
KTIW 062353Z 28007KT 10SM CLR 29/11 A2998 RMK AO2 SLP147 T02890106 10289 20206 56007
KTIX 062347Z VRB06KT 5SM BR BKN070 22/21 A3016
KTKC 070013Z AUTO 36016G24KT 10SM CLR 19/12 A3006 RMK AO2 T01940117
KTKI 062353Z 18017KT 10SM SCT055 32/20 A2987 RMK AO2 PK WND 18030/2310 SLP109 T03170200 10333 20311 58030
KTKV 062355Z AUTO 34007KT 4SM BR OVC036 15/13 A2990 RMK AO2 T01480130 10221 20146
KTLH 062353Z 28004KT 10SM FEW050 FEW150 SCT250 30/23 A3010 RMK AO2 SLP192 60006 T03000228 10322 20272 55008
KTMA 062355Z AUTO 29005KT 10SM CLR 29/19 A3010 RMK AO2 T02860191
KTMB 062353Z 09006KT 10SM CLR 29/24 A3011 RMK AO2 SLP196 T02890239 10333 20283 55008
KTME 070015Z AUTO 18011KT 10SM CLR 30/23 A2998 RMK AO2
KTMK 070015Z AUTO 25009KT 10SM CLR 20/13 A3007 RMK AO2
KTNB 070015Z AUTO 29006KT 7SM CLR 22/15 A3021 RMK AO2 LTG DSNT N T02170152
KTNU 062355Z AUTO 34008G16KT 5SM BR FEW013 BKN018 BKN035 22/22 A2989 RMK AO2 P0001 PWINO
KTOA 062247Z 30010KT 10SM SCT007 SCT020 22/17 A3000
KTOB 070014Z AUTO 36010KT 2 1/2SM HZ 19/15 A2996 RMK AO2 SKY OBSCURED
KTOC 062355Z AUTO 22003KT 10SM CLR 25/20 A3009 RMK AO2 T02540201 10316 20254
KTOI 062353Z AUTO 00000KT 10SM CLR 29/22 A3011 RMK AO2 SLP191 T02940217 10317 20294 56010
KTOL 062352Z 16004KT 8SM CLR 26/18 A2995 RMK AO2 SLP137 T02610178 10289 20261 56011
KTOP 062353Z 11003KT 9SM -RA SCT039 SCT070 BKN110 22/22 A2988 RMK AO2 LTG DSNT E-S TSB08E23 SLP110 P0016 60145 T02220217 10333 20217 50028
KTOR 062353Z AUTO 00000KT 4SM HZ OVC038 18/11 A3022 RMK AO2 SLP203 T01830111 10194 20167 56010
KTPA 062353Z 36004KT 10SM FEW035TCU BKN150 29/22 A3014 RMK AO2 SLP204 TCU S 60001 T02940217 10317 20256 55002
KTPF 070015Z AUTO 00000KT 10SM CLR 30/23 A3014 RMK AO2
KTPH 062356Z AUTO 09025G36KT 10SM CLR 31/04 A3012 RMK AO2 PK WND 10039/2341 SLP116 T03060039 10333 20283 56011
KTPL 070015Z AUTO 16021G26KT 10SM SCT044 SCT050 31/21 A2990 RMK AO1
KTQE 062354Z AUTO 36013G18KT 2 1/2SM HZ BKN028 OVC035 24/17 A2996 RMK AO2 PK WND 01026/2309 SLP135 60002 T02390167 10272 20239 50008
KTQH 070015Z AUTO 19008KT 10SM CLR 28/22 A2994 RMK AO2
KTRI 062353Z 26003KT 7SM CLR 26/18 A3011 RMK AO2 SLP170 T02610178 10283 20261 56010
KTRK 062345Z 26013G17KT 10SM BKN090 26/07 A3020 RMK NO 10270
KTRL 062353Z AUTO 18012G21KT 7SM CLR 32/21 A2989 RMK AO2 SLP115 T03170211 10328 20311 58031
KTRM 062352Z AUTO VRB03KT 10SM CLR 40/06 A2974 RMK AO2 SLP072 T04000061 10411 20367 58027 TSNO
KTSP 070015Z AUTO 31012G19KT 10SM CLR 27/12 A3009 RMK AO2
KTTA 062355Z AUTO 19005KT 10SM CLR 27/21 A3007 RMK AO2 T02700209 10315 20270
KTTD 062353Z 10SM CLR 34/12 A2991 RMK AO2 SLP127 T03390117 10339 20250 56017
KTTF 070014Z AUTO 00000KT 10SM CLR 25/19 A2994 RMK AO2 T02510190
KTTN 062353Z 12008KT 10SM SCT024 25/22 A3007 RMK AO2 SLP176 60009 T02500217 10294 20250 55001
KTTS 062358Z AUTO 20007KT 10SM -RA OVC100 23/21 A3015 RMK AO2 LTG DSNT SW RAB2258 TSE05TSB09E31 CIG 060 RWY33 SLP214 P0005 60005 T02290212 10311 20229 $
KTUL 062353Z 17018G22KT 10SM SCT037 BKN050 BKN060 OVC250 31/24 A2985 RMK AO2 PK WND 18027/2304 SLP100 T03060239 10333 20306 55005
KTUP 062353Z 21007KT 10SM FEW032 28/23 A3004 RMK AO2 SLP169 T02830233 10294 20267 58019
KTUS 062353Z 30012G16KT 10SM BKN075 34/16 A2997 RMK AO2 SLP096 60000 T03440156 10356 20311 56016
KTVC 062353Z 20006KT 6SM HZ SCT085 BKN210 28/18 A2978 RMK AO2 SLP082 T02780178 10300 20278 55017
KTVF 070015Z AUTO 32012KT 10SM OVC050 16/07 A3011 RMK AO1
KTVI 062355Z AUTO 00000KT 10SM CLR 28/22 A3012 RMK AO2
KTVK 062355Z AUTO 33006KT 10SM -RA BKN001 BKN060 22/22 A2989 RMK AO2 P0023
KTVL 070006Z AUTO 07009KT 10SM VCTS BKN075 OVC095 23/05 A3022 RMK AO2 LTG DSNT NE AND SE TSE00 T02330050
KTVR 062353Z AUTO 18006KT 10SM CLR 30/23 A3002 RMK AO2 SLP172 T03000233 10317 20300 56024
KTWF 062353Z 32008KT 10SM CLR 32/08 A3003 RMK AO2 LTG DSNT S AND NW SLP106 T03170083 10322 20250 58011
KTWM 070014Z AUTO 32003KT 10SM CLR 19/12 A2994 RMK AO2
KTXK 062353Z 18008KT 9SM CLR 31/23 A2993 RMK AO2 SLP130 T03060228 10328 20306 58028
KTYQ 062355Z AUTO 20006KT 10SM CLR 28/19 A2996 RMK AO2 T02770191 10294 20276
KTYR 062353Z 17010KT 10SM FEW047 FEW055 31/22 A2992 RMK AO2 SLP124 T03110222 10333 20306 58033
KTYS 062353Z 22004KT 10SM FEW040 27/20 A3007 RMK AO2 SLP171 T02720200 10289 20267 58010
KTZR 062355Z AUTO 21004KT 10SM CLR 25/19 A3002 RMK AO2 T02500187 10279 20250
KU16 062158Z AUTO 01011KT 10SM SCT090 BKN120 31/09 A3006 RMK AO2 PK WND 01028/2121 WSHFT 2119 SLP798 T03060094 $
KU42 070015Z AUTO 13008KT 10SM SCT085 24/13 A3009 RMK AO1 T02410132
KU68 062355Z AUTO 21003KT 10SM CLR 25/06 A3013 RMK AO2
KUAO 062353Z AUTO 26005KT 10SM CLR 32/13 A2995 RMK AO2 SLP139 T03170133 10322 20244 58014
KUBE 062355Z AUTO 36006KT 4SM HZ SCT035 BKN044 18/13 A2994 RMK AO2
KUCP 062356Z AUTO 00000KT CLR 25/22 A3002 RMK AO2 56007 T02500216 10272 20238 SLP174 $
KUCY 070015Z AUTO 19006KT 10SM CLR 28/00 A2998 RMK
KUDG 070015Z AUTO 16005KT 10SM CLR 29/20 A3008 RMK AO1
KUES 062345Z 19007KT 10SM BKN120 24/20 A2984
KUGN 062355Z 00000KT 10SM CLR 24/22 A2982 RMK AO2 SLP088 60040 T02440217 10294 20211 58012
KUIL 070005Z AUTO 21010KT 7SM BKN018 19/13 A3005 RMK AO2 T01940133
KUIN 062354Z AUTO 19009KT 9SM CLR 28/23 A2983 RMK AO2 SLP092 T02830233 10311 20283 56018
KUKF 062355Z AUTO 00000KT 10SM CLR 25/21 A3015 RMK AO2
KUKI 062356Z AUTO 25007G17KT 10SM CLR 31/12 A2996 RMK AO2 SLP139 T03110117 10328 20217 58016
KUKT 070015Z AUTO 10004KT 10SM FEW003 SCT015 BKN090 23/22 A3008 RMK AO1 P0001
KULM 070014Z AUTO 34010G19KT 7SM CLR 21/11 A3000 RMK AO2
KUNI 062350Z AUTO 22003KT 10SM CLR 26/18 A3002 RMK AO2 LTG DSNT SE T02560184 10284 20256
KUNO 062353Z AUTO 18006KT 10SM FEW026 FEW033 SCT040 28/22 A2998 RMK AO2 SLP138 T02780222 10300 20278 55010
KUNU 062355Z AUTO 20008KT 10SM SCT022 BKN090 BKN110 25/21 A2983 RMK AO2 T02470211 10267 20227
KUNV 062353Z 00000KT 10SM SCT070 22/21 A3006
KUOX 062355Z AUTO 18007KT 8SM CLR 27/22 A3005 RMK AO2 PWINO PNO
KUTA 070015Z AUTO 17008KT 10SM CLR 28/23 A3000 RMK AO2
KUTS 062353Z AUTO 16008KT 10SM FEW045 32/22 A2997 RMK AO2 SLP142 T03170217 10333 20317 58021
KUUU 062353Z AUTO 19008KT 10SM CLR 22/17 A3014 RMK AO2 SLP206 T02170172 10256 20217 56002
KUVA 070015Z AUTO 13012G16KT 10SM CLR 32/21 A2991 RMK AO2 T03150210
KUXL 062355Z AUTO 16011KT 10SM SCT027 SCT033 SCT047 30/24 A3004 RMK AO2 T03040238 10335 20303
KUYF 070015Z AUTO 20005KT 10SM CLR 24/17 A3002 RMK AO2 LTG DSNT SE
KUZA 062354Z AUTO 20005KT 10SM CLR 29/19 A3007 RMK AO2 SLP168 T02940194 10322 20294 55000
KVAD 062358Z AUTO 29004KT 10SM CLR 29/20 A3009 RMK AO2 SLP190 T02940202 10320 20294 $
KVAF 062355Z AUTO 18013KT 3SM HZ FEW017 SCT026 29/26 A3002 RMK A01
KVAY 062354Z AUTO 13004KT 10SM CLR 26/21 A3007 RMK AO2 LTG DSNT W SLP181 T02610211 10294 20261 55002
KVBG 070016Z AUTO 31014KT 10SM OVC011 18/14 A3002 RMK AO2
KVBS 062355Z AUTO VRB04G12KT 10SM CLR 30/26 A3002 RMK A01
KVBT 070015Z AUTO 20008G14KT 10SM CLR 27/21 A2996 RMK AO1
KVBW 062355Z AUTO 00000KT 10SM SCT028 SCT070 23/22 A3005 RMK AO2 60007 T02330220 10263 20222
KVCB 062353Z AUTO 27012G20KT 10SM CLR 33/12 A2992 RMK AO2 SLP131 T03280117 10350 20256 58018
KVCT 062351Z 17017G22KT 9SM FEW055 31/24 A2997 RMK AO2 SLP147 60000 T03060239 10328 20300 56016
KVCV 062355Z AUTO 18017G22KT 10SM CLR 36/07 A2995 RMK AO2
KVDF 070015Z AUTO 00000KT 10SM CLR A3015 RMK AO2
KVDI 062355Z AUTO 00000KT 7SM SCT046 BKN065 SCT100 29/20 A3009 RMK AO2 LTG DSNT E
KVEL 062353Z AUTO 34010KT 10SM BKN110 23/09 A3011 RMK AO2 LTG DSNT SE-W SLP140 60002 T02280094 10294 20217 56011
KVER 070015Z AUTO 19003KT 10SM CLR 28/23 A2986 RMK AO2 LTG DSNT N T02800230
KVES 062355Z AUTO 00000KT 10SM CLR 26/18 A3000 RMK AO2
KVGT 062353Z 11010G15KT 10SM CLR 37/10 A2990 RMK AO2 SLP110 T03670100 10372 20306 56018
KVIH 062353Z AUTO 20008KT 10SM FEW030 FEW037 27/23 A2992 RMK AO2 SLP119 60000 T02720228 10294 20244 55008
KVIS 070015Z AUTO 30012KT 10SM CLR 33/17 A2987 RMK AO1
KVJI 062355Z AUTO 00000KT 10SM CLR 25/19 A3015 RMK AO2 T02460191 10264 20236
KVKY 062355Z AUTO 14006KT 10SM FEW021 SCT025 BKN049 30/25 A3011 RMK A01
KVLD 062353Z 00000KT 10SM SCT080 29/22 A3010 RMK AO2 SLP200 T02940217 10322 20294 55004
KVLL 070015Z AUTO 18009KT 10SM CLR 28/16 A2996 RMK AO2 T02750164
KVNC 062355Z AUTO 11005KT 10SM BKN027 29/22 A3015 RMK AO2 LTG DSNT N AND NW
KVNY 062351Z 12009KT 10SM CLR 26/15 A2994 RMK AO2 SLP131 T02610150 10283 20206 56018
KVOA 062355Z AUTO VRB05KT 10SM CLR 30/24 A3011 RMK A01
KVOK 062358Z 33016G21KT 10SM SCT007 BKN020 OVC040 19/19 A2984 RMK AO2A PK WND 28026/13 SLP104 60014 53005
KVPC 062353Z AUTO 00000KT 10SM FEW041 SCT070 27/21 A3010 RMK AO2 SLP180 T02720211 10289 20272 55003
KVPS 062355Z 22005KT 10SM FEW040 SCT200 30/22 A3009 RMK AO2A SLP195 T03000221 10323 20292 57011 $
KVPZ 070012Z AUTO 19011G23KT 2SM RA BKN033 BKN047 OVC095 24/21 A2992 RMK AO2 WSHFT 2357 RAB02 P0009 T02390211 TSNO
KVQQ 062350Z 18010KT 2SM RA OVC003 22/21 A3015
KVQT 062355Z AUTO 16008G15KT 10SM BKN019 BKN024 BKN037 31/26 A3007 RMK A01
KVRB 070013Z AUTO 31019G30KT 10SM FEW021 BKN055 BKN075 25/18 A3020 RMK AO2 PK WND 29032/0000 WSHFT 2353 LTG DSNT SW-NW T02500183
KVSF 062354Z AUTO 33003KT 10SM CLR 24/16 A3010 RMK AO2 SLP190 T02390161 10289 20239 55003 TSNO
KVTA 062354Z AUTO 22006KT 10SM CLR 27/17 A3001 RMK AO2 SLP154 T02670172 10306 20267 58002
KVTI 070015Z AUTO 34008G14KT 10SM BKN018 BKN025 OVC030 23/20 A2987 RMK AO2 T02270198
KVTN 062352Z AUTO 01012G18KT 10SM FEW047 SCT055 SCT075 22/12 A3013 RMK AO2 SLP190 T02220117 10239 20217 58009
KVTP 070013Z AUTO 1/2SM RA OVC002 08/07 A3048 RMK AO2 LTG DSNT N P0003
KVUJ 062355Z AUTO 16010KT 10SM SCT060 SCT080 SCT090 28/22 A3010 RMK AO2 T02820218 10325 20282
KVUO 062353Z AUTO 31008KT 10SM CLR 33/13 A2992 RMK AO2 SLP133 T03280133 10328 20244 56015
KVVG 062355Z AUTO 10004KT 9SM A3005 RMK A01
KVVV 070013Z AUTO 36015G21KT 10SM CLR 19/09 A3007 RMK AO2
KVWU 070011Z AUTO 35007KT 313V013 10SM BKN048 OVC055 14/08 A3007 RMK AO2
KVYS 062355Z AUTO 28012KT 10SM VCTSRA BKN022 BKN030 24/20 A2985 RMK AO2 LTG DSNT SW THRU NW T02410203 10293 20241
KW13 070015Z AUTO 21003KT 10SM CLR 24/20 A3008 RMK AO1 T02360202
KW22 062355Z AUTO 22005KT 9SM CLR 23/20 A3008 RMK AO2
KW29 070012Z AUTO 16005KT 10SM 28/21 A3003 RMK AO1 LTG DSNT S AND SW
KW31 070015Z AUTO 00000KT 10SM CLR 25/23 A3005 RMK AO1 T02460225
KW43 062355Z AUTO 00000KT 10SM OVC050 18/11 A3023 RMK AO2
KW63 062355Z AUTO 00000KT 5SM CLR 23/23 A3005 RMK AO1
KW75 070015Z AUTO 27005KT 10SM BKN028 BKN038 OVC060 24/21 A3006 RMK AO1 T02430212
KW78 062355Z AUTO 10SM CLR 26/22 A3006 RMK AO1 60005 T02610217 10295 20243
KW81 070015Z AUTO 00000KT 10SM CLR 23/23 A3005 RMK AO1 T02320225
KW96 061930Z AUTO 17005KT 10SM SCT037 SCT046 BKN060 29/22 A3005 RMK AO1 T02910222
KW99 062355Z AUTO 00000KT 10SM CLR 22/19 A3005 RMK AO2 60071 T02190192 10276 20217
KWAL 062354Z AUTO 18008KT 10SM CLR 25/23 A3007 RMK AO2 SLP179 T02500233 10289 20250 55007
KWDG 062350Z 17014G23KT 7SM SCT130 BKN180 BKN200 33/22 A2978
KWDR 062355Z AUTO 22003KT 10SM CLR 27/23 A3012 RMK AO1 LTG DSNT SE
KWHP 062049Z 12005 10SM SKC 24/14 A3004
KWJF 062356Z 23015G23KT 10SM CLR 34/07 A2994 RMK AO2 SLP117 T03440072 10367 20333 56012
KWLD 070013Z AUTO 29004KT 3SM +TSRA BR FEW042 BKN070 OVC095 21/21 A2990 RMK AO2 LTG DSNT ALQDS P0009 T02110206
KWMC 062256Z AUTO 25009G17KT 10SM CLR 33/03 A3006 RMK AO2 SLP130 T03330028
KWRB 062358Z AUTO 15006KT 10SM SCT043 26/23 A3007 RMK AO2 SLP183 60001 T02590233 10299 20259
KWRI 062358Z AUTO 12007KT 10SM CLR 25/23 A3007 RMK AO2 SLP181 T02490227 10295 20249 50001
KWRL 062353Z AUTO 31005KT 8SM CLR 23/11 A3014 RMK AO2 SLP177 T02330111 10239 20172 56018
KWST 062353Z AUTO 21005KT 10SM CLR 23/17 A3014 RMK AO2 SLP206 T02280172 10267 20228 57004 $
KWVI 062353Z AUTO 14007KT 10SM CLR 21/14 A3002 RMK AO2 SLP165 T02060139 10228 20178 58019
KWVL 070015Z AUTO 19005KT 10SM CLR 23/16 A3007 RMK AO1
KWWD 070015Z AUTO 14009KT 10SM SCT006 24/22 A3009 RMK AO1
KWWR 062355Z AUTO 33022G31KT 10SM OVC035 28/19 A2993 RMK AO2 LTG DSNT E AND S
KWYS 070010Z AUTO 00000KT 10SM CLR 19/10 A3021 RMK AO2
KXBP 070015Z AUTO 17009G17KT 10SM CLR 32/20 A2986 RMK AO2 T03180201
KXIH 062355Z AUTO 19014KT 10SM FEW023 FEW033 30/24 A3000 RMK A01
KXLL 062355Z AUTO 06006KT 10SM SCT021 OVC031 26/22 A3007 RMK AO2 LTG DSNT S
KXMR 062358Z AUTO 20005KT 10SM CLR 25/22 A3015 RMK AO2 LTG DSNT W RAB25E39DZB39E45 PRESFR SLP213 P0000 60000 T02470219 10308 20246 $
KXNA 062353Z 19007KT 10SM FEW029 SCT041 BKN055 28/23 A2994 RMK AO2 SLP123 T02780233 10294 20272 56010
KXPY 062355Z AUTO 16011KT 9SM 31/25 A3009 RMK A01
KXSA 062355Z AUTO 11003KT 10SM VCTS SCT120 24/22 A3006 RMK AO2 LTG DSNT N THRU SE T02410215 10311 20239
KXVG 070016Z AUTO 33006G14KT 10SM BKN050 OVC055 15/07 A3005 RMK AO2
KY19 062355Z AUTO 02009KT 8SM SCT043 19/12 A3016 RMK AO2
KY23 062355Z AUTO 35007KT 4SM HZ SCT023 BKN045 18/14 A2994 RMK AO2 60005 T01810144 10230 20165
KY49 062355Z AUTO 35008KT 10SM OVC050 15/08 A3006 RMK AO2 T01450075 10170 20141
KY50 062356Z AUTO 24009KT 10SM CLR 25/21 A2980 RMK AO2 TSNO 56006 T02500211 10277 20250 SLP084
KY51 062355Z AUTO 34016G22KT 10SM OVC006 18/18 A2986 RMK AO1 P0001 60052 T01800180 10246 20180
KY63 070016Z AUTO 36018G23KT 10SM CLR 18/08 A3007 RMK AO2 T01750082
KY70 070013Z AUTO 20010KT 7SM CLR 27/18 A2988 RMK AO2 T02720184
KYIP 062353Z AUTO 17007KT 10SM CLR 28/17 A2996 RMK AO2 SLP137 T02780167 10306 20278 56008 TSNO
KYKM 062353Z VRB04KT 10SM FU CLR 38/09 A2984 RMK AO2 SLP094 T03780094 $
KYKN 070015Z AUTO 01015KT 5SM CLR 23/12 A3004 RMK AO1
KYNG 062351Z 03003KT 10SM FEW045 FEW090 BKN250 24/21 A3002 RMK AO2 RAE19 SLP158 CB DSNT NE-E AND SE P0000 60001 T02440206 10278 20228 58006 $
KZPH 070015Z AUTO 00000KT 10SM CLR 25/22 A3016 RMK AO2 LTG DSNT E
KZZV 062353Z AUTO 24005KT 10SM CLR 27/18 A3001 RMK AO2 SLP155 T02670183 10289 20261 58005